<?xml version="1.0" encoding="utf-8"?>
<gpx xmlns:xsi="http://www.w3.org/2001/XMLSchema-instance" xmlns:xsd="http://www.w3.org/2001/XMLSchema" version="1.1" creator="Shapelink.com" xmlns="http://www.topografix.com/GPX/1/1" xmlns:gpxtpx="http://www.garmin.com/xmlschemas/TrackPointExtension/v1">
  <metadata>
    <name>Längdskidåkning 15.47 km, 2012-02-12</name>
    <desc></desc>
    <author><name>Dennis Rehn</name></author> 
    <time>2012-02-12T09:48:03Z</time>
  </metadata>
  <trk>
    <name>Längdskidåkning 15.47 km, 2012-02-12</name>
    <trkseg>
      <trkpt lat="59.9902660558" lon="23.4080494845">
        <ele>0</ele>
        <time>2012-02-12T09:48:03Z</time>
      </trkpt>
      <trkpt lat="59.9903449295" lon="23.4082215649">
        <ele>0</ele>
        <time>2012-02-12T09:48:08Z</time>
      </trkpt>
      <trkpt lat="59.9904741784" lon="23.408404877">
        <ele>0</ele>
        <time>2012-02-12T09:48:12Z</time>
      </trkpt>
      <trkpt lat="59.9905111426" lon="23.4084670707">
        <ele>0</ele>
        <time>2012-02-12T09:48:13Z</time>
      </trkpt>
      <trkpt lat="59.9909236997" lon="23.4089996566">
        <ele>0</ele>
        <time>2012-02-12T09:48:24Z</time>
      </trkpt>
      <trkpt lat="59.9910152301" lon="23.4090442484">
        <ele>0</ele>
        <time>2012-02-12T09:48:27Z</time>
      </trkpt>
      <trkpt lat="59.9911480832" lon="23.4090968867">
        <ele>0</ele>
        <time>2012-02-12T09:48:31Z</time>
      </trkpt>
      <trkpt lat="59.9913077584" lon="23.4090382972">
        <ele>0</ele>
        <time>2012-02-12T09:48:36Z</time>
      </trkpt>
      <trkpt lat="59.9913655935" lon="23.4089779475">
        <ele>0</ele>
        <time>2012-02-12T09:48:38Z</time>
      </trkpt>
      <trkpt lat="59.991494088" lon="23.4087910312">
        <ele>0</ele>
        <time>2012-02-12T09:48:43Z</time>
      </trkpt>
      <trkpt lat="59.9915816789" lon="23.4086436774">
        <ele>0</ele>
        <time>2012-02-12T09:48:47Z</time>
      </trkpt>
      <trkpt lat="59.9916403522" lon="23.4085111595">
        <ele>0</ele>
        <time>2012-02-12T09:48:51Z</time>
      </trkpt>
      <trkpt lat="59.991662648" lon="23.4083408393">
        <ele>0</ele>
        <time>2012-02-12T09:48:55Z</time>
      </trkpt>
      <trkpt lat="59.9916383405" lon="23.4081517436">
        <ele>0</ele>
        <time>2012-02-12T09:48:59Z</time>
      </trkpt>
      <trkpt lat="59.991615877" lon="23.4079071598">
        <ele>0</ele>
        <time>2012-02-12T09:49:05Z</time>
      </trkpt>
      <trkpt lat="59.991596431" lon="23.4077335707">
        <ele>0</ele>
        <time>2012-02-12T09:49:10Z</time>
      </trkpt>
      <trkpt lat="59.9915701957" lon="23.4075205028">
        <ele>0</ele>
        <time>2012-02-12T09:49:16Z</time>
      </trkpt>
      <trkpt lat="59.9915482351" lon="23.4073028248">
        <ele>0</ele>
        <time>2012-02-12T09:49:23Z</time>
      </trkpt>
      <trkpt lat="59.9915313875" lon="23.4071567283">
        <ele>0</ele>
        <time>2012-02-12T09:49:28Z</time>
      </trkpt>
      <trkpt lat="59.991521413" lon="23.407046674">
        <ele>2.4</ele>
        <time>2012-02-12T09:49:32Z</time>
      </trkpt>
      <trkpt lat="59.9915090078" lon="23.4069626035">
        <ele>5</ele>
        <time>2012-02-12T09:49:37Z</time>
      </trkpt>
      <trkpt lat="59.9915170544" lon="23.4068289122">
        <ele>8.2</ele>
        <time>2012-02-12T09:49:44Z</time>
      </trkpt>
      <trkpt lat="59.9915228379" lon="23.4067947979">
        <ele>8.8</ele>
        <time>2012-02-12T09:49:46Z</time>
      </trkpt>
      <trkpt lat="59.9915558626" lon="23.4067186064">
        <ele>11</ele>
        <time>2012-02-12T09:49:52Z</time>
      </trkpt>
      <trkpt lat="59.9915685193" lon="23.4066818098">
        <ele>11.6</ele>
        <time>2012-02-12T09:49:54Z</time>
      </trkpt>
      <trkpt lat="59.9916189783" lon="23.4065014314">
        <ele>13.6</ele>
        <time>2012-02-12T09:50:00Z</time>
      </trkpt>
      <trkpt lat="59.9917062339" lon="23.4061852661">
        <ele>16.2</ele>
        <time>2012-02-12T09:50:10Z</time>
      </trkpt>
      <trkpt lat="59.9917252608" lon="23.4060915564">
        <ele>17.2</ele>
        <time>2012-02-12T09:50:13Z</time>
      </trkpt>
      <trkpt lat="59.9917753008" lon="23.4058754711">
        <ele>18.6</ele>
        <time>2012-02-12T09:50:18Z</time>
      </trkpt>
      <trkpt lat="59.9917908073" lon="23.4058581205">
        <ele>18.6</ele>
        <time>2012-02-12T09:50:19Z</time>
      </trkpt>
      <trkpt lat="59.991823329" lon="23.4058341483">
        <ele>19</ele>
        <time>2012-02-12T09:50:21Z</time>
      </trkpt>
      <trkpt lat="59.9919083215" lon="23.4057607229">
        <ele>19.6</ele>
        <time>2012-02-12T09:50:25Z</time>
      </trkpt>
      <trkpt lat="59.992014604" lon="23.4056030593">
        <ele>21</ele>
        <time>2012-02-12T09:50:31Z</time>
      </trkpt>
      <trkpt lat="59.9920766301" lon="23.4054432165">
        <ele>21.6</ele>
        <time>2012-02-12T09:50:36Z</time>
      </trkpt>
      <trkpt lat="59.9921444396" lon="23.405264682">
        <ele>22.8</ele>
        <time>2012-02-12T09:50:41Z</time>
      </trkpt>
      <trkpt lat="59.9922201282" lon="23.4051435636">
        <ele>23.4</ele>
        <time>2012-02-12T09:50:46Z</time>
      </trkpt>
      <trkpt lat="59.9923399055" lon="23.405015991">
        <ele>24.6</ele>
        <time>2012-02-12T09:50:51Z</time>
      </trkpt>
      <trkpt lat="59.9924399016" lon="23.4049227005">
        <ele>25.2</ele>
        <time>2012-02-12T09:50:55Z</time>
      </trkpt>
      <trkpt lat="59.9925055319" lon="23.4048211119">
        <ele>25.6</ele>
        <time>2012-02-12T09:50:59Z</time>
      </trkpt>
      <trkpt lat="59.9925756884" lon="23.4046316809">
        <ele>26</ele>
        <time>2012-02-12T09:51:04Z</time>
      </trkpt>
      <trkpt lat="59.992669398" lon="23.4044795494">
        <ele>26.2</ele>
        <time>2012-02-12T09:51:08Z</time>
      </trkpt>
      <trkpt lat="59.9927973058" lon="23.4043369733">
        <ele>26.2</ele>
        <time>2012-02-12T09:51:13Z</time>
      </trkpt>
      <trkpt lat="59.9928936138" lon="23.4042222251">
        <ele>26.4</ele>
        <time>2012-02-12T09:51:17Z</time>
      </trkpt>
      <trkpt lat="59.9929436538" lon="23.4040907131">
        <ele>26.4</ele>
        <time>2012-02-12T09:51:21Z</time>
      </trkpt>
      <trkpt lat="59.9929726552" lon="23.4038273538">
        <ele>26.4</ele>
        <time>2012-02-12T09:51:25Z</time>
      </trkpt>
      <trkpt lat="59.9930460806" lon="23.4034186524">
        <ele>26.4</ele>
        <time>2012-02-12T09:51:29Z</time>
      </trkpt>
      <trkpt lat="59.9931063465" lon="23.4030780958">
        <ele>26.4</ele>
        <time>2012-02-12T09:51:32Z</time>
      </trkpt>
      <trkpt lat="59.9931168238" lon="23.4029800275">
        <ele>26.4</ele>
        <time>2012-02-12T09:51:33Z</time>
      </trkpt>
      <trkpt lat="59.9931086096" lon="23.4027072805">
        <ele>26.4</ele>
        <time>2012-02-12T09:51:37Z</time>
      </trkpt>
      <trkpt lat="59.9931025746" lon="23.4026164207">
        <ele>26.4</ele>
        <time>2012-02-12T09:51:39Z</time>
      </trkpt>
      <trkpt lat="59.9930794406" lon="23.4023637902">
        <ele>26.4</ele>
        <time>2012-02-12T09:51:45Z</time>
      </trkpt>
      <trkpt lat="59.9930552169" lon="23.4020939769">
        <ele>26.4</ele>
        <time>2012-02-12T09:51:51Z</time>
      </trkpt>
      <trkpt lat="59.9930220246" lon="23.4018203078">
        <ele>26.4</ele>
        <time>2012-02-12T09:51:58Z</time>
      </trkpt>
      <trkpt lat="59.9929955378" lon="23.4015916496">
        <ele>26.6</ele>
        <time>2012-02-12T09:52:03Z</time>
      </trkpt>
      <trkpt lat="59.992988497" lon="23.4013578784">
        <ele>27.4</ele>
        <time>2012-02-12T09:52:08Z</time>
      </trkpt>
      <trkpt lat="59.9929959568" lon="23.4011301422">
        <ele>27.8</ele>
        <time>2012-02-12T09:52:13Z</time>
      </trkpt>
      <trkpt lat="59.9929963759" lon="23.4008809483">
        <ele>28.6</ele>
        <time>2012-02-12T09:52:18Z</time>
      </trkpt>
      <trkpt lat="59.9929907601" lon="23.4006739154">
        <ele>29.4</ele>
        <time>2012-02-12T09:52:23Z</time>
      </trkpt>
      <trkpt lat="59.9929910115" lon="23.4007553874">
        <ele>29.8</ele>
        <time>2012-02-12T09:52:28Z</time>
      </trkpt>
      <trkpt lat="59.9929976332" lon="23.4007521185">
        <ele>30</ele>
        <time>2012-02-12T09:52:30Z</time>
      </trkpt>
      <trkpt lat="59.9930956176" lon="23.4007146514">
        <ele>30.2</ele>
        <time>2012-02-12T09:52:36Z</time>
      </trkpt>
      <trkpt lat="59.9931136387" lon="23.4007006536">
        <ele>30.4</ele>
        <time>2012-02-12T09:52:37Z</time>
      </trkpt>
      <trkpt lat="59.993211707" lon="23.400653715">
        <ele>30.4</ele>
        <time>2012-02-12T09:52:40Z</time>
      </trkpt>
      <trkpt lat="59.9933377707" lon="23.4005880847">
        <ele>30.4</ele>
        <time>2012-02-12T09:52:44Z</time>
      </trkpt>
      <trkpt lat="59.9934660976" lon="23.4005276512">
        <ele>30.4</ele>
        <time>2012-02-12T09:52:48Z</time>
      </trkpt>
      <trkpt lat="59.993637256" lon="23.4003814709">
        <ele>30.6</ele>
        <time>2012-02-12T09:52:54Z</time>
      </trkpt>
      <trkpt lat="59.9936913193" lon="23.4003354543">
        <ele>30.6</ele>
        <time>2012-02-12T09:52:56Z</time>
      </trkpt>
      <trkpt lat="59.9938319676" lon="23.4003012561">
        <ele>30.2</ele>
        <time>2012-02-12T09:53:01Z</time>
      </trkpt>
      <trkpt lat="59.9940244998" lon="23.4003738434">
        <ele>29.4</ele>
        <time>2012-02-12T09:53:07Z</time>
      </trkpt>
      <trkpt lat="59.9940856877" lon="23.4004100532">
        <ele>28.6</ele>
        <time>2012-02-12T09:53:09Z</time>
      </trkpt>
      <trkpt lat="59.9942827461" lon="23.4005129829">
        <ele>27.6</ele>
        <time>2012-02-12T09:53:15Z</time>
      </trkpt>
      <trkpt lat="59.9943187883" lon="23.4005310878">
        <ele>27.6</ele>
        <time>2012-02-12T09:53:16Z</time>
      </trkpt>
      <trkpt lat="59.9945447643" lon="23.4006775196">
        <ele>26.2</ele>
        <time>2012-02-12T09:53:22Z</time>
      </trkpt>
      <trkpt lat="59.9946599316" lon="23.4008109594">
        <ele>25.6</ele>
        <time>2012-02-12T09:53:25Z</time>
      </trkpt>
      <trkpt lat="59.9948601752" lon="23.4009091115">
        <ele>25</ele>
        <time>2012-02-12T09:53:30Z</time>
      </trkpt>
      <trkpt lat="59.9949725765" lon="23.4008998914">
        <ele>24.2</ele>
        <time>2012-02-12T09:53:33Z</time>
      </trkpt>
      <trkpt lat="59.9950708124" lon="23.4008974607">
        <ele>23.4</ele>
        <time>2012-02-12T09:53:37Z</time>
      </trkpt>
      <trkpt lat="59.9951778492" lon="23.4008304893">
        <ele>22.6</ele>
        <time>2012-02-12T09:53:42Z</time>
      </trkpt>
      <trkpt lat="59.9952656915" lon="23.4007490172">
        <ele>21.4</ele>
        <time>2012-02-12T09:53:47Z</time>
      </trkpt>
      <trkpt lat="59.9953790148" lon="23.4006824649">
        <ele>20.8</ele>
        <time>2012-02-12T09:53:52Z</time>
      </trkpt>
      <trkpt lat="59.9954723892" lon="23.400614823">
        <ele>20.4</ele>
        <time>2012-02-12T09:53:56Z</time>
      </trkpt>
      <trkpt lat="59.9955214233" lon="23.4005890067">
        <ele>20.4</ele>
        <time>2012-02-12T09:53:58Z</time>
      </trkpt>
      <trkpt lat="59.9955928371" lon="23.4005715724">
        <ele>20.2</ele>
        <time>2012-02-12T09:54:01Z</time>
      </trkpt>
      <trkpt lat="59.9957023885" lon="23.4005605921">
        <ele>20</ele>
        <time>2012-02-12T09:54:05Z</time>
      </trkpt>
      <trkpt lat="59.9958388459" lon="23.4005842291">
        <ele>20</ele>
        <time>2012-02-12T09:54:10Z</time>
      </trkpt>
      <trkpt lat="59.9959742136" lon="23.4005841452">
        <ele>20</ele>
        <time>2012-02-12T09:54:15Z</time>
      </trkpt>
      <trkpt lat="59.9960748802" lon="23.4006192654">
        <ele>19.8</ele>
        <time>2012-02-12T09:54:19Z</time>
      </trkpt>
      <trkpt lat="59.9962658199" lon="23.4007292359">
        <ele>19.4</ele>
        <time>2012-02-12T09:54:23Z</time>
      </trkpt>
      <trkpt lat="59.9964329549" lon="23.4006836384">
        <ele>19</ele>
        <time>2012-02-12T09:54:26Z</time>
      </trkpt>
      <trkpt lat="59.9964817376" lon="23.4006580736">
        <ele>18.8</ele>
        <time>2012-02-12T09:54:27Z</time>
      </trkpt>
      <trkpt lat="59.9967392296" lon="23.4006774358">
        <ele>18.2</ele>
        <time>2012-02-12T09:54:33Z</time>
      </trkpt>
      <trkpt lat="59.9967709132" lon="23.400678274">
        <ele>18.2</ele>
        <time>2012-02-12T09:54:34Z</time>
      </trkpt>
      <trkpt lat="59.9968736752" lon="23.4006832193">
        <ele>18</ele>
        <time>2012-02-12T09:54:37Z</time>
      </trkpt>
      <trkpt lat="59.996997895" lon="23.4007581535">
        <ele>18</ele>
        <time>2012-02-12T09:54:40Z</time>
      </trkpt>
      <trkpt lat="59.9972136451" lon="23.4007641884">
        <ele>17.8</ele>
        <time>2012-02-12T09:54:44Z</time>
      </trkpt>
      <trkpt lat="59.9973531199" lon="23.400732421">
        <ele>17.8</ele>
        <time>2012-02-12T09:54:48Z</time>
      </trkpt>
      <trkpt lat="59.997505" lon="23.4006580736">
        <ele>17.8</ele>
        <time>2012-02-12T09:54:54Z</time>
      </trkpt>
      <trkpt lat="59.9975264576" lon="23.4006434053">
        <ele>17.8</ele>
        <time>2012-02-12T09:54:55Z</time>
      </trkpt>
      <trkpt lat="59.9976391104" lon="23.4005675491">
        <ele>17.4</ele>
        <time>2012-02-12T09:55:00Z</time>
      </trkpt>
      <trkpt lat="59.9977301378" lon="23.400480042">
        <ele>16.8</ele>
        <time>2012-02-12T09:55:04Z</time>
      </trkpt>
      <trkpt lat="59.9978463109" lon="23.4004113943">
        <ele>16.4</ele>
        <time>2012-02-12T09:55:08Z</time>
      </trkpt>
      <trkpt lat="59.9980463869" lon="23.400342076">
        <ele>16.2</ele>
        <time>2012-02-12T09:55:12Z</time>
      </trkpt>
      <trkpt lat="59.9982364045" lon="23.4002917007">
        <ele>16</ele>
        <time>2012-02-12T09:55:15Z</time>
      </trkpt>
      <trkpt lat="59.9986531526" lon="23.4001533994">
        <ele>15</ele>
        <time>2012-02-12T09:55:22Z</time>
      </trkpt>
      <trkpt lat="59.998735882" lon="23.4000508049">
        <ele>14.6</ele>
        <time>2012-02-12T09:55:25Z</time>
      </trkpt>
      <trkpt lat="59.9988166835" lon="23.3999244897">
        <ele>14.2</ele>
        <time>2012-02-12T09:55:30Z</time>
      </trkpt>
      <trkpt lat="59.9988299269" lon="23.3999031159">
        <ele>14.2</ele>
        <time>2012-02-12T09:55:31Z</time>
      </trkpt>
      <trkpt lat="59.9989197809" lon="23.3997468772">
        <ele>14</ele>
        <time>2012-02-12T09:55:36Z</time>
      </trkpt>
      <trkpt lat="59.9989877581" lon="23.3996179636">
        <ele>13.8</ele>
        <time>2012-02-12T09:55:40Z</time>
      </trkpt>
      <trkpt lat="59.9990657097" lon="23.3994858649">
        <ele>13.8</ele>
        <time>2012-02-12T09:55:44Z</time>
      </trkpt>
      <trkpt lat="59.9991460922" lon="23.3993559454">
        <ele>13.6</ele>
        <time>2012-02-12T09:55:48Z</time>
      </trkpt>
      <trkpt lat="59.9992522908" lon="23.3991464817">
        <ele>13.6</ele>
        <time>2012-02-12T09:55:52Z</time>
      </trkpt>
      <trkpt lat="59.9993044262" lon="23.3990316497">
        <ele>13.6</ele>
        <time>2012-02-12T09:55:54Z</time>
      </trkpt>
      <trkpt lat="59.9993926877" lon="23.3987305719">
        <ele>13.6</ele>
        <time>2012-02-12T09:56:00Z</time>
      </trkpt>
      <trkpt lat="59.9994554681" lon="23.3985355251">
        <ele>13.6</ele>
        <time>2012-02-12T09:56:05Z</time>
      </trkpt>
      <trkpt lat="59.999530067" lon="23.3983346109">
        <ele>13.6</ele>
        <time>2012-02-12T09:56:09Z</time>
      </trkpt>
      <trkpt lat="59.9996321585" lon="23.3980750235">
        <ele>13.6</ele>
        <time>2012-02-12T09:56:13Z</time>
      </trkpt>
      <trkpt lat="59.9996744871" lon="23.3979943896">
        <ele>13.6</ele>
        <time>2012-02-12T09:56:14Z</time>
      </trkpt>
      <trkpt lat="59.999845897" lon="23.3978228121">
        <ele>13.6</ele>
        <time>2012-02-12T09:56:17Z</time>
      </trkpt>
      <trkpt lat="59.9999659258" lon="23.397739496">
        <ele>13.6</ele>
        <time>2012-02-12T09:56:19Z</time>
      </trkpt>
      <trkpt lat="60.000147813" lon="23.3977294377">
        <ele>13.4</ele>
        <time>2012-02-12T09:56:23Z</time>
      </trkpt>
      <trkpt lat="60.0002156226" lon="23.3977843392">
        <ele>12.8</ele>
        <time>2012-02-12T09:56:26Z</time>
      </trkpt>
      <trkpt lat="60.0002583703" lon="23.3978187888">
        <ele>12.6</ele>
        <time>2012-02-12T09:56:28Z</time>
      </trkpt>
      <trkpt lat="60.0003291973" lon="23.3978891129">
        <ele>12.2</ele>
        <time>2012-02-12T09:56:31Z</time>
      </trkpt>
      <trkpt lat="60.0003762198" lon="23.3979407454">
        <ele>12.2</ele>
        <time>2012-02-12T09:56:33Z</time>
      </trkpt>
      <trkpt lat="60.0004929797" lon="23.3980295936">
        <ele>11.8</ele>
        <time>2012-02-12T09:56:38Z</time>
      </trkpt>
      <trkpt lat="60.0006223124" lon="23.3980585949">
        <ele>11.6</ele>
        <time>2012-02-12T09:56:44Z</time>
      </trkpt>
      <trkpt lat="60.0007529862" lon="23.3979896119">
        <ele>11.6</ele>
        <time>2012-02-12T09:56:50Z</time>
      </trkpt>
      <trkpt lat="60.0008576761" lon="23.3978624585">
        <ele>11.6</ele>
        <time>2012-02-12T09:56:56Z</time>
      </trkpt>
      <trkpt lat="60.0009581751" lon="23.3976853489">
        <ele>11.6</ele>
        <time>2012-02-12T09:57:03Z</time>
      </trkpt>
      <trkpt lat="60.0010333608" lon="23.3975608777">
        <ele>12.2</ele>
        <time>2012-02-12T09:57:08Z</time>
      </trkpt>
      <trkpt lat="60.0010832331" lon="23.3974644859">
        <ele>13.6</ele>
        <time>2012-02-12T09:57:15Z</time>
      </trkpt>
      <trkpt lat="60.001108714" lon="23.3973950837">
        <ele>17.8</ele>
        <time>2012-02-12T09:57:40Z</time>
      </trkpt>
      <trkpt lat="60.0012417348" lon="23.3972209079">
        <ele>19.2</ele>
        <time>2012-02-12T09:57:50Z</time>
      </trkpt>
      <trkpt lat="60.0013807067" lon="23.3970147969">
        <ele>20.8</ele>
        <time>2012-02-12T09:58:01Z</time>
      </trkpt>
      <trkpt lat="60.0015254621" lon="23.39691522">
        <ele>22.2</ele>
        <time>2012-02-12T09:58:11Z</time>
      </trkpt>
      <trkpt lat="60.0015644379" lon="23.3968948519">
        <ele>22.6</ele>
        <time>2012-02-12T09:58:14Z</time>
      </trkpt>
      <trkpt lat="60.0016046711" lon="23.3967931795">
        <ele>23.2</ele>
        <time>2012-02-12T09:58:19Z</time>
      </trkpt>
      <trkpt lat="60.0016482569" lon="23.3964568977">
        <ele>25</ele>
        <time>2012-02-12T09:58:30Z</time>
      </trkpt>
      <trkpt lat="60.0016905017" lon="23.3961053608">
        <ele>27</ele>
        <time>2012-02-12T09:58:42Z</time>
      </trkpt>
      <trkpt lat="60.0017183296" lon="23.3957801431">
        <ele>29.2</ele>
        <time>2012-02-12T09:58:53Z</time>
      </trkpt>
      <trkpt lat="60.0017217662" lon="23.3955861021">
        <ele>31</ele>
        <time>2012-02-12T09:59:01Z</time>
      </trkpt>
      <trkpt lat="60.0017200898" lon="23.39536943">
        <ele>34.2</ele>
        <time>2012-02-12T09:59:15Z</time>
      </trkpt>
      <trkpt lat="60.0017270468" lon="23.3955557596">
        <ele>35.6</ele>
        <time>2012-02-12T09:59:22Z</time>
      </trkpt>
      <trkpt lat="60.0017151445" lon="23.3958948913">
        <ele>36.2</ele>
        <time>2012-02-12T09:59:32Z</time>
      </trkpt>
      <trkpt lat="60.0016801082" lon="23.3962606774">
        <ele>36.6</ele>
        <time>2012-02-12T09:59:43Z</time>
      </trkpt>
      <trkpt lat="60.0016371928" lon="23.3965125535">
        <ele>36.6</ele>
        <time>2012-02-12T09:59:51Z</time>
      </trkpt>
      <trkpt lat="60.00149864" lon="23.3969609013">
        <ele>36</ele>
        <time>2012-02-12T10:00:08Z</time>
      </trkpt>
      <trkpt lat="60.0014109654" lon="23.3970168086">
        <ele>35.2</ele>
        <time>2012-02-12T10:00:15Z</time>
      </trkpt>
      <trkpt lat="60.0013673795" lon="23.397072213">
        <ele>33.6</ele>
        <time>2012-02-12T10:00:26Z</time>
      </trkpt>
      <trkpt lat="60.0012556487" lon="23.3972406053">
        <ele>33</ele>
        <time>2012-02-12T10:00:35Z</time>
      </trkpt>
      <trkpt lat="60.0011704886" lon="23.3973764759">
        <ele>31.6</ele>
        <time>2012-02-12T10:00:42Z</time>
      </trkpt>
      <trkpt lat="60.0011149166" lon="23.397455182">
        <ele>31</ele>
        <time>2012-02-12T10:00:49Z</time>
      </trkpt>
      <trkpt lat="60.0011117315" lon="23.3974709399">
        <ele>29.8</ele>
        <time>2012-02-12T10:00:58Z</time>
      </trkpt>
      <trkpt lat="60.0011063671" lon="23.3974821717">
        <ele>29.4</ele>
        <time>2012-02-12T10:01:02Z</time>
      </trkpt>
      <trkpt lat="60.0010885975" lon="23.397495918">
        <ele>24.4</ele>
        <time>2012-02-12T10:02:27Z</time>
      </trkpt>
      <trkpt lat="60.0010266552" lon="23.3976229876">
        <ele>24.4</ele>
        <time>2012-02-12T10:02:31Z</time>
      </trkpt>
      <trkpt lat="60.0008289262" lon="23.3979513904">
        <ele>24.2</ele>
        <time>2012-02-12T10:02:37Z</time>
      </trkpt>
      <trkpt lat="60.0007296007" lon="23.3980381431">
        <ele>24</ele>
        <time>2012-02-12T10:02:39Z</time>
      </trkpt>
      <trkpt lat="60.000455764" lon="23.3979871812">
        <ele>23.2</ele>
        <time>2012-02-12T10:02:44Z</time>
      </trkpt>
      <trkpt lat="60.0004184646" lon="23.3979534021">
        <ele>23</ele>
        <time>2012-02-12T10:02:45Z</time>
      </trkpt>
      <trkpt lat="60.0003583664" lon="23.397895567">
        <ele>22.4</ele>
        <time>2012-02-12T10:02:47Z</time>
      </trkpt>
      <trkpt lat="60.0002815881" lon="23.3978337924">
        <ele>21.8</ele>
        <time>2012-02-12T10:02:50Z</time>
      </trkpt>
      <trkpt lat="60.0001507467" lon="23.3977483808">
        <ele>20.6</ele>
        <time>2012-02-12T10:02:55Z</time>
      </trkpt>
      <trkpt lat="60.0000554445" lon="23.3977454472">
        <ele>19.6</ele>
        <time>2012-02-12T10:02:59Z</time>
      </trkpt>
      <trkpt lat="59.9999409477" lon="23.3978146817">
        <ele>18.6</ele>
        <time>2012-02-12T10:03:05Z</time>
      </trkpt>
      <trkpt lat="59.9998579669" lon="23.3978819883">
        <ele>17.8</ele>
        <time>2012-02-12T10:03:09Z</time>
      </trkpt>
      <trkpt lat="59.9998063344" lon="23.3979352134">
        <ele>17.2</ele>
        <time>2012-02-12T10:03:13Z</time>
      </trkpt>
      <trkpt lat="59.9997542828" lon="23.3979926294">
        <ele>16.6</ele>
        <time>2012-02-12T10:03:18Z</time>
      </trkpt>
      <trkpt lat="59.9997430511" lon="23.39799791">
        <ele>16.6</ele>
        <time>2012-02-12T10:03:19Z</time>
      </trkpt>
      <trkpt lat="59.9996969506" lon="23.3980651328">
        <ele>16.2</ele>
        <time>2012-02-12T10:03:24Z</time>
      </trkpt>
      <trkpt lat="59.9996326614" lon="23.3981730917">
        <ele>16.2</ele>
        <time>2012-02-12T10:03:31Z</time>
      </trkpt>
      <trkpt lat="59.9996195019" lon="23.3982151688">
        <ele>16</ele>
        <time>2012-02-12T10:03:33Z</time>
      </trkpt>
      <trkpt lat="59.9995747425" lon="23.3983594213">
        <ele>16</ele>
        <time>2012-02-12T10:03:39Z</time>
      </trkpt>
      <trkpt lat="59.9995395385" lon="23.398480456">
        <ele>16</ele>
        <time>2012-02-12T10:03:43Z</time>
      </trkpt>
      <trkpt lat="59.9995325816" lon="23.3985051826">
        <ele>16</ele>
        <time>2012-02-12T10:03:44Z</time>
      </trkpt>
      <trkpt lat="59.9994931866" lon="23.3986307434">
        <ele>16</ele>
        <time>2012-02-12T10:03:49Z</time>
      </trkpt>
      <trkpt lat="59.9994437334" lon="23.3987960345">
        <ele>16</ele>
        <time>2012-02-12T10:03:53Z</time>
      </trkpt>
      <trkpt lat="59.9992873272" lon="23.3992016346">
        <ele>16</ele>
        <time>2012-02-12T10:04:06Z</time>
      </trkpt>
      <trkpt lat="59.9992348565" lon="23.3993105155">
        <ele>16</ele>
        <time>2012-02-12T10:04:10Z</time>
      </trkpt>
      <trkpt lat="59.9991756803" lon="23.3994286165">
        <ele>16</ele>
        <time>2012-02-12T10:04:14Z</time>
      </trkpt>
      <trkpt lat="59.9990914422" lon="23.3996002778">
        <ele>16</ele>
        <time>2012-02-12T10:04:19Z</time>
      </trkpt>
      <trkpt lat="59.9990198607" lon="23.3997369866">
        <ele>16</ele>
        <time>2012-02-12T10:04:23Z</time>
      </trkpt>
      <trkpt lat="59.9988518036" lon="23.400005878">
        <ele>16</ele>
        <time>2012-02-12T10:04:30Z</time>
      </trkpt>
      <trkpt lat="59.9986978281" lon="23.4001962309">
        <ele>16</ele>
        <time>2012-02-12T10:04:34Z</time>
      </trkpt>
      <trkpt lat="59.9985919647" lon="23.4002887671">
        <ele>16</ele>
        <time>2012-02-12T10:04:38Z</time>
      </trkpt>
      <trkpt lat="59.9984787253" lon="23.4003234681">
        <ele>16</ele>
        <time>2012-02-12T10:04:42Z</time>
      </trkpt>
      <trkpt lat="59.9983716046" lon="23.400321205">
        <ele>16</ele>
        <time>2012-02-12T10:04:47Z</time>
      </trkpt>
      <trkpt lat="59.9982346443" lon="23.4003581692">
        <ele>16</ele>
        <time>2012-02-12T10:04:53Z</time>
      </trkpt>
      <trkpt lat="59.9980786572" lon="23.4004225422">
        <ele>16</ele>
        <time>2012-02-12T10:04:59Z</time>
      </trkpt>
      <trkpt lat="59.9978150464" lon="23.4005268969">
        <ele>16</ele>
        <time>2012-02-12T10:05:09Z</time>
      </trkpt>
      <trkpt lat="59.9976487495" lon="23.4007242068">
        <ele>16</ele>
        <time>2012-02-12T10:05:15Z</time>
      </trkpt>
      <trkpt lat="59.9975163993" lon="23.400838955">
        <ele>16</ele>
        <time>2012-02-12T10:05:19Z</time>
      </trkpt>
      <trkpt lat="59.9973646869" lon="23.400906094">
        <ele>16</ele>
        <time>2012-02-12T10:05:23Z</time>
      </trkpt>
      <trkpt lat="59.9971796984" lon="23.4009296471">
        <ele>16</ele>
        <time>2012-02-12T10:05:28Z</time>
      </trkpt>
      <trkpt lat="59.9971374536" lon="23.4009366041">
        <ele>16</ele>
        <time>2012-02-12T10:05:29Z</time>
      </trkpt>
      <trkpt lat="59.997053467" lon="23.4009137215">
        <ele>16</ele>
        <time>2012-02-12T10:05:32Z</time>
      </trkpt>
      <trkpt lat="59.9969420715" lon="23.4008282262">
        <ele>16</ele>
        <time>2012-02-12T10:05:37Z</time>
      </trkpt>
      <trkpt lat="59.9967708293" lon="23.4007836345">
        <ele>16</ele>
        <time>2012-02-12T10:05:44Z</time>
      </trkpt>
      <trkpt lat="59.9966743537" lon="23.4007688823">
        <ele>16</ele>
        <time>2012-02-12T10:05:48Z</time>
      </trkpt>
      <trkpt lat="59.9965543249" lon="23.400741222">
        <ele>16</ele>
        <time>2012-02-12T10:05:54Z</time>
      </trkpt>
      <trkpt lat="59.9964434323" lon="23.400792184">
        <ele>16</ele>
        <time>2012-02-12T10:05:59Z</time>
      </trkpt>
      <trkpt lat="59.9962386625" lon="23.4008061818">
        <ele>16</ele>
        <time>2012-02-12T10:06:09Z</time>
      </trkpt>
      <trkpt lat="59.9962254191" lon="23.4007998115">
        <ele>16</ele>
        <time>2012-02-12T10:06:10Z</time>
      </trkpt>
      <trkpt lat="59.9961043006" lon="23.4007068562">
        <ele>16</ele>
        <time>2012-02-12T10:06:18Z</time>
      </trkpt>
      <trkpt lat="59.996029115" lon="23.4006812076">
        <ele>16</ele>
        <time>2012-02-12T10:06:24Z</time>
      </trkpt>
      <trkpt lat="59.9959272749" lon="23.4006802018">
        <ele>16.4</ele>
        <time>2012-02-12T10:06:28Z</time>
      </trkpt>
      <trkpt lat="59.995808671" lon="23.4006886675">
        <ele>16.8</ele>
        <time>2012-02-12T10:06:32Z</time>
      </trkpt>
      <trkpt lat="59.9957024724" lon="23.4006783578">
        <ele>17.2</ele>
        <time>2012-02-12T10:06:36Z</time>
      </trkpt>
      <trkpt lat="59.9955188249" lon="23.4007651943">
        <ele>17.6</ele>
        <time>2012-02-12T10:06:43Z</time>
      </trkpt>
      <trkpt lat="59.9953537853" lon="23.4009282222">
        <ele>17.8</ele>
        <time>2012-02-12T10:06:49Z</time>
      </trkpt>
      <trkpt lat="59.995214562" lon="23.4010547051">
        <ele>17.8</ele>
        <time>2012-02-12T10:06:53Z</time>
      </trkpt>
      <trkpt lat="59.9951841357" lon="23.4010656016">
        <ele>17.8</ele>
        <time>2012-02-12T10:06:54Z</time>
      </trkpt>
      <trkpt lat="59.9950432359" lon="23.4011181561">
        <ele>17.8</ele>
        <time>2012-02-12T10:06:57Z</time>
      </trkpt>
      <trkpt lat="59.9948742568" lon="23.4010978719">
        <ele>17.8</ele>
        <time>2012-02-12T10:07:02Z</time>
      </trkpt>
      <trkpt lat="59.9948129851" lon="23.4010803537">
        <ele>17.8</ele>
        <time>2012-02-12T10:07:05Z</time>
      </trkpt>
      <trkpt lat="59.9947906055" lon="23.4010664398">
        <ele>17.8</ele>
        <time>2012-02-12T10:07:07Z</time>
      </trkpt>
      <trkpt lat="59.9947819721" lon="23.4010580579">
        <ele>18</ele>
        <time>2012-02-12T10:07:09Z</time>
      </trkpt>
      <trkpt lat="59.9948024239" lon="23.4009965347">
        <ele>18</ele>
        <time>2012-02-12T10:07:14Z</time>
      </trkpt>
      <trkpt lat="59.9948118117" lon="23.4009821178">
        <ele>18</ele>
        <time>2012-02-12T10:07:15Z</time>
      </trkpt>
      <trkpt lat="59.9948903501" lon="23.4008443194">
        <ele>18.2</ele>
        <time>2012-02-12T10:07:21Z</time>
      </trkpt>
      <trkpt lat="59.994956148" lon="23.4007108796">
        <ele>19</ele>
        <time>2012-02-12T10:07:27Z</time>
      </trkpt>
      <trkpt lat="59.9950158271" lon="23.4005669623">
        <ele>19.4</ele>
        <time>2012-02-12T10:07:32Z</time>
      </trkpt>
      <trkpt lat="59.9950738299" lon="23.4004157529">
        <ele>20.6</ele>
        <time>2012-02-12T10:07:37Z</time>
      </trkpt>
      <trkpt lat="59.995107106" lon="23.4003009208">
        <ele>21.8</ele>
        <time>2012-02-12T10:07:43Z</time>
      </trkpt>
      <trkpt lat="59.9951428129" lon="23.4001452689">
        <ele>23.4</ele>
        <time>2012-02-12T10:07:49Z</time>
      </trkpt>
      <trkpt lat="59.9951688806" lon="23.3999324525">
        <ele>24.8</ele>
        <time>2012-02-12T10:07:54Z</time>
      </trkpt>
      <trkpt lat="59.995164522" lon="23.3997012797">
        <ele>26.8</ele>
        <time>2012-02-12T10:08:01Z</time>
      </trkpt>
      <trkpt lat="59.9951350177" lon="23.399577982">
        <ele>28.6</ele>
        <time>2012-02-12T10:08:07Z</time>
      </trkpt>
      <trkpt lat="59.9949980575" lon="23.3993225855">
        <ele>31</ele>
        <time>2012-02-12T10:08:16Z</time>
      </trkpt>
      <trkpt lat="59.9948651205" lon="23.399182021">
        <ele>31.8</ele>
        <time>2012-02-12T10:08:21Z</time>
      </trkpt>
      <trkpt lat="59.9947603468" lon="23.3990744812">
        <ele>32.2</ele>
        <time>2012-02-12T10:08:26Z</time>
      </trkpt>
      <trkpt lat="59.9946927049" lon="23.3989428854">
        <ele>32.6</ele>
        <time>2012-02-12T10:08:31Z</time>
      </trkpt>
      <trkpt lat="59.9946827304" lon="23.398913884">
        <ele>32.6</ele>
        <time>2012-02-12T10:08:32Z</time>
      </trkpt>
      <trkpt lat="59.9946292539" lon="23.3987672008">
        <ele>32.8</ele>
        <time>2012-02-12T10:08:36Z</time>
      </trkpt>
      <trkpt lat="59.994621794" lon="23.3987255427">
        <ele>32.8</ele>
        <time>2012-02-12T10:08:37Z</time>
      </trkpt>
      <trkpt lat="59.994585668" lon="23.3984757621">
        <ele>32.8</ele>
        <time>2012-02-12T10:08:43Z</time>
      </trkpt>
      <trkpt lat="59.9945364662" lon="23.3983173442">
        <ele>32.8</ele>
        <time>2012-02-12T10:08:48Z</time>
      </trkpt>
      <trkpt lat="59.994488438" lon="23.398234531">
        <ele>32.8</ele>
        <time>2012-02-12T10:08:51Z</time>
      </trkpt>
      <trkpt lat="59.9943192912" lon="23.3980865905">
        <ele>33</ele>
        <time>2012-02-12T10:08:56Z</time>
      </trkpt>
      <trkpt lat="59.9941153596" lon="23.3976652324">
        <ele>33</ele>
        <time>2012-02-12T10:09:07Z</time>
      </trkpt>
      <trkpt lat="59.9940450355" lon="23.3973182217">
        <ele>33</ele>
        <time>2012-02-12T10:09:13Z</time>
      </trkpt>
      <trkpt lat="59.9939531698" lon="23.3969950995">
        <ele>32.8</ele>
        <time>2012-02-12T10:09:16Z</time>
      </trkpt>
      <trkpt lat="59.9937922373" lon="23.3965677064">
        <ele>32.2</ele>
        <time>2012-02-12T10:09:19Z</time>
      </trkpt>
      <trkpt lat="59.9936347414" lon="23.3962095478">
        <ele>31.2</ele>
        <time>2012-02-12T10:09:22Z</time>
      </trkpt>
      <trkpt lat="59.9935008825" lon="23.3959203723">
        <ele>30.4</ele>
        <time>2012-02-12T10:09:26Z</time>
      </trkpt>
      <trkpt lat="59.9934780837" lon="23.3958781275">
        <ele>30</ele>
        <time>2012-02-12T10:09:27Z</time>
      </trkpt>
      <trkpt lat="59.9934050774" lon="23.3957289297">
        <ele>28.6</ele>
        <time>2012-02-12T10:09:32Z</time>
      </trkpt>
      <trkpt lat="59.9933929236" lon="23.3957057118">
        <ele>28.4</ele>
        <time>2012-02-12T10:09:33Z</time>
      </trkpt>
      <trkpt lat="59.9933497568" lon="23.3956554204">
        <ele>27.8</ele>
        <time>2012-02-12T10:09:36Z</time>
      </trkpt>
      <trkpt lat="59.9932790136" lon="23.3955137663">
        <ele>27.2</ele>
        <time>2012-02-12T10:09:42Z</time>
      </trkpt>
      <trkpt lat="59.9932041632" lon="23.3954046339">
        <ele>27</ele>
        <time>2012-02-12T10:09:47Z</time>
      </trkpt>
      <trkpt lat="59.9931878185" lon="23.3953871996">
        <ele>27</ele>
        <time>2012-02-12T10:09:48Z</time>
      </trkpt>
      <trkpt lat="59.9931044186" lon="23.3952593756">
        <ele>27.8</ele>
        <time>2012-02-12T10:09:54Z</time>
      </trkpt>
      <trkpt lat="59.9930217731" lon="23.3951611398">
        <ele>29.2</ele>
        <time>2012-02-12T10:09:59Z</time>
      </trkpt>
      <trkpt lat="59.992920855" lon="23.3949930827">
        <ele>30.8</ele>
        <time>2012-02-12T10:10:09Z</time>
      </trkpt>
      <trkpt lat="59.9928822145" lon="23.3949288773">
        <ele>32</ele>
        <time>2012-02-12T10:10:14Z</time>
      </trkpt>
      <trkpt lat="59.9928080347" lon="23.3948205832">
        <ele>33.4</ele>
        <time>2012-02-12T10:10:20Z</time>
      </trkpt>
      <trkpt lat="59.9928014968" lon="23.3948052443">
        <ele>33.6</ele>
        <time>2012-02-12T10:10:21Z</time>
      </trkpt>
      <trkpt lat="59.9927666281" lon="23.3947314836">
        <ele>34.8</ele>
        <time>2012-02-12T10:10:25Z</time>
      </trkpt>
      <trkpt lat="59.9927150794" lon="23.394650682">
        <ele>36</ele>
        <time>2012-02-12T10:10:31Z</time>
      </trkpt>
      <trkpt lat="59.9926835634" lon="23.3946010612">
        <ele>37.4</ele>
        <time>2012-02-12T10:10:36Z</time>
      </trkpt>
      <trkpt lat="59.9926782828" lon="23.3945902485">
        <ele>37.6</ele>
        <time>2012-02-12T10:10:37Z</time>
      </trkpt>
      <trkpt lat="59.9926445038" lon="23.3945005622">
        <ele>38.4</ele>
        <time>2012-02-12T10:10:42Z</time>
      </trkpt>
      <trkpt lat="59.9926238843" lon="23.3943865684">
        <ele>38.6</ele>
        <time>2012-02-12T10:10:46Z</time>
      </trkpt>
      <trkpt lat="59.9925559909" lon="23.3942547211">
        <ele>39</ele>
        <time>2012-02-12T10:10:51Z</time>
      </trkpt>
      <trkpt lat="59.9924922047" lon="23.3941165874">
        <ele>39.2</ele>
        <time>2012-02-12T10:10:56Z</time>
      </trkpt>
      <trkpt lat="59.9924769496" lon="23.3940902682">
        <ele>39.2</ele>
        <time>2012-02-12T10:10:57Z</time>
      </trkpt>
      <trkpt lat="59.9924084695" lon="23.3939848239">
        <ele>39.2</ele>
        <time>2012-02-12T10:11:01Z</time>
      </trkpt>
      <trkpt lat="59.9923244828" lon="23.3937366358">
        <ele>39.4</ele>
        <time>2012-02-12T10:11:09Z</time>
      </trkpt>
      <trkpt lat="59.9922582658" lon="23.3934924711">
        <ele>40</ele>
        <time>2012-02-12T10:11:16Z</time>
      </trkpt>
      <trkpt lat="59.9922432622" lon="23.3933829197">
        <ele>40.4</ele>
        <time>2012-02-12T10:11:19Z</time>
      </trkpt>
      <trkpt lat="59.9922022747" lon="23.3932351468">
        <ele>40.8</ele>
        <time>2012-02-12T10:11:23Z</time>
      </trkpt>
      <trkpt lat="59.9921486306" lon="23.3930354899">
        <ele>41.2</ele>
        <time>2012-02-12T10:11:29Z</time>
      </trkpt>
      <trkpt lat="59.9920941482" lon="23.3928999546">
        <ele>41.2</ele>
        <time>2012-02-12T10:11:34Z</time>
      </trkpt>
      <trkpt lat="59.9920653983" lon="23.3928411136">
        <ele>41.6</ele>
        <time>2012-02-12T10:11:36Z</time>
      </trkpt>
      <trkpt lat="59.991944699" lon="23.3926681951">
        <ele>42.6</ele>
        <time>2012-02-12T10:11:42Z</time>
      </trkpt>
      <trkpt lat="59.9918406796" lon="23.392610779">
        <ele>43</ele>
        <time>2012-02-12T10:11:47Z</time>
      </trkpt>
      <trkpt lat="59.9917556033" lon="23.392685797">
        <ele>43.2</ele>
        <time>2012-02-12T10:11:52Z</time>
      </trkpt>
      <trkpt lat="59.9916939963" lon="23.3928375094">
        <ele>42.8</ele>
        <time>2012-02-12T10:11:57Z</time>
      </trkpt>
      <trkpt lat="59.9916382567" lon="23.3929349071">
        <ele>42.4</ele>
        <time>2012-02-12T10:12:01Z</time>
      </trkpt>
      <trkpt lat="59.9915007097" lon="23.3930211569">
        <ele>42</ele>
        <time>2012-02-12T10:12:07Z</time>
      </trkpt>
      <trkpt lat="59.9912515996" lon="23.3931991046">
        <ele>41.6</ele>
        <time>2012-02-12T10:12:16Z</time>
      </trkpt>
      <trkpt lat="59.9911244462" lon="23.393247552">
        <ele>41</ele>
        <time>2012-02-12T10:12:19Z</time>
      </trkpt>
      <trkpt lat="59.9910406272" lon="23.3932491445">
        <ele>40.8</ele>
        <time>2012-02-12T10:12:21Z</time>
      </trkpt>
      <trkpt lat="59.990952282" lon="23.3932451212">
        <ele>40.4</ele>
        <time>2012-02-12T10:12:23Z</time>
      </trkpt>
      <trkpt lat="59.9907180079" lon="23.3933476319">
        <ele>39.4</ele>
        <time>2012-02-12T10:12:28Z</time>
      </trkpt>
      <trkpt lat="59.9906191015" lon="23.3934312832">
        <ele>39</ele>
        <time>2012-02-12T10:12:30Z</time>
      </trkpt>
      <trkpt lat="59.9904779503" lon="23.3937576744">
        <ele>38.4</ele>
        <time>2012-02-12T10:12:35Z</time>
      </trkpt>
      <trkpt lat="59.9904505415" lon="23.3939079619">
        <ele>37.8</ele>
        <time>2012-02-12T10:12:39Z</time>
      </trkpt>
      <trkpt lat="59.9904318498" lon="23.3938756916">
        <ele>37.2</ele>
        <time>2012-02-12T10:12:42Z</time>
      </trkpt>
      <trkpt lat="59.99030302" lon="23.3937393181">
        <ele>36.2</ele>
        <time>2012-02-12T10:12:48Z</time>
      </trkpt>
      <trkpt lat="59.990110404" lon="23.3935722668">
        <ele>35.8</ele>
        <time>2012-02-12T10:12:54Z</time>
      </trkpt>
      <trkpt lat="59.9899704262" lon="23.3936035313">
        <ele>35.4</ele>
        <time>2012-02-12T10:12:58Z</time>
      </trkpt>
      <trkpt lat="59.9899040416" lon="23.3936764538">
        <ele>35</ele>
        <time>2012-02-12T10:13:00Z</time>
      </trkpt>
      <trkpt lat="59.9898164507" lon="23.3938896893">
        <ele>34.4</ele>
        <time>2012-02-12T10:13:04Z</time>
      </trkpt>
      <trkpt lat="59.9897904668" lon="23.3939222111">
        <ele>34.2</ele>
        <time>2012-02-12T10:13:05Z</time>
      </trkpt>
      <trkpt lat="59.9896540933" lon="23.394056573">
        <ele>33.8</ele>
        <time>2012-02-12T10:13:10Z</time>
      </trkpt>
      <trkpt lat="59.9894882155" lon="23.3941215327">
        <ele>33</ele>
        <time>2012-02-12T10:13:15Z</time>
      </trkpt>
      <trkpt lat="59.9894632375" lon="23.3941457564">
        <ele>32.8</ele>
        <time>2012-02-12T10:13:16Z</time>
      </trkpt>
      <trkpt lat="59.9893607268" lon="23.394316831">
        <ele>32.2</ele>
        <time>2012-02-12T10:13:21Z</time>
      </trkpt>
      <trkpt lat="59.9892764049" lon="23.3944934376">
        <ele>31.8</ele>
        <time>2012-02-12T10:13:25Z</time>
      </trkpt>
      <trkpt lat="59.9892550311" lon="23.3945317429">
        <ele>31.8</ele>
        <time>2012-02-12T10:13:26Z</time>
      </trkpt>
      <trkpt lat="59.9891514308" lon="23.3946001392">
        <ele>31.4</ele>
        <time>2012-02-12T10:13:30Z</time>
      </trkpt>
      <trkpt lat="59.9889878161" lon="23.3944531207">
        <ele>30.6</ele>
        <time>2012-02-12T10:13:34Z</time>
      </trkpt>
      <trkpt lat="59.9889267959" lon="23.394267713">
        <ele>30.2</ele>
        <time>2012-02-12T10:13:37Z</time>
      </trkpt>
      <trkpt lat="59.9887947809" lon="23.3941289926">
        <ele>29.8</ele>
        <time>2012-02-12T10:13:42Z</time>
      </trkpt>
      <trkpt lat="59.9887624268" lon="23.3940765219">
        <ele>29.6</ele>
        <time>2012-02-12T10:13:47Z</time>
      </trkpt>
      <trkpt lat="59.9887395442" lon="23.3940181839">
        <ele>29.2</ele>
        <time>2012-02-12T10:14:26Z</time>
      </trkpt>
      <trkpt lat="59.9887362753" lon="23.3938111509">
        <ele>29.2</ele>
        <time>2012-02-12T10:14:31Z</time>
      </trkpt>
      <trkpt lat="59.9887356885" lon="23.3935604483">
        <ele>29.2</ele>
        <time>2012-02-12T10:14:36Z</time>
      </trkpt>
      <trkpt lat="59.9887326711" lon="23.3933298622">
        <ele>29.2</ele>
        <time>2012-02-12T10:14:40Z</time>
      </trkpt>
      <trkpt lat="59.9887323358" lon="23.393089637">
        <ele>29.2</ele>
        <time>2012-02-12T10:14:44Z</time>
      </trkpt>
      <trkpt lat="59.9887392089" lon="23.392847903">
        <ele>29.2</ele>
        <time>2012-02-12T10:14:48Z</time>
      </trkpt>
      <trkpt lat="59.9887305756" lon="23.3926060852">
        <ele>29.2</ele>
        <time>2012-02-12T10:14:52Z</time>
      </trkpt>
      <trkpt lat="59.9887311623" lon="23.3923650217">
        <ele>29.2</ele>
        <time>2012-02-12T10:14:56Z</time>
      </trkpt>
      <trkpt lat="59.9887260494" lon="23.3921349386">
        <ele>28.8</ele>
        <time>2012-02-12T10:15:00Z</time>
      </trkpt>
      <trkpt lat="59.9887256303" lon="23.3918124031">
        <ele>28</ele>
        <time>2012-02-12T10:15:06Z</time>
      </trkpt>
      <trkpt lat="59.9887971279" lon="23.391320637">
        <ele>27.4</ele>
        <time>2012-02-12T10:15:15Z</time>
      </trkpt>
      <trkpt lat="59.9888187532" lon="23.3912191322">
        <ele>27.4</ele>
        <time>2012-02-12T10:15:17Z</time>
      </trkpt>
      <trkpt lat="59.9888801087" lon="23.3909955031">
        <ele>27.2</ele>
        <time>2012-02-12T10:15:22Z</time>
      </trkpt>
      <trkpt lat="59.9888924301" lon="23.390907074">
        <ele>27.2</ele>
        <time>2012-02-12T10:15:24Z</time>
      </trkpt>
      <trkpt lat="59.9889704656" lon="23.3906480733">
        <ele>27.2</ele>
        <time>2012-02-12T10:15:30Z</time>
      </trkpt>
      <trkpt lat="59.9890267919" lon="23.3904361789">
        <ele>27.2</ele>
        <time>2012-02-12T10:15:35Z</time>
      </trkpt>
      <trkpt lat="59.9890886503" lon="23.3901738254">
        <ele>27.2</ele>
        <time>2012-02-12T10:15:41Z</time>
      </trkpt>
      <trkpt lat="59.9891474075" lon="23.3899791139">
        <ele>27.2</ele>
        <time>2012-02-12T10:15:46Z</time>
      </trkpt>
      <trkpt lat="59.9891891493" lon="23.3897790379">
        <ele>27.2</ele>
        <time>2012-02-12T10:15:51Z</time>
      </trkpt>
      <trkpt lat="59.9892474873" lon="23.3895539839">
        <ele>27.2</ele>
        <time>2012-02-12T10:15:56Z</time>
      </trkpt>
      <trkpt lat="59.9893344077" lon="23.389253409">
        <ele>27.2</ele>
        <time>2012-02-12T10:16:03Z</time>
      </trkpt>
      <trkpt lat="59.9893953441" lon="23.3890346414">
        <ele>27.2</ele>
        <time>2012-02-12T10:16:08Z</time>
      </trkpt>
      <trkpt lat="59.9894585436" lon="23.388763906">
        <ele>27.2</ele>
        <time>2012-02-12T10:16:13Z</time>
      </trkpt>
      <trkpt lat="59.9895265208" lon="23.3883586412">
        <ele>27.2</ele>
        <time>2012-02-12T10:16:19Z</time>
      </trkpt>
      <trkpt lat="59.9895675083" lon="23.3880733213">
        <ele>27.2</ele>
        <time>2012-02-12T10:16:22Z</time>
      </trkpt>
      <trkpt lat="59.9896193923" lon="23.3876376301">
        <ele>27.2</ele>
        <time>2012-02-12T10:16:26Z</time>
      </trkpt>
      <trkpt lat="59.9896639001" lon="23.3871947305">
        <ele>27.2</ele>
        <time>2012-02-12T10:16:30Z</time>
      </trkpt>
      <trkpt lat="59.9897069831" lon="23.3867752164">
        <ele>26.6</ele>
        <time>2012-02-12T10:16:35Z</time>
      </trkpt>
      <trkpt lat="59.9897069831" lon="23.386702713">
        <ele>26.4</ele>
        <time>2012-02-12T10:16:36Z</time>
      </trkpt>
      <trkpt lat="59.9897100006" lon="23.3864841131">
        <ele>26</ele>
        <time>2012-02-12T10:16:39Z</time>
      </trkpt>
      <trkpt lat="59.9896963381" lon="23.38618731">
        <ele>25.6</ele>
        <time>2012-02-12T10:16:43Z</time>
      </trkpt>
      <trkpt lat="59.9896840167" lon="23.3860336697">
        <ele>25.6</ele>
        <time>2012-02-12T10:16:45Z</time>
      </trkpt>
      <trkpt lat="59.9896556021" lon="23.3857088711">
        <ele>25.4</ele>
        <time>2012-02-12T10:16:49Z</time>
      </trkpt>
      <trkpt lat="59.9896390059" lon="23.3855359525">
        <ele>25</ele>
        <time>2012-02-12T10:16:51Z</time>
      </trkpt>
      <trkpt lat="59.9895629821" lon="23.3851960665">
        <ele>24.2</ele>
        <time>2012-02-12T10:16:56Z</time>
      </trkpt>
      <trkpt lat="59.9895476432" lon="23.3851368903">
        <ele>24</ele>
        <time>2012-02-12T10:16:57Z</time>
      </trkpt>
      <trkpt lat="59.9894813424" lon="23.3848582759">
        <ele>23.2</ele>
        <time>2012-02-12T10:17:02Z</time>
      </trkpt>
      <trkpt lat="59.9894689371" lon="23.3848114211">
        <ele>22.8</ele>
        <time>2012-02-12T10:17:03Z</time>
      </trkpt>
      <trkpt lat="59.989433817" lon="23.3846163743">
        <ele>22.2</ele>
        <time>2012-02-12T10:17:07Z</time>
      </trkpt>
      <trkpt lat="59.9894019658" lon="23.3843987802">
        <ele>21.6</ele>
        <time>2012-02-12T10:17:12Z</time>
      </trkpt>
      <trkpt lat="59.9893686058" lon="23.3842160547">
        <ele>21.2</ele>
        <time>2012-02-12T10:17:16Z</time>
      </trkpt>
      <trkpt lat="59.989318482" lon="23.3840573854">
        <ele>21</ele>
        <time>2012-02-12T10:17:20Z</time>
      </trkpt>
      <trkpt lat="59.9892677715" lon="23.3837826267">
        <ele>20.8</ele>
        <time>2012-02-12T10:17:26Z</time>
      </trkpt>
      <trkpt lat="59.9892584676" lon="23.3837304913">
        <ele>20.8</ele>
        <time>2012-02-12T10:17:27Z</time>
      </trkpt>
      <trkpt lat="59.9892277899" lon="23.3835593329">
        <ele>20.8</ele>
        <time>2012-02-12T10:17:31Z</time>
      </trkpt>
      <trkpt lat="59.9891743134" lon="23.3832792936">
        <ele>20.8</ele>
        <time>2012-02-12T10:17:37Z</time>
      </trkpt>
      <trkpt lat="59.9891139637" lon="23.3830494619">
        <ele>20.8</ele>
        <time>2012-02-12T10:17:42Z</time>
      </trkpt>
      <trkpt lat="59.9890871416" lon="23.3829545788">
        <ele>20.8</ele>
        <time>2012-02-12T10:17:44Z</time>
      </trkpt>
      <trkpt lat="59.9890456512" lon="23.3827163652">
        <ele>20.8</ele>
        <time>2012-02-12T10:17:48Z</time>
      </trkpt>
      <trkpt lat="59.9889786798" lon="23.3823508305">
        <ele>20.8</ele>
        <time>2012-02-12T10:17:54Z</time>
      </trkpt>
      <trkpt lat="59.9889353454" lon="23.3821584659">
        <ele>20.8</ele>
        <time>2012-02-12T10:17:57Z</time>
      </trkpt>
      <trkpt lat="59.9888775941" lon="23.3818670273">
        <ele>20.6</ele>
        <time>2012-02-12T10:18:02Z</time>
      </trkpt>
      <trkpt lat="59.9888397917" lon="23.3816146482">
        <ele>20.6</ele>
        <time>2012-02-12T10:18:07Z</time>
      </trkpt>
      <trkpt lat="59.9887880754" lon="23.3813647">
        <ele>20.6</ele>
        <time>2012-02-12T10:18:12Z</time>
      </trkpt>
      <trkpt lat="59.9887449086" lon="23.381163702">
        <ele>20.6</ele>
        <time>2012-02-12T10:18:16Z</time>
      </trkpt>
      <trkpt lat="59.9886918512" lon="23.3808852553">
        <ele>20.6</ele>
        <time>2012-02-12T10:18:21Z</time>
      </trkpt>
      <trkpt lat="59.9886290708" lon="23.3806065571">
        <ele>20.6</ele>
        <time>2012-02-12T10:18:26Z</time>
      </trkpt>
      <trkpt lat="59.988571068" lon="23.380339426">
        <ele>21</ele>
        <time>2012-02-12T10:18:31Z</time>
      </trkpt>
      <trkpt lat="59.9885171724" lon="23.3801216642">
        <ele>21.6</ele>
        <time>2012-02-12T10:18:35Z</time>
      </trkpt>
      <trkpt lat="59.988471994" lon="23.3798861328">
        <ele>22</ele>
        <time>2012-02-12T10:18:39Z</time>
      </trkpt>
      <trkpt lat="59.9884471835" lon="23.3796780941">
        <ele>22.2</ele>
        <time>2012-02-12T10:18:43Z</time>
      </trkpt>
      <trkpt lat="59.9884904341" lon="23.3794597456">
        <ele>22.4</ele>
        <time>2012-02-12T10:18:48Z</time>
      </trkpt>
      <trkpt lat="59.9885750913" lon="23.3793060215">
        <ele>22.6</ele>
        <time>2012-02-12T10:18:53Z</time>
      </trkpt>
      <trkpt lat="59.988680368" lon="23.3791712406">
        <ele>23.2</ele>
        <time>2012-02-12T10:18:59Z</time>
      </trkpt>
      <trkpt lat="59.9887011551" lon="23.3791460111">
        <ele>23.4</ele>
        <time>2012-02-12T10:19:00Z</time>
      </trkpt>
      <trkpt lat="59.9888065156" lon="23.3789984896">
        <ele>24</ele>
        <time>2012-02-12T10:19:06Z</time>
      </trkpt>
      <trkpt lat="59.9888684578" lon="23.3788718391">
        <ele>24.2</ele>
        <time>2012-02-12T10:19:10Z</time>
      </trkpt>
      <trkpt lat="59.9889255386" lon="23.3785788079">
        <ele>24.6</ele>
        <time>2012-02-12T10:19:17Z</time>
      </trkpt>
      <trkpt lat="59.9889264606" lon="23.3783571066">
        <ele>24.6</ele>
        <time>2012-02-12T10:19:21Z</time>
      </trkpt>
      <trkpt lat="59.9889357645" lon="23.3780347388">
        <ele>24.8</ele>
        <time>2012-02-12T10:19:27Z</time>
      </trkpt>
      <trkpt lat="59.9889351778" lon="23.3778417874">
        <ele>24.8</ele>
        <time>2012-02-12T10:19:31Z</time>
      </trkpt>
      <trkpt lat="59.9889438111" lon="23.37758681">
        <ele>24.8</ele>
        <time>2012-02-12T10:19:36Z</time>
      </trkpt>
      <trkpt lat="59.9889576412" lon="23.3774797732">
        <ele>24.8</ele>
        <time>2012-02-12T10:19:38Z</time>
      </trkpt>
      <trkpt lat="59.9890153925" lon="23.3773410527">
        <ele>24.8</ele>
        <time>2012-02-12T10:19:42Z</time>
      </trkpt>
      <trkpt lat="59.9891305598" lon="23.3771766837">
        <ele>24.8</ele>
        <time>2012-02-12T10:19:47Z</time>
      </trkpt>
      <trkpt lat="59.9891951843" lon="23.3769787032">
        <ele>24.8</ele>
        <time>2012-02-12T10:19:51Z</time>
      </trkpt>
      <trkpt lat="59.9892529356" lon="23.3767792978">
        <ele>24.8</ele>
        <time>2012-02-12T10:19:55Z</time>
      </trkpt>
      <trkpt lat="59.9892719625" lon="23.3767285035">
        <ele>24.8</ele>
        <time>2012-02-12T10:19:56Z</time>
      </trkpt>
      <trkpt lat="59.9893419514" lon="23.3765285113">
        <ele>24.8</ele>
        <time>2012-02-12T10:20:00Z</time>
      </trkpt>
      <trkpt lat="59.9893683543" lon="23.3764681616">
        <ele>24.8</ele>
        <time>2012-02-12T10:20:01Z</time>
      </trkpt>
      <trkpt lat="59.9895235871" lon="23.3761474702">
        <ele>24.8</ele>
        <time>2012-02-12T10:20:07Z</time>
      </trkpt>
      <trkpt lat="59.9896475554" lon="23.3758629046">
        <ele>24</ele>
        <time>2012-02-12T10:20:12Z</time>
      </trkpt>
      <trkpt lat="59.9897086595" lon="23.3757463962">
        <ele>23.6</ele>
        <time>2012-02-12T10:20:15Z</time>
      </trkpt>
      <trkpt lat="59.9898498107" lon="23.3755833683">
        <ele>23</ele>
        <time>2012-02-12T10:20:22Z</time>
      </trkpt>
      <trkpt lat="59.9899207216" lon="23.375503405">
        <ele>22.8</ele>
        <time>2012-02-12T10:20:25Z</time>
      </trkpt>
      <trkpt lat="59.9899432689" lon="23.3754878146">
        <ele>22.8</ele>
        <time>2012-02-12T10:20:26Z</time>
      </trkpt>
      <trkpt lat="59.990054329" lon="23.3754022354">
        <ele>22.8</ele>
        <time>2012-02-12T10:20:30Z</time>
      </trkpt>
      <trkpt lat="59.9902045327" lon="23.3752729027">
        <ele>22.6</ele>
        <time>2012-02-12T10:20:34Z</time>
      </trkpt>
      <trkpt lat="59.9903332787" lon="23.3751664526">
        <ele>22.6</ele>
        <time>2012-02-12T10:20:37Z</time>
      </trkpt>
      <trkpt lat="59.9905126513" lon="23.3750323422">
        <ele>22.6</ele>
        <time>2012-02-12T10:20:41Z</time>
      </trkpt>
      <trkpt lat="59.9905500346" lon="23.3750200208">
        <ele>22.4</ele>
        <time>2012-02-12T10:20:42Z</time>
      </trkpt>
      <trkpt lat="59.9906333507" lon="23.3750145725">
        <ele>21.8</ele>
        <time>2012-02-12T10:20:45Z</time>
      </trkpt>
      <trkpt lat="59.9907750048" lon="23.3750035084">
        <ele>21.2</ele>
        <time>2012-02-12T10:20:51Z</time>
      </trkpt>
      <trkpt lat="59.9908936087" lon="23.374947685">
        <ele>20.8</ele>
        <time>2012-02-12T10:20:56Z</time>
      </trkpt>
      <trkpt lat="59.9910023219" lon="23.3748775285">
        <ele>20.6</ele>
        <time>2012-02-12T10:21:00Z</time>
      </trkpt>
      <trkpt lat="59.9911035753" lon="23.3747708269">
        <ele>20.6</ele>
        <time>2012-02-12T10:21:04Z</time>
      </trkpt>
      <trkpt lat="59.9911588958" lon="23.3746659693">
        <ele>20.6</ele>
        <time>2012-02-12T10:21:07Z</time>
      </trkpt>
      <trkpt lat="59.9912596463" lon="23.3744177813">
        <ele>20.4</ele>
        <time>2012-02-12T10:21:13Z</time>
      </trkpt>
      <trkpt lat="59.991330641" lon="23.3742803181">
        <ele>20.4</ele>
        <time>2012-02-12T10:21:18Z</time>
      </trkpt>
      <trkpt lat="59.9914251888" lon="23.3741084053">
        <ele>20.4</ele>
        <time>2012-02-12T10:21:24Z</time>
      </trkpt>
      <trkpt lat="59.9914980275" lon="23.3739956688">
        <ele>21</ele>
        <time>2012-02-12T10:21:28Z</time>
      </trkpt>
      <trkpt lat="59.9916232531" lon="23.3737968501">
        <ele>21.6</ele>
        <time>2012-02-12T10:21:34Z</time>
      </trkpt>
      <trkpt lat="59.9917036355" lon="23.3735601453">
        <ele>22</ele>
        <time>2012-02-12T10:21:38Z</time>
      </trkpt>
      <trkpt lat="59.9917769771" lon="23.3731718957">
        <ele>22.2</ele>
        <time>2012-02-12T10:21:42Z</time>
      </trkpt>
      <trkpt lat="59.991799273" lon="23.3730905912">
        <ele>22.2</ele>
        <time>2012-02-12T10:21:43Z</time>
      </trkpt>
      <trkpt lat="59.9918913062" lon="23.3728036788">
        <ele>22.2</ele>
        <time>2012-02-12T10:21:47Z</time>
      </trkpt>
      <trkpt lat="59.9919089082" lon="23.3727635295">
        <ele>22.4</ele>
        <time>2012-02-12T10:21:48Z</time>
      </trkpt>
      <trkpt lat="59.9919750414" lon="23.3726326042">
        <ele>22.4</ele>
        <time>2012-02-12T10:21:52Z</time>
      </trkpt>
      <trkpt lat="59.9920601177" lon="23.3725001702">
        <ele>22.4</ele>
        <time>2012-02-12T10:21:56Z</time>
      </trkpt>
      <trkpt lat="59.9920764624" lon="23.3724654691">
        <ele>22.4</ele>
        <time>2012-02-12T10:21:57Z</time>
      </trkpt>
      <trkpt lat="59.9921566772" lon="23.372311326">
        <ele>22.4</ele>
        <time>2012-02-12T10:22:02Z</time>
      </trkpt>
      <trkpt lat="59.9922316952" lon="23.3721065562">
        <ele>22.4</ele>
        <time>2012-02-12T10:22:06Z</time>
      </trkpt>
      <trkpt lat="59.9923205433" lon="23.3717372496">
        <ele>22.4</ele>
        <time>2012-02-12T10:22:11Z</time>
      </trkpt>
      <trkpt lat="59.9923506344" lon="23.3715580446">
        <ele>22.4</ele>
        <time>2012-02-12T10:22:13Z</time>
      </trkpt>
      <trkpt lat="59.9924534803" lon="23.3711533665">
        <ele>22.4</ele>
        <time>2012-02-12T10:22:18Z</time>
      </trkpt>
      <trkpt lat="59.9924827331" lon="23.371077175">
        <ele>22.4</ele>
        <time>2012-02-12T10:22:19Z</time>
      </trkpt>
      <trkpt lat="59.9925625288" lon="23.3709034182">
        <ele>22.4</ele>
        <time>2012-02-12T10:22:22Z</time>
      </trkpt>
      <trkpt lat="59.9926246387" lon="23.3707952917">
        <ele>22.4</ele>
        <time>2012-02-12T10:22:25Z</time>
      </trkpt>
      <trkpt lat="59.9927460086" lon="23.3706573257">
        <ele>22.4</ele>
        <time>2012-02-12T10:22:30Z</time>
      </trkpt>
      <trkpt lat="59.992772663" lon="23.3706315932">
        <ele>22.4</ele>
        <time>2012-02-12T10:22:31Z</time>
      </trkpt>
      <trkpt lat="59.9928755089" lon="23.3705386379">
        <ele>22.4</ele>
        <time>2012-02-12T10:22:36Z</time>
      </trkpt>
      <trkpt lat="59.9929904248" lon="23.3704972314">
        <ele>22.4</ele>
        <time>2012-02-12T10:22:41Z</time>
      </trkpt>
      <trkpt lat="59.9931235294" lon="23.370397822">
        <ele>22.4</ele>
        <time>2012-02-12T10:22:45Z</time>
      </trkpt>
      <trkpt lat="59.9932813605" lon="23.3702427569">
        <ele>22.4</ele>
        <time>2012-02-12T10:22:49Z</time>
      </trkpt>
      <trkpt lat="59.9933966955" lon="23.3701358038">
        <ele>22</ele>
        <time>2012-02-12T10:22:52Z</time>
      </trkpt>
      <trkpt lat="59.9935335719" lon="23.369906056">
        <ele>21</ele>
        <time>2012-02-12T10:22:57Z</time>
      </trkpt>
      <trkpt lat="59.9935606455" lon="23.3698052217">
        <ele>20.4</ele>
        <time>2012-02-12T10:22:59Z</time>
      </trkpt>
      <trkpt lat="59.9936670956" lon="23.3695350731">
        <ele>18</ele>
        <time>2012-02-12T10:23:05Z</time>
      </trkpt>
      <trkpt lat="59.993738677" lon="23.369338266">
        <ele>16.2</ele>
        <time>2012-02-12T10:23:10Z</time>
      </trkpt>
      <trkpt lat="59.9937463884" lon="23.3692672714">
        <ele>16</ele>
        <time>2012-02-12T10:23:11Z</time>
      </trkpt>
      <trkpt lat="59.9937318038" lon="23.3689459931">
        <ele>15</ele>
        <time>2012-02-12T10:23:17Z</time>
      </trkpt>
      <trkpt lat="59.9937343184" lon="23.3687644412">
        <ele>14.4</ele>
        <time>2012-02-12T10:23:21Z</time>
      </trkpt>
      <trkpt lat="59.9937495735" lon="23.3685906006">
        <ele>14.2</ele>
        <time>2012-02-12T10:23:25Z</time>
      </trkpt>
      <trkpt lat="59.9938022118" lon="23.3682569171">
        <ele>14</ele>
        <time>2012-02-12T10:23:32Z</time>
      </trkpt>
      <trkpt lat="59.9938514974" lon="23.3680005148">
        <ele>14.6</ele>
        <time>2012-02-12T10:23:38Z</time>
      </trkpt>
      <trkpt lat="59.9939176306" lon="23.3677125127">
        <ele>15.2</ele>
        <time>2012-02-12T10:23:44Z</time>
      </trkpt>
      <trkpt lat="59.9939518287" lon="23.3675472217">
        <ele>16.2</ele>
        <time>2012-02-12T10:23:48Z</time>
      </trkpt>
      <trkpt lat="59.9940089095" lon="23.3673569525">
        <ele>17</ele>
        <time>2012-02-12T10:23:53Z</time>
      </trkpt>
      <trkpt lat="59.9940809938" lon="23.3671261988">
        <ele>18.2</ele>
        <time>2012-02-12T10:24:00Z</time>
      </trkpt>
      <trkpt lat="59.9941421817" lon="23.3668975406">
        <ele>19.2</ele>
        <time>2012-02-12T10:24:06Z</time>
      </trkpt>
      <trkpt lat="59.9942042077" lon="23.3665831355">
        <ele>20.2</ele>
        <time>2012-02-12T10:24:12Z</time>
      </trkpt>
      <trkpt lat="59.994268916" lon="23.3663387193">
        <ele>21</ele>
        <time>2012-02-12T10:24:17Z</time>
      </trkpt>
      <trkpt lat="59.9943628771" lon="23.366071672">
        <ele>21.6</ele>
        <time>2012-02-12T10:24:23Z</time>
      </trkpt>
      <trkpt lat="59.9944357996" lon="23.3658319496">
        <ele>21.8</ele>
        <time>2012-02-12T10:24:28Z</time>
      </trkpt>
      <trkpt lat="59.9945173555" lon="23.3656234918">
        <ele>22</ele>
        <time>2012-02-12T10:24:33Z</time>
      </trkpt>
      <trkpt lat="59.9945844945" lon="23.3654471366">
        <ele>22.8</ele>
        <time>2012-02-12T10:24:37Z</time>
      </trkpt>
      <trkpt lat="59.9946575009" lon="23.3652110185">
        <ele>23.2</ele>
        <time>2012-02-12T10:24:41Z</time>
      </trkpt>
      <trkpt lat="59.9947605983" lon="23.3649524369">
        <ele>23.6</ele>
        <time>2012-02-12T10:24:45Z</time>
      </trkpt>
      <trkpt lat="59.9948763523" lon="23.3647227728">
        <ele>23.8</ele>
        <time>2012-02-12T10:24:49Z</time>
      </trkpt>
      <trkpt lat="59.9949250511" lon="23.364664351">
        <ele>23.8</ele>
        <time>2012-02-12T10:24:50Z</time>
      </trkpt>
      <trkpt lat="59.9951074413" lon="23.3645132253">
        <ele>23.8</ele>
        <time>2012-02-12T10:24:54Z</time>
      </trkpt>
      <trkpt lat="59.9951842195" lon="23.3644850621">
        <ele>23.4</ele>
        <time>2012-02-12T10:24:56Z</time>
      </trkpt>
      <trkpt lat="59.9952494307" lon="23.36447031">
        <ele>23.2</ele>
        <time>2012-02-12T10:24:58Z</time>
      </trkpt>
      <trkpt lat="59.9953388655" lon="23.3644405542">
        <ele>23</ele>
        <time>2012-02-12T10:25:01Z</time>
      </trkpt>
      <trkpt lat="59.9954487522" lon="23.3643852337">
        <ele>22.6</ele>
        <time>2012-02-12T10:25:05Z</time>
      </trkpt>
      <trkpt lat="59.995565093" lon="23.3643372054">
        <ele>22.4</ele>
        <time>2012-02-12T10:25:10Z</time>
      </trkpt>
      <trkpt lat="59.9956839484" lon="23.3642652887">
        <ele>21.6</ele>
        <time>2012-02-12T10:25:15Z</time>
      </trkpt>
      <trkpt lat="59.9957669292" lon="23.3641787875">
        <ele>21</ele>
        <time>2012-02-12T10:25:19Z</time>
      </trkpt>
      <trkpt lat="59.995862399" lon="23.3640390612">
        <ele>20.6</ele>
        <time>2012-02-12T10:25:24Z</time>
      </trkpt>
      <trkpt lat="59.9959398478" lon="23.3638906178">
        <ele>20.4</ele>
        <time>2012-02-12T10:25:29Z</time>
      </trkpt>
      <trkpt lat="59.9959503251" lon="23.3638584313">
        <ele>20.4</ele>
        <time>2012-02-12T10:25:30Z</time>
      </trkpt>
      <trkpt lat="59.9960327192" lon="23.3636731075">
        <ele>20.2</ele>
        <time>2012-02-12T10:25:36Z</time>
      </trkpt>
      <trkpt lat="59.9961245848" lon="23.363483928">
        <ele>20.2</ele>
        <time>2012-02-12T10:25:42Z</time>
      </trkpt>
      <trkpt lat="59.9961964177" lon="23.3633348978">
        <ele>20.2</ele>
        <time>2012-02-12T10:25:47Z</time>
      </trkpt>
      <trkpt lat="59.9962904626" lon="23.3631994463">
        <ele>20.4</ele>
        <time>2012-02-12T10:25:53Z</time>
      </trkpt>
      <trkpt lat="59.9963439392" lon="23.3631343189">
        <ele>20.8</ele>
        <time>2012-02-12T10:25:56Z</time>
      </trkpt>
      <trkpt lat="59.9964618725" lon="23.3630264439">
        <ele>21.4</ele>
        <time>2012-02-12T10:26:02Z</time>
      </trkpt>
      <trkpt lat="59.9965030276" lon="23.3629942574">
        <ele>21.8</ele>
        <time>2012-02-12T10:26:07Z</time>
      </trkpt>
      <trkpt lat="59.9965526485" lon="23.3629522641">
        <ele>23</ele>
        <time>2012-02-12T10:26:13Z</time>
      </trkpt>
      <trkpt lat="59.9966749404" lon="23.3628927526">
        <ele>23.4</ele>
        <time>2012-02-12T10:26:18Z</time>
      </trkpt>
      <trkpt lat="59.9968103919" lon="23.3628440537">
        <ele>23.8</ele>
        <time>2012-02-12T10:26:22Z</time>
      </trkpt>
      <trkpt lat="59.9969947099" lon="23.3628162258">
        <ele>24</ele>
        <time>2012-02-12T10:26:26Z</time>
      </trkpt>
      <trkpt lat="59.9970456718" lon="23.3628113643">
        <ele>24</ele>
        <time>2012-02-12T10:26:27Z</time>
      </trkpt>
      <trkpt lat="59.9972195124" lon="23.3627191634">
        <ele>24</ele>
        <time>2012-02-12T10:26:31Z</time>
      </trkpt>
      <trkpt lat="59.9972876573" lon="23.3626396192">
        <ele>24</ele>
        <time>2012-02-12T10:26:33Z</time>
      </trkpt>
      <trkpt lat="59.9974827041" lon="23.3623403854">
        <ele>24</ele>
        <time>2012-02-12T10:26:38Z</time>
      </trkpt>
      <trkpt lat="59.997560572" lon="23.3622270621">
        <ele>23.6</ele>
        <time>2012-02-12T10:26:40Z</time>
      </trkpt>
      <trkpt lat="59.9977119491" lon="23.3620610167">
        <ele>23.2</ele>
        <time>2012-02-12T10:26:44Z</time>
      </trkpt>
      <trkpt lat="59.9977889787" lon="23.362009468">
        <ele>23</ele>
        <time>2012-02-12T10:26:46Z</time>
      </trkpt>
      <trkpt lat="59.9978997874" lon="23.3618813925">
        <ele>22.6</ele>
        <time>2012-02-12T10:26:50Z</time>
      </trkpt>
      <trkpt lat="59.9979872107" lon="23.3617643812">
        <ele>21.8</ele>
        <time>2012-02-12T10:26:54Z</time>
      </trkpt>
      <trkpt lat="59.9980861171" lon="23.3616042031">
        <ele>21</ele>
        <time>2012-02-12T10:26:59Z</time>
      </trkpt>
      <trkpt lat="59.998190807" lon="23.3614602021">
        <ele>20.8</ele>
        <time>2012-02-12T10:27:04Z</time>
      </trkpt>
      <trkpt lat="59.9983136018" lon="23.3612847689">
        <ele>20.4</ele>
        <time>2012-02-12T10:27:10Z</time>
      </trkpt>
      <trkpt lat="59.9984187109" lon="23.3611696016">
        <ele>20.4</ele>
        <time>2012-02-12T10:27:15Z</time>
      </trkpt>
      <trkpt lat="59.9985034519" lon="23.3610421967">
        <ele>20.4</ele>
        <time>2012-02-12T10:27:19Z</time>
      </trkpt>
      <trkpt lat="59.9985706747" lon="23.3608954296">
        <ele>20.2</ele>
        <time>2012-02-12T10:27:23Z</time>
      </trkpt>
      <trkpt lat="59.9986127519" lon="23.3607015563">
        <ele>20.2</ele>
        <time>2012-02-12T10:27:27Z</time>
      </trkpt>
      <trkpt lat="59.9986289289" lon="23.3604749935">
        <ele>20.2</ele>
        <time>2012-02-12T10:27:31Z</time>
      </trkpt>
      <trkpt lat="59.9986049567" lon="23.3601957924">
        <ele>20.2</ele>
        <time>2012-02-12T10:27:35Z</time>
      </trkpt>
      <trkpt lat="59.9985781346" lon="23.3599957165">
        <ele>20.2</ele>
        <time>2012-02-12T10:27:39Z</time>
      </trkpt>
      <trkpt lat="59.9985460319" lon="23.3597944671">
        <ele>20.8</ele>
        <time>2012-02-12T10:27:44Z</time>
      </trkpt>
      <trkpt lat="59.998533962" lon="23.3596331155">
        <ele>21.2</ele>
        <time>2012-02-12T10:27:48Z</time>
      </trkpt>
      <trkpt lat="59.9985532404" lon="23.3593763779">
        <ele>21.8</ele>
        <time>2012-02-12T10:27:54Z</time>
      </trkpt>
      <trkpt lat="59.9986406636" lon="23.3591833427">
        <ele>22</ele>
        <time>2012-02-12T10:28:00Z</time>
      </trkpt>
      <trkpt lat="59.9987748578" lon="23.3590888787">
        <ele>22</ele>
        <time>2012-02-12T10:28:07Z</time>
      </trkpt>
      <trkpt lat="59.9988872591" lon="23.3590620566">
        <ele>22.2</ele>
        <time>2012-02-12T10:28:12Z</time>
      </trkpt>
      <trkpt lat="59.9989162605" lon="23.3590593744">
        <ele>22.2</ele>
        <time>2012-02-12T10:28:13Z</time>
      </trkpt>
      <trkpt lat="59.9990797913" lon="23.3589835182">
        <ele>22.2</ele>
        <time>2012-02-12T10:28:19Z</time>
      </trkpt>
      <trkpt lat="59.9991986467" lon="23.358920654">
        <ele>22.2</ele>
        <time>2012-02-12T10:28:24Z</time>
      </trkpt>
      <trkpt lat="59.9992880815" lon="23.3588983581">
        <ele>22.2</ele>
        <time>2012-02-12T10:28:28Z</time>
      </trkpt>
      <trkpt lat="59.9993953699" lon="23.3588533473">
        <ele>22.2</ele>
        <time>2012-02-12T10:28:33Z</time>
      </trkpt>
      <trkpt lat="59.9994105411" lon="23.3588391819">
        <ele>22.2</ele>
        <time>2012-02-12T10:28:34Z</time>
      </trkpt>
      <trkpt lat="59.9994432305" lon="23.3588107673">
        <ele>22.2</ele>
        <time>2012-02-12T10:28:41Z</time>
      </trkpt>
      <trkpt lat="59.9995112915" lon="23.3587394373">
        <ele>22.2</ele>
        <time>2012-02-12T10:28:46Z</time>
      </trkpt>
      <trkpt lat="59.9996201724" lon="23.3586274551">
        <ele>22.2</ele>
        <time>2012-02-12T10:28:51Z</time>
      </trkpt>
      <trkpt lat="59.9997323222" lon="23.3585148024">
        <ele>22.2</ele>
        <time>2012-02-12T10:28:56Z</time>
      </trkpt>
      <trkpt lat="59.9998598948" lon="23.3583134692">
        <ele>22.2</ele>
        <time>2012-02-12T10:29:03Z</time>
      </trkpt>
      <trkpt lat="59.9999145447" lon="23.358050026">
        <ele>22.2</ele>
        <time>2012-02-12T10:29:10Z</time>
      </trkpt>
      <trkpt lat="59.9999515089" lon="23.3578890936">
        <ele>23</ele>
        <time>2012-02-12T10:29:14Z</time>
      </trkpt>
      <trkpt lat="60.0000405247" lon="23.3577287478">
        <ele>23.6</ele>
        <time>2012-02-12T10:29:20Z</time>
      </trkpt>
      <trkpt lat="60.0001370004" lon="23.3576530593">
        <ele>24</ele>
        <time>2012-02-12T10:29:26Z</time>
      </trkpt>
      <trkpt lat="60.0002214899" lon="23.3576371336">
        <ele>24.2</ele>
        <time>2012-02-12T10:29:31Z</time>
      </trkpt>
      <trkpt lat="60.0002370803" lon="23.3576250637">
        <ele>24.2</ele>
        <time>2012-02-12T10:29:32Z</time>
      </trkpt>
      <trkpt lat="60.0003605456" lon="23.3575268278">
        <ele>24.2</ele>
        <time>2012-02-12T10:29:38Z</time>
      </trkpt>
      <trkpt lat="60.0004690074" lon="23.3573868501">
        <ele>24.2</ele>
        <time>2012-02-12T10:29:43Z</time>
      </trkpt>
      <trkpt lat="60.0004883696" lon="23.357361453">
        <ele>24.2</ele>
        <time>2012-02-12T10:29:44Z</time>
      </trkpt>
      <trkpt lat="60.0005664889" lon="23.3573230639">
        <ele>24.4</ele>
        <time>2012-02-12T10:29:50Z</time>
      </trkpt>
      <trkpt lat="60.0006184567" lon="23.3574025243">
        <ele>24.4</ele>
        <time>2012-02-12T10:29:56Z</time>
      </trkpt>
      <trkpt lat="60.0006876912" lon="23.3575445137">
        <ele>24.4</ele>
        <time>2012-02-12T10:30:01Z</time>
      </trkpt>
      <trkpt lat="60.0007027786" lon="23.3575721739">
        <ele>24.4</ele>
        <time>2012-02-12T10:30:02Z</time>
      </trkpt>
      <trkpt lat="60.0007892798" lon="23.3577456793">
        <ele>24.4</ele>
        <time>2012-02-12T10:30:07Z</time>
      </trkpt>
      <trkpt lat="60.0008800558" lon="23.3579312545">
        <ele>24.4</ele>
        <time>2012-02-12T10:30:12Z</time>
      </trkpt>
      <trkpt lat="60.0008951432" lon="23.3579600044">
        <ele>24.4</ele>
        <time>2012-02-12T10:30:13Z</time>
      </trkpt>
      <trkpt lat="60.0009528107" lon="23.358098222">
        <ele>24.4</ele>
        <time>2012-02-12T10:30:17Z</time>
      </trkpt>
      <trkpt lat="60.0010378032" lon="23.3582718949">
        <ele>24.4</ele>
        <time>2012-02-12T10:30:23Z</time>
      </trkpt>
      <trkpt lat="60.0011072891" lon="23.3584026526">
        <ele>24.8</ele>
        <time>2012-02-12T10:30:27Z</time>
      </trkpt>
      <trkpt lat="60.0011676388" lon="23.3585179875">
        <ele>25.2</ele>
        <time>2012-02-12T10:30:31Z</time>
      </trkpt>
      <trkpt lat="60.0012626895" lon="23.3587119447">
        <ele>25.8</ele>
        <time>2012-02-12T10:30:37Z</time>
      </trkpt>
      <trkpt lat="60.0013299962" lon="23.3588443787">
        <ele>26</ele>
        <time>2012-02-12T10:30:41Z</time>
      </trkpt>
      <trkpt lat="60.0013994822" lon="23.3589918163">
        <ele>26.2</ele>
        <time>2012-02-12T10:30:45Z</time>
      </trkpt>
      <trkpt lat="60.0014609215" lon="23.3591302015">
        <ele>26.2</ele>
        <time>2012-02-12T10:30:49Z</time>
      </trkpt>
      <trkpt lat="60.0015549664" lon="23.359264731">
        <ele>26.2</ele>
        <time>2012-02-12T10:30:54Z</time>
      </trkpt>
      <trkpt lat="60.0017041642" lon="23.3594568441">
        <ele>26.4</ele>
        <time>2012-02-12T10:31:01Z</time>
      </trkpt>
      <trkpt lat="60.0017899111" lon="23.3595443512">
        <ele>26.4</ele>
        <time>2012-02-12T10:31:05Z</time>
      </trkpt>
      <trkpt lat="60.0018482491" lon="23.3596024377">
        <ele>26.4</ele>
        <time>2012-02-12T10:31:08Z</time>
      </trkpt>
      <trkpt lat="60.0019320681" lon="23.359682904">
        <ele>26.4</ele>
        <time>2012-02-12T10:31:12Z</time>
      </trkpt>
      <trkpt lat="60.002003398" lon="23.3597477799">
        <ele>26.4</ele>
        <time>2012-02-12T10:31:15Z</time>
      </trkpt>
      <trkpt lat="60.002135413" lon="23.3598080457">
        <ele>26.4</ele>
        <time>2012-02-12T10:31:21Z</time>
      </trkpt>
      <trkpt lat="60.0021678509" lon="23.3598108956">
        <ele>26.4</ele>
        <time>2012-02-12T10:31:23Z</time>
      </trkpt>
      <trkpt lat="60.0022222495" lon="23.3598201995">
        <ele>26.8</ele>
        <time>2012-02-12T10:31:25Z</time>
      </trkpt>
      <trkpt lat="60.0023264365" lon="23.3598358737">
        <ele>27.4</ele>
        <time>2012-02-12T10:31:30Z</time>
      </trkpt>
      <trkpt lat="60.0024013707" lon="23.3598345326">
        <ele>27.8</ele>
        <time>2012-02-12T10:31:33Z</time>
      </trkpt>
      <trkpt lat="60.0024684259" lon="23.3598416572">
        <ele>28</ele>
        <time>2012-02-12T10:31:36Z</time>
      </trkpt>
      <trkpt lat="60.002604967" lon="23.3598263183">
        <ele>28.2</ele>
        <time>2012-02-12T10:31:42Z</time>
      </trkpt>
      <trkpt lat="60.0027289353" lon="23.3597890188">
        <ele>28.2</ele>
        <time>2012-02-12T10:31:48Z</time>
      </trkpt>
      <trkpt lat="60.0028150174" lon="23.3597549883">
        <ele>28.4</ele>
        <time>2012-02-12T10:31:52Z</time>
      </trkpt>
      <trkpt lat="60.0029109902" lon="23.3597291721">
        <ele>28.4</ele>
        <time>2012-02-12T10:31:56Z</time>
      </trkpt>
      <trkpt lat="60.0030169374" lon="23.359720874">
        <ele>28.8</ele>
        <time>2012-02-12T10:32:01Z</time>
      </trkpt>
      <trkpt lat="60.0031521374" lon="23.3597172698">
        <ele>29.6</ele>
        <time>2012-02-12T10:32:07Z</time>
      </trkpt>
      <trkpt lat="60.003296809" lon="23.3597006736">
        <ele>30</ele>
        <time>2012-02-12T10:32:14Z</time>
      </trkpt>
      <trkpt lat="60.0034072825" lon="23.3597114863">
        <ele>30.2</ele>
        <time>2012-02-12T10:32:19Z</time>
      </trkpt>
      <trkpt lat="60.0035275627" lon="23.3597297588">
        <ele>30.4</ele>
        <time>2012-02-12T10:32:24Z</time>
      </trkpt>
      <trkpt lat="60.0036268044" lon="23.3597604366">
        <ele>30.4</ele>
        <time>2012-02-12T10:32:28Z</time>
      </trkpt>
      <trkpt lat="60.0037018224" lon="23.3597803017">
        <ele>30.4</ele>
        <time>2012-02-12T10:32:31Z</time>
      </trkpt>
      <trkpt lat="60.0038176603" lon="23.3597689023">
        <ele>30.4</ele>
        <time>2012-02-12T10:32:36Z</time>
      </trkpt>
      <trkpt lat="60.0039225179" lon="23.3597881806">
        <ele>30.4</ele>
        <time>2012-02-12T10:32:41Z</time>
      </trkpt>
      <trkpt lat="60.0040749846" lon="23.3597837382">
        <ele>30.4</ele>
        <time>2012-02-12T10:32:46Z</time>
      </trkpt>
      <trkpt lat="60.0042191533" lon="23.3598699042">
        <ele>30.4</ele>
        <time>2012-02-12T10:32:51Z</time>
      </trkpt>
      <trkpt lat="60.0043113542" lon="23.3599869155">
        <ele>30.4</ele>
        <time>2012-02-12T10:32:55Z</time>
      </trkpt>
      <trkpt lat="60.0044300419" lon="23.3601388793">
        <ele>30.4</ele>
        <time>2012-02-12T10:32:59Z</time>
      </trkpt>
      <trkpt lat="60.0045313791" lon="23.3602540466">
        <ele>30.4</ele>
        <time>2012-02-12T10:33:02Z</time>
      </trkpt>
      <trkpt lat="60.0045530044" lon="23.3603371951">
        <ele>30.4</ele>
        <time>2012-02-12T10:33:03Z</time>
      </trkpt>
      <trkpt lat="60.0046114262" lon="23.3605154781">
        <ele>30.4</ele>
        <time>2012-02-12T10:33:06Z</time>
      </trkpt>
      <trkpt lat="60.0046608794" lon="23.3607954336">
        <ele>30.4</ele>
        <time>2012-02-12T10:33:09Z</time>
      </trkpt>
      <trkpt lat="60.0046643998" lon="23.360896184">
        <ele>30.4</ele>
        <time>2012-02-12T10:33:10Z</time>
      </trkpt>
      <trkpt lat="60.0046691775" lon="23.3611714456">
        <ele>30.4</ele>
        <time>2012-02-12T10:33:13Z</time>
      </trkpt>
      <trkpt lat="60.0047074828" lon="23.3615874393">
        <ele>30.4</ele>
        <time>2012-02-12T10:33:18Z</time>
      </trkpt>
      <trkpt lat="60.0047193013" lon="23.3616594398">
        <ele>30.4</ele>
        <time>2012-02-12T10:33:19Z</time>
      </trkpt>
      <trkpt lat="60.0047337182" lon="23.361804782">
        <ele>30.4</ele>
        <time>2012-02-12T10:33:21Z</time>
      </trkpt>
      <trkpt lat="60.0047644797" lon="23.3622716538">
        <ele>30.4</ele>
        <time>2012-02-12T10:33:27Z</time>
      </trkpt>
      <trkpt lat="60.0047862727" lon="23.3624692152">
        <ele>30.4</ele>
        <time>2012-02-12T10:33:30Z</time>
      </trkpt>
      <trkpt lat="60.004800019" lon="23.3626459056">
        <ele>30.4</ele>
        <time>2012-02-12T10:33:34Z</time>
      </trkpt>
      <trkpt lat="60.0048119213" lon="23.3627386094">
        <ele>30.4</ele>
        <time>2012-02-12T10:33:36Z</time>
      </trkpt>
      <trkpt lat="60.0048340495" lon="23.3630135358">
        <ele>30.4</ele>
        <time>2012-02-12T10:33:42Z</time>
      </trkpt>
      <trkpt lat="60.0048684153" lon="23.3631976861">
        <ele>30.4</ele>
        <time>2012-02-12T10:33:47Z</time>
      </trkpt>
      <trkpt lat="60.0048960756" lon="23.3633333891">
        <ele>30.4</ele>
        <time>2012-02-12T10:33:52Z</time>
      </trkpt>
      <trkpt lat="60.0049425951" lon="23.3634859397">
        <ele>30.4</ele>
        <time>2012-02-12T10:33:58Z</time>
      </trkpt>
      <trkpt lat="60.0050032801" lon="23.3636135122">
        <ele>30.4</ele>
        <time>2012-02-12T10:34:04Z</time>
      </trkpt>
      <trkpt lat="60.0050930502" lon="23.3637624585">
        <ele>30.4</ele>
        <time>2012-02-12T10:34:10Z</time>
      </trkpt>
      <trkpt lat="60.0051984107" lon="23.3639026877">
        <ele>30.4</ele>
        <time>2012-02-12T10:34:15Z</time>
      </trkpt>
      <trkpt lat="60.0053310962" lon="23.364082228">
        <ele>30.4</ele>
        <time>2012-02-12T10:34:22Z</time>
      </trkpt>
      <trkpt lat="60.0053968941" lon="23.36417116">
        <ele>30.4</ele>
        <time>2012-02-12T10:34:26Z</time>
      </trkpt>
      <trkpt lat="60.0054978122" lon="23.3643237944">
        <ele>30.4</ele>
        <time>2012-02-12T10:34:31Z</time>
      </trkpt>
      <trkpt lat="60.0056129795" lon="23.3645020774">
        <ele>30.4</ele>
        <time>2012-02-12T10:34:37Z</time>
      </trkpt>
      <trkpt lat="60.0056688029" lon="23.364620346">
        <ele>30.4</ele>
        <time>2012-02-12T10:34:41Z</time>
      </trkpt>
      <trkpt lat="60.0057330921" lon="23.3647914206">
        <ele>30.4</ele>
        <time>2012-02-12T10:34:46Z</time>
      </trkpt>
      <trkpt lat="60.0058074395" lon="23.3649942626">
        <ele>30.4</ele>
        <time>2012-02-12T10:34:51Z</time>
      </trkpt>
      <trkpt lat="60.0058835472" lon="23.3651406943">
        <ele>30.4</ele>
        <time>2012-02-12T10:34:55Z</time>
      </trkpt>
      <trkpt lat="60.0059796038" lon="23.365312188">
        <ele>30.4</ele>
        <time>2012-02-12T10:35:00Z</time>
      </trkpt>
      <trkpt lat="60.0060737325" lon="23.3654376651">
        <ele>30.4</ele>
        <time>2012-02-12T10:35:04Z</time>
      </trkpt>
      <trkpt lat="60.006149002" lon="23.3654908063">
        <ele>30.4</ele>
        <time>2012-02-12T10:35:06Z</time>
      </trkpt>
      <trkpt lat="60.0063201604" lon="23.3657311154">
        <ele>30.4</ele>
        <time>2012-02-12T10:35:12Z</time>
      </trkpt>
      <trkpt lat="60.0063419533" lon="23.3657783055">
        <ele>30.4</ele>
        <time>2012-02-12T10:35:13Z</time>
      </trkpt>
      <trkpt lat="60.0063876347" lon="23.3659405791">
        <ele>30.4</ele>
        <time>2012-02-12T10:35:16Z</time>
      </trkpt>
      <trkpt lat="60.0064882175" lon="23.3661407388">
        <ele>30.4</ele>
        <time>2012-02-12T10:35:20Z</time>
      </trkpt>
      <trkpt lat="60.0065626487" lon="23.3662281621">
        <ele>30.4</ele>
        <time>2012-02-12T10:35:23Z</time>
      </trkpt>
      <trkpt lat="60.0066924005" lon="23.3663291639">
        <ele>30.4</ele>
        <time>2012-02-12T10:35:28Z</time>
      </trkpt>
      <trkpt lat="60.0067167081" lon="23.3663377973">
        <ele>30.4</ele>
        <time>2012-02-12T10:35:29Z</time>
      </trkpt>
      <trkpt lat="60.0068317077" lon="23.3664825527">
        <ele>30.4</ele>
        <time>2012-02-12T10:35:35Z</time>
      </trkpt>
      <trkpt lat="60.0068520757" lon="23.3665076984">
        <ele>30.4</ele>
        <time>2012-02-12T10:35:36Z</time>
      </trkpt>
      <trkpt lat="60.0069534129" lon="23.3666581535">
        <ele>30.4</ele>
        <time>2012-02-12T10:35:41Z</time>
      </trkpt>
      <trkpt lat="60.0070355555" lon="23.3668055073">
        <ele>30.4</ele>
        <time>2012-02-12T10:35:45Z</time>
      </trkpt>
      <trkpt lat="60.0071144292" lon="23.3669422999">
        <ele>31</ele>
        <time>2012-02-12T10:35:49Z</time>
      </trkpt>
      <trkpt lat="60.0072304347" lon="23.3671520151">
        <ele>31.6</ele>
        <time>2012-02-12T10:35:54Z</time>
      </trkpt>
      <trkpt lat="60.0073324424" lon="23.3672683558">
        <ele>32</ele>
        <time>2012-02-12T10:35:58Z</time>
      </trkpt>
      <trkpt lat="60.007470157" lon="23.3675571961">
        <ele>32.2</ele>
        <time>2012-02-12T10:36:04Z</time>
      </trkpt>
      <trkpt lat="60.0074842386" lon="23.367597094">
        <ele>32.2</ele>
        <time>2012-02-12T10:36:05Z</time>
      </trkpt>
      <trkpt lat="60.0075564906" lon="23.3677816634">
        <ele>32.4</ele>
        <time>2012-02-12T10:36:10Z</time>
      </trkpt>
      <trkpt lat="60.0076215342" lon="23.3680078909">
        <ele>32.4</ele>
        <time>2012-02-12T10:36:15Z</time>
      </trkpt>
      <trkpt lat="60.0076590851" lon="23.3682056199">
        <ele>32.4</ele>
        <time>2012-02-12T10:36:19Z</time>
      </trkpt>
      <trkpt lat="60.0077074486" lon="23.3684237169">
        <ele>32.4</ele>
        <time>2012-02-12T10:36:23Z</time>
      </trkpt>
      <trkpt lat="60.0077522918" lon="23.3686388803">
        <ele>32.4</ele>
        <time>2012-02-12T10:36:27Z</time>
      </trkpt>
      <trkpt lat="60.0078180059" lon="23.3688739926">
        <ele>32.6</ele>
        <time>2012-02-12T10:36:32Z</time>
      </trkpt>
      <trkpt lat="60.00790501" lon="23.3690671116">
        <ele>32.6</ele>
        <time>2012-02-12T10:36:37Z</time>
      </trkpt>
      <trkpt lat="60.0079661979" lon="23.369225781">
        <ele>32.6</ele>
        <time>2012-02-12T10:36:41Z</time>
      </trkpt>
      <trkpt lat="60.0080338398" lon="23.3693786668">
        <ele>32.6</ele>
        <time>2012-02-12T10:36:45Z</time>
      </trkpt>
      <trkpt lat="60.0081309022" lon="23.3695572851">
        <ele>32.6</ele>
        <time>2012-02-12T10:36:50Z</time>
      </trkpt>
      <trkpt lat="60.0081469117" lon="23.3695771502">
        <ele>32.6</ele>
        <time>2012-02-12T10:36:51Z</time>
      </trkpt>
      <trkpt lat="60.0082468239" lon="23.3697406811">
        <ele>32.6</ele>
        <time>2012-02-12T10:36:57Z</time>
      </trkpt>
      <trkpt lat="60.0083457303" lon="23.3698467121">
        <ele>32.6</ele>
        <time>2012-02-12T10:37:03Z</time>
      </trkpt>
      <trkpt lat="60.0084488277" lon="23.3699709319">
        <ele>32.6</ele>
        <time>2012-02-12T10:37:08Z</time>
      </trkpt>
      <trkpt lat="60.0086031385" lon="23.3700910445">
        <ele>32.6</ele>
        <time>2012-02-12T10:37:14Z</time>
      </trkpt>
      <trkpt lat="60.0087018772" lon="23.3701415873">
        <ele>32.6</ele>
        <time>2012-02-12T10:37:18Z</time>
      </trkpt>
      <trkpt lat="60.0087654959" lon="23.3701535735">
        <ele>32.6</ele>
        <time>2012-02-12T10:37:21Z</time>
      </trkpt>
      <trkpt lat="60.0088865305" lon="23.3701787192">
        <ele>32.6</ele>
        <time>2012-02-12T10:37:26Z</time>
      </trkpt>
      <trkpt lat="60.0090162823" lon="23.3702065471">
        <ele>32.6</ele>
        <time>2012-02-12T10:37:31Z</time>
      </trkpt>
      <trkpt lat="60.009058108" lon="23.3702150128">
        <ele>32.6</ele>
        <time>2012-02-12T10:37:33Z</time>
      </trkpt>
      <trkpt lat="60.0091084832" lon="23.3702494624">
        <ele>32.6</ele>
        <time>2012-02-12T10:37:35Z</time>
      </trkpt>
      <trkpt lat="60.009236391" lon="23.3703108179">
        <ele>32.6</ele>
        <time>2012-02-12T10:37:40Z</time>
      </trkpt>
      <trkpt lat="60.009371172" lon="23.3704030188">
        <ele>32.6</ele>
        <time>2012-02-12T10:37:45Z</time>
      </trkpt>
      <trkpt lat="60.0094444298" lon="23.3704551542">
        <ele>32.6</ele>
        <time>2012-02-12T10:37:48Z</time>
      </trkpt>
      <trkpt lat="60.0095664702" lon="23.370554815">
        <ele>32.6</ele>
        <time>2012-02-12T10:37:53Z</time>
      </trkpt>
      <trkpt lat="60.0096592579" lon="23.3706239657">
        <ele>32.6</ele>
        <time>2012-02-12T10:37:57Z</time>
      </trkpt>
      <trkpt lat="60.0096824757" lon="23.3706461777">
        <ele>32.6</ele>
        <time>2012-02-12T10:37:58Z</time>
      </trkpt>
      <trkpt lat="60.0097836453" lon="23.370711808">
        <ele>32.6</ele>
        <time>2012-02-12T10:38:03Z</time>
      </trkpt>
      <trkpt lat="60.0098074499" lon="23.3707298291">
        <ele>32.6</ele>
        <time>2012-02-12T10:38:04Z</time>
      </trkpt>
      <trkpt lat="60.0098973038" lon="23.3708061882">
        <ele>32.6</ele>
        <time>2012-02-12T10:38:08Z</time>
      </trkpt>
      <trkpt lat="60.0100223618" lon="23.3709242892">
        <ele>32.6</ele>
        <time>2012-02-12T10:38:13Z</time>
      </trkpt>
      <trkpt lat="60.0101738227" lon="23.3710706371">
        <ele>32.6</ele>
        <time>2012-02-12T10:38:19Z</time>
      </trkpt>
      <trkpt lat="60.0102493436" lon="23.371178596">
        <ele>32.6</ele>
        <time>2012-02-12T10:38:23Z</time>
      </trkpt>
      <trkpt lat="60.0102650178" lon="23.3712053343">
        <ele>32.6</ele>
        <time>2012-02-12T10:38:24Z</time>
      </trkpt>
      <trkpt lat="60.0103226014" lon="23.3713145504">
        <ele>32.6</ele>
        <time>2012-02-12T10:38:27Z</time>
      </trkpt>
      <trkpt lat="60.0104260341" lon="23.3715132853">
        <ele>32.6</ele>
        <time>2012-02-12T10:38:32Z</time>
      </trkpt>
      <trkpt lat="60.0105319813" lon="23.3717150376">
        <ele>32.6</ele>
        <time>2012-02-12T10:38:37Z</time>
      </trkpt>
      <trkpt lat="60.0106115255" lon="23.3718733717">
        <ele>32.6</ele>
        <time>2012-02-12T10:38:41Z</time>
      </trkpt>
      <trkpt lat="60.0106873817" lon="23.3720332984">
        <ele>32.6</ele>
        <time>2012-02-12T10:38:45Z</time>
      </trkpt>
      <trkpt lat="60.0107717875" lon="23.3722017745">
        <ele>32.6</ele>
        <time>2012-02-12T10:38:50Z</time>
      </trkpt>
      <trkpt lat="60.0108748848" lon="23.3723927142">
        <ele>32.6</ele>
        <time>2012-02-12T10:38:56Z</time>
      </trkpt>
      <trkpt lat="60.0110086599" lon="23.3725722545">
        <ele>32.6</ele>
        <time>2012-02-12T10:39:02Z</time>
      </trkpt>
      <trkpt lat="60.0111107515" lon="23.3727060297">
        <ele>32.6</ele>
        <time>2012-02-12T10:39:07Z</time>
      </trkpt>
      <trkpt lat="60.0112253321" lon="23.3728143238">
        <ele>32.6</ele>
        <time>2012-02-12T10:39:12Z</time>
      </trkpt>
      <trkpt lat="60.0113559221" lon="23.3729407229">
        <ele>32.6</ele>
        <time>2012-02-12T10:39:18Z</time>
      </trkpt>
      <trkpt lat="60.0114589356" lon="23.3730423115">
        <ele>32.6</ele>
        <time>2012-02-12T10:39:23Z</time>
      </trkpt>
      <trkpt lat="60.0115619492" lon="23.37314675">
        <ele>32.6</ele>
        <time>2012-02-12T10:39:29Z</time>
      </trkpt>
      <trkpt lat="60.0116493724" lon="23.3732459078">
        <ele>32.6</ele>
        <time>2012-02-12T10:39:33Z</time>
      </trkpt>
      <trkpt lat="60.0117365441" lon="23.3733277152">
        <ele>32.6</ele>
        <time>2012-02-12T10:39:37Z</time>
      </trkpt>
      <trkpt lat="60.0118196926" lon="23.3734095225">
        <ele>32.6</ele>
        <time>2012-02-12T10:39:41Z</time>
      </trkpt>
      <trkpt lat="60.0118465985" lon="23.3734419605">
        <ele>32.6</ele>
        <time>2012-02-12T10:39:42Z</time>
      </trkpt>
      <trkpt lat="60.0119505341" lon="23.373540364">
        <ele>33.2</ele>
        <time>2012-02-12T10:39:47Z</time>
      </trkpt>
      <trkpt lat="60.0120186789" lon="23.3735902363">
        <ele>33.6</ele>
        <time>2012-02-12T10:39:50Z</time>
      </trkpt>
      <trkpt lat="60.0121346006" lon="23.3736313914">
        <ele>34</ele>
        <time>2012-02-12T10:39:55Z</time>
      </trkpt>
      <trkpt lat="60.0121843052" lon="23.3736412821">
        <ele>34</ele>
        <time>2012-02-12T10:39:57Z</time>
      </trkpt>
      <trkpt lat="60.0123393704" lon="23.373769106">
        <ele>34.4</ele>
        <time>2012-02-12T10:40:04Z</time>
      </trkpt>
      <trkpt lat="60.0125453137" lon="23.3739536755">
        <ele>35.8</ele>
        <time>2012-02-12T10:40:13Z</time>
      </trkpt>
      <trkpt lat="60.0126598104" lon="23.3740823376">
        <ele>36</ele>
        <time>2012-02-12T10:40:18Z</time>
      </trkpt>
      <trkpt lat="60.0127463955" lon="23.3741769693">
        <ele>36.2</ele>
        <time>2012-02-12T10:40:22Z</time>
      </trkpt>
      <trkpt lat="60.0128606408" lon="23.3742716848">
        <ele>36.4</ele>
        <time>2012-02-12T10:40:27Z</time>
      </trkpt>
      <trkpt lat="60.012973964" lon="23.374367406">
        <ele>36.4</ele>
        <time>2012-02-12T10:40:32Z</time>
      </trkpt>
      <trkpt lat="60.0130966751" lon="23.3744648875">
        <ele>36.6</ele>
        <time>2012-02-12T10:40:37Z</time>
      </trkpt>
      <trkpt lat="60.0132016164" lon="23.3745292605">
        <ele>36.6</ele>
        <time>2012-02-12T10:40:41Z</time>
      </trkpt>
      <trkpt lat="60.0133949031" lon="23.3746119899">
        <ele>36.6</ele>
        <time>2012-02-12T10:40:46Z</time>
      </trkpt>
      <trkpt lat="60.0135627087" lon="23.3746777878">
        <ele>36.6</ele>
        <time>2012-02-12T10:40:50Z</time>
      </trkpt>
      <trkpt lat="60.0136992498" lon="23.3747396462">
        <ele>36.6</ele>
        <time>2012-02-12T10:40:53Z</time>
      </trkpt>
      <trkpt lat="60.0137383095" lon="23.3747459327">
        <ele>36.6</ele>
        <time>2012-02-12T10:40:54Z</time>
      </trkpt>
      <trkpt lat="60.01388164" lon="23.3748154186">
        <ele>36.6</ele>
        <time>2012-02-12T10:40:58Z</time>
      </trkpt>
      <trkpt lat="60.0139169278" lon="23.3748409834">
        <ele>36.6</ele>
        <time>2012-02-12T10:40:59Z</time>
      </trkpt>
      <trkpt lat="60.0139516289" lon="23.3748607647">
        <ele>36.6</ele>
        <time>2012-02-12T10:41:00Z</time>
      </trkpt>
      <trkpt lat="60.0141398863" lon="23.3750093758">
        <ele>36.6</ele>
        <time>2012-02-12T10:41:06Z</time>
      </trkpt>
      <trkpt lat="60.0142517009" lon="23.3750618465">
        <ele>36.6</ele>
        <time>2012-02-12T10:41:10Z</time>
      </trkpt>
      <trkpt lat="60.0143844702" lon="23.3751761756">
        <ele>35.8</ele>
        <time>2012-02-12T10:41:14Z</time>
      </trkpt>
      <trkpt lat="60.0144967038" lon="23.3752809493">
        <ele>35.4</ele>
        <time>2012-02-12T10:41:18Z</time>
      </trkpt>
      <trkpt lat="60.0146180737" lon="23.3753883215">
        <ele>35</ele>
        <time>2012-02-12T10:41:23Z</time>
      </trkpt>
      <trkpt lat="60.0147151361" lon="23.3754808576">
        <ele>34.8</ele>
        <time>2012-02-12T10:41:27Z</time>
      </trkpt>
      <trkpt lat="60.0148463967" lon="23.3755857152">
        <ele>34.8</ele>
        <time>2012-02-12T10:41:32Z</time>
      </trkpt>
      <trkpt lat="60.0150516694" lon="23.375740026">
        <ele>34.6</ele>
        <time>2012-02-12T10:41:37Z</time>
      </trkpt>
      <trkpt lat="60.0152388372" lon="23.3759568657">
        <ele>34.6</ele>
        <time>2012-02-12T10:41:41Z</time>
      </trkpt>
      <trkpt lat="60.0152766396" lon="23.3760045588">
        <ele>34.6</ele>
        <time>2012-02-12T10:41:42Z</time>
      </trkpt>
      <trkpt lat="60.0153583631" lon="23.3761787346">
        <ele>34.6</ele>
        <time>2012-02-12T10:41:45Z</time>
      </trkpt>
      <trkpt lat="60.0154285196" lon="23.3764163615">
        <ele>34.6</ele>
        <time>2012-02-12T10:41:49Z</time>
      </trkpt>
      <trkpt lat="60.0154461216" lon="23.376467994">
        <ele>34.6</ele>
        <time>2012-02-12T10:41:50Z</time>
      </trkpt>
      <trkpt lat="60.0155154399" lon="23.3766868454">
        <ele>34.6</ele>
        <time>2012-02-12T10:41:54Z</time>
      </trkpt>
      <trkpt lat="60.0156342115" lon="23.3769170962">
        <ele>34.6</ele>
        <time>2012-02-12T10:41:58Z</time>
      </trkpt>
      <trkpt lat="60.0157388176" lon="23.3770430762">
        <ele>34.6</ele>
        <time>2012-02-12T10:42:00Z</time>
      </trkpt>
      <trkpt lat="60.0159058688" lon="23.3774189206">
        <ele>34.6</ele>
        <time>2012-02-12T10:42:04Z</time>
      </trkpt>
      <trkpt lat="60.0159277456" lon="23.3775930126">
        <ele>34.6</ele>
        <time>2012-02-12T10:42:06Z</time>
      </trkpt>
      <trkpt lat="60.0159292543" lon="23.3777045757">
        <ele>34.6</ele>
        <time>2012-02-12T10:42:08Z</time>
      </trkpt>
      <trkpt lat="60.0159290029" lon="23.3777541127">
        <ele>34.6</ele>
        <time>2012-02-12T10:42:15Z</time>
      </trkpt>
      <trkpt lat="60.0159364628" lon="23.3776624986">
        <ele>34.6</ele>
        <time>2012-02-12T10:42:28Z</time>
      </trkpt>
      <trkpt lat="60.0159125744" lon="23.3774273863">
        <ele>34.6</ele>
        <time>2012-02-12T10:42:34Z</time>
      </trkpt>
      <trkpt lat="60.0158543202" lon="23.3772800325">
        <ele>34.6</ele>
        <time>2012-02-12T10:42:38Z</time>
      </trkpt>
      <trkpt lat="60.0157751112" lon="23.3771869934">
        <ele>34.6</ele>
        <time>2012-02-12T10:42:42Z</time>
      </trkpt>
      <trkpt lat="60.0157051223" lon="23.3771039288">
        <ele>34.6</ele>
        <time>2012-02-12T10:42:47Z</time>
      </trkpt>
      <trkpt lat="60.0156740255" lon="23.3770671322">
        <ele>34.6</ele>
        <time>2012-02-12T10:42:50Z</time>
      </trkpt>
      <trkpt lat="60.0156295176" lon="23.3770146615">
        <ele>35.4</ele>
        <time>2012-02-12T10:42:56Z</time>
      </trkpt>
      <trkpt lat="60.0155778851" lon="23.3769437507">
        <ele>36</ele>
        <time>2012-02-12T10:43:02Z</time>
      </trkpt>
      <trkpt lat="60.0155202176" lon="23.3768143341">
        <ele>37</ele>
        <time>2012-02-12T10:43:08Z</time>
      </trkpt>
      <trkpt lat="60.0154783919" lon="23.3766802237">
        <ele>37.8</ele>
        <time>2012-02-12T10:43:13Z</time>
      </trkpt>
      <trkpt lat="60.0154018652" lon="23.3764363104">
        <ele>39</ele>
        <time>2012-02-12T10:43:20Z</time>
      </trkpt>
      <trkpt lat="60.0153873645" lon="23.3763942333">
        <ele>39.2</ele>
        <time>2012-02-12T10:43:21Z</time>
      </trkpt>
      <trkpt lat="60.0153219019" lon="23.376246628">
        <ele>39.8</ele>
        <time>2012-02-12T10:43:25Z</time>
      </trkpt>
      <trkpt lat="60.0152238336" lon="23.3761316284">
        <ele>40.2</ele>
        <time>2012-02-12T10:43:30Z</time>
      </trkpt>
      <trkpt lat="60.0151036372" lon="23.3760417744">
        <ele>40.6</ele>
        <time>2012-02-12T10:43:35Z</time>
      </trkpt>
      <trkpt lat="60.0149892243" lon="23.3759480648">
        <ele>40.8</ele>
        <time>2012-02-12T10:43:41Z</time>
      </trkpt>
      <trkpt lat="60.014911105" lon="23.3758789979">
        <ele>40.8</ele>
        <time>2012-02-12T10:43:45Z</time>
      </trkpt>
      <trkpt lat="60.0147873881" lon="23.3757730507">
        <ele>40.8</ele>
        <time>2012-02-12T10:43:51Z</time>
      </trkpt>
      <trkpt lat="60.0146816923" lon="23.3756639183">
        <ele>40.8</ele>
        <time>2012-02-12T10:43:56Z</time>
      </trkpt>
      <trkpt lat="60.0145489231" lon="23.3755657663">
        <ele>40.8</ele>
        <time>2012-02-12T10:44:01Z</time>
      </trkpt>
      <trkpt lat="60.0144256253" lon="23.3754844619">
        <ele>40.8</ele>
        <time>2012-02-12T10:44:06Z</time>
      </trkpt>
      <trkpt lat="60.0141514534" lon="23.375367702">
        <ele>41</ele>
        <time>2012-02-12T10:44:16Z</time>
      </trkpt>
      <trkpt lat="60.0140058598" lon="23.3752541273">
        <ele>41</ele>
        <time>2012-02-12T10:44:22Z</time>
      </trkpt>
      <trkpt lat="60.0139855756" lon="23.3752348489">
        <ele>41</ele>
        <time>2012-02-12T10:44:23Z</time>
      </trkpt>
      <trkpt lat="60.0138840707" lon="23.3751351043">
        <ele>41.6</ele>
        <time>2012-02-12T10:44:28Z</time>
      </trkpt>
      <trkpt lat="60.0137601024" lon="23.375019937">
        <ele>42.4</ele>
        <time>2012-02-12T10:44:35Z</time>
      </trkpt>
      <trkpt lat="60.0136605255" lon="23.3749530494">
        <ele>42.6</ele>
        <time>2012-02-12T10:44:40Z</time>
      </trkpt>
      <trkpt lat="60.0135529857" lon="23.3749049373">
        <ele>42.8</ele>
        <time>2012-02-12T10:44:45Z</time>
      </trkpt>
      <trkpt lat="60.0134555042" lon="23.3748570766">
        <ele>42.8</ele>
        <time>2012-02-12T10:44:49Z</time>
      </trkpt>
      <trkpt lat="60.0133363974" lon="23.3748051927">
        <ele>42.8</ele>
        <time>2012-02-12T10:44:54Z</time>
      </trkpt>
      <trkpt lat="60.0132462082" lon="23.3747478605">
        <ele>42.8</ele>
        <time>2012-02-12T10:44:58Z</time>
      </trkpt>
      <trkpt lat="60.0131250897" lon="23.3746519716">
        <ele>43</ele>
        <time>2012-02-12T10:45:04Z</time>
      </trkpt>
      <trkpt lat="60.0130117664" lon="23.3745536519">
        <ele>43</ele>
        <time>2012-02-12T10:45:09Z</time>
      </trkpt>
      <trkpt lat="60.0128929949" lon="23.3744528176">
        <ele>43</ele>
        <time>2012-02-12T10:45:14Z</time>
      </trkpt>
      <trkpt lat="60.0127729661" lon="23.3743226467">
        <ele>43</ele>
        <time>2012-02-12T10:45:19Z</time>
      </trkpt>
      <trkpt lat="60.0127430427" lon="23.3743016081">
        <ele>43</ele>
        <time>2012-02-12T10:45:20Z</time>
      </trkpt>
      <trkpt lat="60.0126417055" lon="23.3742125924">
        <ele>43</ele>
        <time>2012-02-12T10:45:24Z</time>
      </trkpt>
      <trkpt lat="60.0125648435" lon="23.374138664">
        <ele>43</ele>
        <time>2012-02-12T10:45:27Z</time>
      </trkpt>
      <trkpt lat="60.0124362652" lon="23.3740069005">
        <ele>43</ele>
        <time>2012-02-12T10:45:32Z</time>
      </trkpt>
      <trkpt lat="60.0122930185" lon="23.3739076588">
        <ele>43</ele>
        <time>2012-02-12T10:45:37Z</time>
      </trkpt>
      <trkpt lat="60.0121690502" lon="23.373867761">
        <ele>43</ele>
        <time>2012-02-12T10:45:41Z</time>
      </trkpt>
      <trkpt lat="60.01205338" lon="23.3738199842">
        <ele>43</ele>
        <time>2012-02-12T10:45:45Z</time>
      </trkpt>
      <trkpt lat="60.0119553117" lon="23.3737462234">
        <ele>43</ele>
        <time>2012-02-12T10:45:49Z</time>
      </trkpt>
      <trkpt lat="60.0119401405" lon="23.3737187308">
        <ele>43</ele>
        <time>2012-02-12T10:45:50Z</time>
      </trkpt>
      <trkpt lat="60.0118349477" lon="23.3736152143">
        <ele>43</ele>
        <time>2012-02-12T10:45:55Z</time>
      </trkpt>
      <trkpt lat="60.0117711614" lon="23.3735288808">
        <ele>43</ele>
        <time>2012-02-12T10:45:58Z</time>
      </trkpt>
      <trkpt lat="60.0117264859" lon="23.3734717162">
        <ele>43</ele>
        <time>2012-02-12T10:46:00Z</time>
      </trkpt>
      <trkpt lat="60.0115974884" lon="23.3733640926">
        <ele>43</ele>
        <time>2012-02-12T10:46:05Z</time>
      </trkpt>
      <trkpt lat="60.0114824888" lon="23.3732557147">
        <ele>43</ele>
        <time>2012-02-12T10:46:10Z</time>
      </trkpt>
      <trkpt lat="60.0113674053" lon="23.3731226939">
        <ele>43</ele>
        <time>2012-02-12T10:46:15Z</time>
      </trkpt>
      <trkpt lat="60.0112737794" lon="23.373028649">
        <ele>43</ele>
        <time>2012-02-12T10:46:19Z</time>
      </trkpt>
      <trkpt lat="60.011147548" lon="23.37289479">
        <ele>42</ele>
        <time>2012-02-12T10:46:25Z</time>
      </trkpt>
      <trkpt lat="60.0110253399" lon="23.3727812991">
        <ele>41.6</ele>
        <time>2012-02-12T10:46:30Z</time>
      </trkpt>
      <trkpt lat="60.0109386711" lon="23.3726828956">
        <ele>41.4</ele>
        <time>2012-02-12T10:46:34Z</time>
      </trkpt>
      <trkpt lat="60.0108750525" lon="23.3725765293">
        <ele>41.2</ele>
        <time>2012-02-12T10:46:37Z</time>
      </trkpt>
      <trkpt lat="60.0107640761" lon="23.3723689935">
        <ele>41.2</ele>
        <time>2012-02-12T10:46:42Z</time>
      </trkpt>
      <trkpt lat="60.010691405" lon="23.3722120005">
        <ele>41</ele>
        <time>2012-02-12T10:46:46Z</time>
      </trkpt>
      <trkpt lat="60.0106031436" lon="23.3720253356">
        <ele>41</ele>
        <time>2012-02-12T10:46:51Z</time>
      </trkpt>
      <trkpt lat="60.0105324842" lon="23.3718684264">
        <ele>41</ele>
        <time>2012-02-12T10:46:55Z</time>
      </trkpt>
      <trkpt lat="60.0104417921" lon="23.3717378364">
        <ele>41</ele>
        <time>2012-02-12T10:47:00Z</time>
      </trkpt>
      <trkpt lat="60.0103402034" lon="23.3715300491">
        <ele>41</ele>
        <time>2012-02-12T10:47:05Z</time>
      </trkpt>
      <trkpt lat="60.0101733198" lon="23.3713065876">
        <ele>41</ele>
        <time>2012-02-12T10:47:13Z</time>
      </trkpt>
      <trkpt lat="60.0100553865" lon="23.3711827031">
        <ele>41</ele>
        <time>2012-02-12T10:47:18Z</time>
      </trkpt>
      <trkpt lat="60.0099290712" lon="23.3710846349">
        <ele>41</ele>
        <time>2012-02-12T10:47:23Z</time>
      </trkpt>
      <trkpt lat="60.0098364512" lon="23.3710133888">
        <ele>41</ele>
        <time>2012-02-12T10:47:27Z</time>
      </trkpt>
      <trkpt lat="60.0097233794" lon="23.3709356886">
        <ele>41</ele>
        <time>2012-02-12T10:47:32Z</time>
      </trkpt>
      <trkpt lat="60.0096148338" lon="23.3708548032">
        <ele>41</ele>
        <time>2012-02-12T10:47:36Z</time>
      </trkpt>
      <trkpt lat="60.0095868383" lon="23.3708295737">
        <ele>41</ele>
        <time>2012-02-12T10:47:37Z</time>
      </trkpt>
      <trkpt lat="60.0094580084" lon="23.3707382948">
        <ele>41</ele>
        <time>2012-02-12T10:47:42Z</time>
      </trkpt>
      <trkpt lat="60.0094301805" lon="23.3707177592">
        <ele>41</ele>
        <time>2012-02-12T10:47:43Z</time>
      </trkpt>
      <trkpt lat="60.0092948129" lon="23.3706213673">
        <ele>41</ele>
        <time>2012-02-12T10:47:48Z</time>
      </trkpt>
      <trkpt lat="60.0091454474" lon="23.3705087984">
        <ele>41</ele>
        <time>2012-02-12T10:47:54Z</time>
      </trkpt>
      <trkpt lat="60.0089899632" lon="23.3704528073">
        <ele>41</ele>
        <time>2012-02-12T10:48:00Z</time>
      </trkpt>
      <trkpt lat="60.008807573" lon="23.3704639552">
        <ele>40.2</ele>
        <time>2012-02-12T10:48:06Z</time>
      </trkpt>
      <trkpt lat="60.0087471395" lon="23.3704740135">
        <ele>40</ele>
        <time>2012-02-12T10:48:08Z</time>
      </trkpt>
      <trkpt lat="60.0085872967" lon="23.3704005881">
        <ele>39.4</ele>
        <time>2012-02-12T10:48:14Z</time>
      </trkpt>
      <trkpt lat="60.0084233467" lon="23.3703094768">
        <ele>39.2</ele>
        <time>2012-02-12T10:48:20Z</time>
      </trkpt>
      <trkpt lat="60.008303737" lon="23.3701867658">
        <ele>39</ele>
        <time>2012-02-12T10:48:25Z</time>
      </trkpt>
      <trkpt lat="60.0081835406" lon="23.3700626298">
        <ele>39</ele>
        <time>2012-02-12T10:48:29Z</time>
      </trkpt>
      <trkpt lat="60.0080671998" lon="23.3699347221">
        <ele>39</ele>
        <time>2012-02-12T10:48:32Z</time>
      </trkpt>
      <trkpt lat="60.0080281401" lon="23.3699048825">
        <ele>39</ele>
        <time>2012-02-12T10:48:33Z</time>
      </trkpt>
      <trkpt lat="60.0079329217" lon="23.3696862825">
        <ele>38.4</ele>
        <time>2012-02-12T10:48:36Z</time>
      </trkpt>
      <trkpt lat="60.0079053453" lon="23.3696119351">
        <ele>38.2</ele>
        <time>2012-02-12T10:48:37Z</time>
      </trkpt>
      <trkpt lat="60.0078455823" lon="23.369438765">
        <ele>37.8</ele>
        <time>2012-02-12T10:48:40Z</time>
      </trkpt>
      <trkpt lat="60.0078268069" lon="23.3693841989">
        <ele>37.8</ele>
        <time>2012-02-12T10:48:41Z</time>
      </trkpt>
      <trkpt lat="60.0078094564" lon="23.369328543">
        <ele>37.6</ele>
        <time>2012-02-12T10:48:42Z</time>
      </trkpt>
      <trkpt lat="60.0077548064" lon="23.3691397827">
        <ele>37.4</ele>
        <time>2012-02-12T10:48:46Z</time>
      </trkpt>
      <trkpt lat="60.0077041797" lon="23.3689058438">
        <ele>37.2</ele>
        <time>2012-02-12T10:48:51Z</time>
      </trkpt>
      <trkpt lat="60.0076718256" lon="23.3685942048">
        <ele>37</ele>
        <time>2012-02-12T10:48:57Z</time>
      </trkpt>
      <trkpt lat="60.0076583307" lon="23.3685076198">
        <ele>37</ele>
        <time>2012-02-12T10:48:59Z</time>
      </trkpt>
      <trkpt lat="60.0076227914" lon="23.3682644608">
        <ele>37</ele>
        <time>2012-02-12T10:49:04Z</time>
      </trkpt>
      <trkpt lat="60.0075699017" lon="23.3680211343">
        <ele>36.8</ele>
        <time>2012-02-12T10:49:09Z</time>
      </trkpt>
      <trkpt lat="60.0074859988" lon="23.3677892909">
        <ele>36.8</ele>
        <time>2012-02-12T10:49:14Z</time>
      </trkpt>
      <trkpt lat="60.0074093045" lon="23.3676125167">
        <ele>36.8</ele>
        <time>2012-02-12T10:49:18Z</time>
      </trkpt>
      <trkpt lat="60.0073627011" lon="23.3675143646">
        <ele>36.8</ele>
        <time>2012-02-12T10:49:20Z</time>
      </trkpt>
      <trkpt lat="60.0072788821" lon="23.3673744707">
        <ele>36.8</ele>
        <time>2012-02-12T10:49:24Z</time>
      </trkpt>
      <trkpt lat="60.0071889443" lon="23.3672264463">
        <ele>36.8</ele>
        <time>2012-02-12T10:49:29Z</time>
      </trkpt>
      <trkpt lat="60.0071156865" lon="23.3670953534">
        <ele>36.8</ele>
        <time>2012-02-12T10:49:33Z</time>
      </trkpt>
      <trkpt lat="60.0070430154" lon="23.3669517715">
        <ele>36.8</ele>
        <time>2012-02-12T10:49:37Z</time>
      </trkpt>
      <trkpt lat="60.0069561789" lon="23.3667986342">
        <ele>36.8</ele>
        <time>2012-02-12T10:49:41Z</time>
      </trkpt>
      <trkpt lat="60.006874204" lon="23.3666835507">
        <ele>36.8</ele>
        <time>2012-02-12T10:49:45Z</time>
      </trkpt>
      <trkpt lat="60.0067644849" lon="23.3665308325">
        <ele>36.8</ele>
        <time>2012-02-12T10:49:50Z</time>
      </trkpt>
      <trkpt lat="60.0066594597" lon="23.3664615142">
        <ele>36.8</ele>
        <time>2012-02-12T10:49:54Z</time>
      </trkpt>
      <trkpt lat="60.0065694381" lon="23.3663824728">
        <ele>36.8</ele>
        <time>2012-02-12T10:49:58Z</time>
      </trkpt>
      <trkpt lat="60.0064683524" lon="23.3662719994">
        <ele>36.8</ele>
        <time>2012-02-12T10:50:03Z</time>
      </trkpt>
      <trkpt lat="60.0064112716" lon="23.3661208737">
        <ele>36.8</ele>
        <time>2012-02-12T10:50:07Z</time>
      </trkpt>
      <trkpt lat="60.0063446355" lon="23.3659126673">
        <ele>37</ele>
        <time>2012-02-12T10:50:13Z</time>
      </trkpt>
      <trkpt lat="60.0062518479" lon="23.3657615417">
        <ele>38</ele>
        <time>2012-02-12T10:50:19Z</time>
      </trkpt>
      <trkpt lat="60.0061817752" lon="23.365668754">
        <ele>38.2</ele>
        <time>2012-02-12T10:50:23Z</time>
      </trkpt>
      <trkpt lat="60.0060966989" lon="23.3655541735">
        <ele>38.6</ele>
        <time>2012-02-12T10:50:28Z</time>
      </trkpt>
      <trkpt lat="60.00602671" lon="23.3654277744">
        <ele>38.6</ele>
        <time>2012-02-12T10:50:33Z</time>
      </trkpt>
      <trkpt lat="60.005945238" lon="23.3652701109">
        <ele>38.8</ele>
        <time>2012-02-12T10:50:38Z</time>
      </trkpt>
      <trkpt lat="60.005876674" lon="23.3651430413">
        <ele>38.8</ele>
        <time>2012-02-12T10:50:42Z</time>
      </trkpt>
      <trkpt lat="60.0057861495" lon="23.3649162271">
        <ele>38.8</ele>
        <time>2012-02-12T10:50:48Z</time>
      </trkpt>
      <trkpt lat="60.0057189267" lon="23.3647348427">
        <ele>38.8</ele>
        <time>2012-02-12T10:50:53Z</time>
      </trkpt>
      <trkpt lat="60.0056084532" lon="23.3645900873">
        <ele>38.8</ele>
        <time>2012-02-12T10:50:57Z</time>
      </trkpt>
      <trkpt lat="60.0054932021" lon="23.3644387102">
        <ele>38.8</ele>
        <time>2012-02-12T10:51:01Z</time>
      </trkpt>
      <trkpt lat="60.0054665477" lon="23.3644057694">
        <ele>38.8</ele>
        <time>2012-02-12T10:51:02Z</time>
      </trkpt>
      <trkpt lat="60.0053591755" lon="23.3642998221">
        <ele>38.8</ele>
        <time>2012-02-12T10:51:06Z</time>
      </trkpt>
      <trkpt lat="60.0053383884" lon="23.3642868302">
        <ele>38.8</ele>
        <time>2012-02-12T10:51:07Z</time>
      </trkpt>
      <trkpt lat="60.0052572516" lon="23.3641392249">
        <ele>38.8</ele>
        <time>2012-02-12T10:51:11Z</time>
      </trkpt>
      <trkpt lat="60.0051523941" lon="23.3639984928">
        <ele>39</ele>
        <time>2012-02-12T10:51:16Z</time>
      </trkpt>
      <trkpt lat="60.0050707544" lon="23.3638875165">
        <ele>39</ele>
        <time>2012-02-12T10:51:20Z</time>
      </trkpt>
      <trkpt lat="60.0049752007" lon="23.3637395759">
        <ele>39</ele>
        <time>2012-02-12T10:51:24Z</time>
      </trkpt>
      <trkpt lat="60.004850478" lon="23.3634238298">
        <ele>39</ele>
        <time>2012-02-12T10:51:29Z</time>
      </trkpt>
      <trkpt lat="60.0047989293" lon="23.3630238455">
        <ele>39</ele>
        <time>2012-02-12T10:51:33Z</time>
      </trkpt>
      <trkpt lat="60.0047674972" lon="23.3626562154">
        <ele>39</ele>
        <time>2012-02-12T10:51:37Z</time>
      </trkpt>
      <trkpt lat="60.0047516554" lon="23.3624751663">
        <ele>39</ele>
        <time>2012-02-12T10:51:39Z</time>
      </trkpt>
      <trkpt lat="60.0047282699" lon="23.3622077837">
        <ele>39</ele>
        <time>2012-02-12T10:51:43Z</time>
      </trkpt>
      <trkpt lat="60.0047257553" lon="23.3621588334">
        <ele>39</ele>
        <time>2012-02-12T10:51:44Z</time>
      </trkpt>
      <trkpt lat="60.0047110032" lon="23.3619891838">
        <ele>39</ele>
        <time>2012-02-12T10:51:48Z</time>
      </trkpt>
      <trkpt lat="60.0046931498" lon="23.3618407403">
        <ele>39</ele>
        <time>2012-02-12T10:51:51Z</time>
      </trkpt>
      <trkpt lat="60.0046780623" lon="23.3616406644">
        <ele>39</ele>
        <time>2012-02-12T10:51:55Z</time>
      </trkpt>
      <trkpt lat="60.0046680041" lon="23.3613597031">
        <ele>39</ele>
        <time>2012-02-12T10:52:01Z</time>
      </trkpt>
      <trkpt lat="60.0046483066" lon="23.3611550171">
        <ele>38.2</ele>
        <time>2012-02-12T10:52:06Z</time>
      </trkpt>
      <trkpt lat="60.0046320457" lon="23.3608577111">
        <ele>37.4</ele>
        <time>2012-02-12T10:52:13Z</time>
      </trkpt>
      <trkpt lat="60.0045898847" lon="23.3606171506">
        <ele>37.2</ele>
        <time>2012-02-12T10:52:20Z</time>
      </trkpt>
      <trkpt lat="60.0045612186" lon="23.360494691">
        <ele>37</ele>
        <time>2012-02-12T10:52:23Z</time>
      </trkpt>
      <trkpt lat="60.0044513319" lon="23.3602911785">
        <ele>37</ele>
        <time>2012-02-12T10:52:30Z</time>
      </trkpt>
      <trkpt lat="60.0043913175" lon="23.3601953733">
        <ele>36.8</ele>
        <time>2012-02-12T10:52:34Z</time>
      </trkpt>
      <trkpt lat="60.0043218316" lon="23.3600709021">
        <ele>36.8</ele>
        <time>2012-02-12T10:52:39Z</time>
      </trkpt>
      <trkpt lat="60.0042525971" lon="23.3599641167">
        <ele>36.8</ele>
        <time>2012-02-12T10:52:44Z</time>
      </trkpt>
      <trkpt lat="60.004229463" lon="23.3599445031">
        <ele>36.8</ele>
        <time>2012-02-12T10:52:45Z</time>
      </trkpt>
      <trkpt lat="60.0041575463" lon="23.3599150826">
        <ele>36.8</ele>
        <time>2012-02-12T10:52:48Z</time>
      </trkpt>
      <trkpt lat="60.0040589752" lon="23.3599066169">
        <ele>36.8</ele>
        <time>2012-02-12T10:52:52Z</time>
      </trkpt>
      <trkpt lat="60.0039793472" lon="23.3599072036">
        <ele>36.8</ele>
        <time>2012-02-12T10:52:55Z</time>
      </trkpt>
      <trkpt lat="60.003781199" lon="23.359885243">
        <ele>37.8</ele>
        <time>2012-02-12T10:53:01Z</time>
      </trkpt>
      <trkpt lat="60.0035722383" lon="23.3598545653">
        <ele>38.2</ele>
        <time>2012-02-12T10:53:07Z</time>
      </trkpt>
      <trkpt lat="60.0034201906" lon="23.3598283299">
        <ele>38.4</ele>
        <time>2012-02-12T10:53:12Z</time>
      </trkpt>
      <trkpt lat="60.0032532232" lon="23.3598378853">
        <ele>38.6</ele>
        <time>2012-02-12T10:53:18Z</time>
      </trkpt>
      <trkpt lat="60.0031815579" lon="23.3598508773">
        <ele>38.2</ele>
        <time>2012-02-12T10:53:20Z</time>
      </trkpt>
      <trkpt lat="60.0030547398" lon="23.3599010848">
        <ele>37.8</ele>
        <time>2012-02-12T10:53:24Z</time>
      </trkpt>
      <trkpt lat="60.0028555858" lon="23.3599409827">
        <ele>37.4</ele>
        <time>2012-02-12T10:53:29Z</time>
      </trkpt>
      <trkpt lat="60.0028203818" lon="23.3599525497">
        <ele>37.2</ele>
        <time>2012-02-12T10:53:30Z</time>
      </trkpt>
      <trkpt lat="60.0025958307" lon="23.3600101334">
        <ele>37</ele>
        <time>2012-02-12T10:53:36Z</time>
      </trkpt>
      <trkpt lat="60.0023856127" lon="23.3600527134">
        <ele>36</ele>
        <time>2012-02-12T10:53:41Z</time>
      </trkpt>
      <trkpt lat="60.0023432841" lon="23.3600638613">
        <ele>36</ele>
        <time>2012-02-12T10:53:42Z</time>
      </trkpt>
      <trkpt lat="60.0021708684" lon="23.360079284">
        <ele>35.6</ele>
        <time>2012-02-12T10:53:46Z</time>
      </trkpt>
      <trkpt lat="60.0021241812" lon="23.3600564014">
        <ele>35.4</ele>
        <time>2012-02-12T10:53:47Z</time>
      </trkpt>
      <trkpt lat="60.0019956867" lon="23.3599656255">
        <ele>35</ele>
        <time>2012-02-12T10:53:50Z</time>
      </trkpt>
      <trkpt lat="60.0018803518" lon="23.3598720835">
        <ele>34.4</ele>
        <time>2012-02-12T10:53:53Z</time>
      </trkpt>
      <trkpt lat="60.0017076846" lon="23.3596871788">
        <ele>33.6</ele>
        <time>2012-02-12T10:53:58Z</time>
      </trkpt>
      <trkpt lat="60.0016614165" lon="23.3596296789">
        <ele>33.4</ele>
        <time>2012-02-12T10:54:00Z</time>
      </trkpt>
      <trkpt lat="60.0015267194" lon="23.359438404">
        <ele>32.6</ele>
        <time>2012-02-12T10:54:04Z</time>
      </trkpt>
      <trkpt lat="60.0015022442" lon="23.3593739471">
        <ele>32.4</ele>
        <time>2012-02-12T10:54:05Z</time>
      </trkpt>
      <trkpt lat="60.0013741688" lon="23.3590695165">
        <ele>31.6</ele>
        <time>2012-02-12T10:54:11Z</time>
      </trkpt>
      <trkpt lat="60.0012909365" lon="23.3588947539">
        <ele>30.8</ele>
        <time>2012-02-12T10:54:15Z</time>
      </trkpt>
      <trkpt lat="60.0012673834" lon="23.3588515033">
        <ele>30.6</ele>
        <time>2012-02-12T10:54:16Z</time>
      </trkpt>
      <trkpt lat="60.0012242166" lon="23.3587508367">
        <ele>30</ele>
        <time>2012-02-12T10:54:18Z</time>
      </trkpt>
      <trkpt lat="60.0010959736" lon="23.3585277943">
        <ele>29.4</ele>
        <time>2012-02-12T10:54:23Z</time>
      </trkpt>
      <trkpt lat="60.001036965" lon="23.3583559654">
        <ele>28.6</ele>
        <time>2012-02-12T10:54:26Z</time>
      </trkpt>
      <trkpt lat="60.0010173513" lon="23.3582958672">
        <ele>28.4</ele>
        <time>2012-02-12T10:54:27Z</time>
      </trkpt>
      <trkpt lat="60.0008922934" lon="23.357997723">
        <ele>27.6</ele>
        <time>2012-02-12T10:54:32Z</time>
      </trkpt>
      <trkpt lat="60.0007705882" lon="23.3577695677">
        <ele>27</ele>
        <time>2012-02-12T10:54:36Z</time>
      </trkpt>
      <trkpt lat="60.0007057123" lon="23.357640235">
        <ele>26.8</ele>
        <time>2012-02-12T10:54:39Z</time>
      </trkpt>
      <trkpt lat="60.0006306943" lon="23.357445272">
        <ele>26.6</ele>
        <time>2012-02-12T10:54:44Z</time>
      </trkpt>
      <trkpt lat="60.0006130085" lon="23.3574271671">
        <ele>26.6</ele>
        <time>2012-02-12T10:54:45Z</time>
      </trkpt>
      <trkpt lat="60.0005090729" lon="23.3574596888">
        <ele>26.4</ele>
        <time>2012-02-12T10:54:50Z</time>
      </trkpt>
      <trkpt lat="60.0004970868" lon="23.3574783805">
        <ele>26.4</ele>
        <time>2012-02-12T10:54:51Z</time>
      </trkpt>
      <trkpt lat="60.0003651557" lon="23.3576253152">
        <ele>26.4</ele>
        <time>2012-02-12T10:54:57Z</time>
      </trkpt>
      <trkpt lat="60.0002983519" lon="23.3576814739">
        <ele>26.4</ele>
        <time>2012-02-12T10:55:00Z</time>
      </trkpt>
      <trkpt lat="60.00017606" lon="23.357742075">
        <ele>26.2</ele>
        <time>2012-02-12T10:55:04Z</time>
      </trkpt>
      <trkpt lat="60.0000349088" lon="23.3578998224">
        <ele>26.2</ele>
        <time>2012-02-12T10:55:08Z</time>
      </trkpt>
      <trkpt lat="59.9998584698" lon="23.3584618288">
        <ele>26.2</ele>
        <time>2012-02-12T10:55:17Z</time>
      </trkpt>
      <trkpt lat="59.9998335756" lon="23.3584949373">
        <ele>26.2</ele>
        <time>2012-02-12T10:55:18Z</time>
      </trkpt>
      <trkpt lat="59.9997063384" lon="23.3586644193">
        <ele>26.2</ele>
        <time>2012-02-12T10:55:24Z</time>
      </trkpt>
      <trkpt lat="59.9996050012" lon="23.3587908184">
        <ele>26.2</ele>
        <time>2012-02-12T10:55:29Z</time>
      </trkpt>
      <trkpt lat="59.9995019876" lon="23.3588911497">
        <ele>26.2</ele>
        <time>2012-02-12T10:55:34Z</time>
      </trkpt>
      <trkpt lat="59.9994382852" lon="23.3589188938">
        <ele>26.2</ele>
        <time>2012-02-12T10:55:37Z</time>
      </trkpt>
      <trkpt lat="59.9993242075" lon="23.358925264">
        <ele>26.2</ele>
        <time>2012-02-12T10:55:42Z</time>
      </trkpt>
      <trkpt lat="59.9993003191" lon="23.3589295388">
        <ele>26.2</ele>
        <time>2012-02-12T10:55:43Z</time>
      </trkpt>
      <trkpt lat="59.9991278196" lon="23.3590048921">
        <ele>26.2</ele>
        <time>2012-02-12T10:55:49Z</time>
      </trkpt>
      <trkpt lat="59.9990714094" lon="23.3590302892">
        <ele>26.2</ele>
        <time>2012-02-12T10:55:51Z</time>
      </trkpt>
      <trkpt lat="59.9989277437" lon="23.3590755515">
        <ele>26.2</ele>
        <time>2012-02-12T10:55:57Z</time>
      </trkpt>
      <trkpt lat="59.9988098103" lon="23.3590975959">
        <ele>26.4</ele>
        <time>2012-02-12T10:56:02Z</time>
      </trkpt>
      <trkpt lat="59.9987015162" lon="23.3591666628">
        <ele>27.2</ele>
        <time>2012-02-12T10:56:07Z</time>
      </trkpt>
      <trkpt lat="59.9986255762" lon="23.3592894576">
        <ele>27.8</ele>
        <time>2012-02-12T10:56:12Z</time>
      </trkpt>
      <trkpt lat="59.9985763744" lon="23.3595076385">
        <ele>28</ele>
        <time>2012-02-12T10:56:17Z</time>
      </trkpt>
      <trkpt lat="59.9985966586" lon="23.3597531443">
        <ele>28.2</ele>
        <time>2012-02-12T10:56:21Z</time>
      </trkpt>
      <trkpt lat="59.9986796394" lon="23.3599357859">
        <ele>28.2</ele>
        <time>2012-02-12T10:56:24Z</time>
      </trkpt>
      <trkpt lat="59.9987506341" lon="23.3601748377">
        <ele>28.2</ele>
        <time>2012-02-12T10:56:28Z</time>
      </trkpt>
      <trkpt lat="59.9987808928" lon="23.3603595748">
        <ele>28.4</ele>
        <time>2012-02-12T10:56:31Z</time>
      </trkpt>
      <trkpt lat="59.9987827368" lon="23.360412716">
        <ele>28.4</ele>
        <time>2012-02-12T10:56:32Z</time>
      </trkpt>
      <trkpt lat="59.9987509694" lon="23.3606324056">
        <ele>28.4</ele>
        <time>2012-02-12T10:56:37Z</time>
      </trkpt>
      <trkpt lat="59.9987448506" lon="23.3606722196">
        <ele>28.4</ele>
        <time>2012-02-12T10:56:38Z</time>
      </trkpt>
      <trkpt lat="59.9987120774" lon="23.3607847047">
        <ele>28.4</ele>
        <time>2012-02-12T10:56:41Z</time>
      </trkpt>
      <trkpt lat="59.9986154341" lon="23.3609639098">
        <ele>28.4</ele>
        <time>2012-02-12T10:56:46Z</time>
      </trkpt>
      <trkpt lat="59.9986027774" lon="23.3609925759">
        <ele>28.4</ele>
        <time>2012-02-12T10:56:47Z</time>
      </trkpt>
      <trkpt lat="59.9985328724" lon="23.3610996965">
        <ele>28.4</ele>
        <time>2012-02-12T10:56:51Z</time>
      </trkpt>
      <trkpt lat="59.998444108" lon="23.3612264309">
        <ele>28.4</ele>
        <time>2012-02-12T10:56:55Z</time>
      </trkpt>
      <trkpt lat="59.9983682518" lon="23.3613170392">
        <ele>28.4</ele>
        <time>2012-02-12T10:56:58Z</time>
      </trkpt>
      <trkpt lat="59.998226011" lon="23.361529688">
        <ele>28.4</ele>
        <time>2012-02-12T10:57:05Z</time>
      </trkpt>
      <trkpt lat="59.9981578661" lon="23.3616627088">
        <ele>28.4</ele>
        <time>2012-02-12T10:57:09Z</time>
      </trkpt>
      <trkpt lat="59.9980476442" lon="23.3618588452">
        <ele>28.4</ele>
        <time>2012-02-12T10:57:15Z</time>
      </trkpt>
      <trkpt lat="59.9979362487" lon="23.3619914469">
        <ele>28.4</ele>
        <time>2012-02-12T10:57:20Z</time>
      </trkpt>
      <trkpt lat="59.9978170581" lon="23.3621188518">
        <ele>28.4</ele>
        <time>2012-02-12T10:57:24Z</time>
      </trkpt>
      <trkpt lat="59.9977341611" lon="23.3621864937">
        <ele>28.4</ele>
        <time>2012-02-12T10:57:28Z</time>
      </trkpt>
      <trkpt lat="59.9976220951" lon="23.3622753418">
        <ele>28.4</ele>
        <time>2012-02-12T10:57:33Z</time>
      </trkpt>
      <trkpt lat="59.9975319897" lon="23.3623983043">
        <ele>28.4</ele>
        <time>2012-02-12T10:57:38Z</time>
      </trkpt>
      <trkpt lat="59.9975034912" lon="23.3624393756">
        <ele>28.4</ele>
        <time>2012-02-12T10:57:40Z</time>
      </trkpt>
      <trkpt lat="59.9974532836" lon="23.3625366895">
        <ele>28.4</ele>
        <time>2012-02-12T10:57:44Z</time>
      </trkpt>
      <trkpt lat="59.9973672853" lon="23.3626827022">
        <ele>28.4</ele>
        <time>2012-02-12T10:57:50Z</time>
      </trkpt>
      <trkpt lat="59.9972972965" lon="23.362761492">
        <ele>28.4</ele>
        <time>2012-02-12T10:57:54Z</time>
      </trkpt>
      <trkpt lat="59.9971845599" lon="23.3628394437">
        <ele>28.4</ele>
        <time>2012-02-12T10:57:59Z</time>
      </trkpt>
      <trkpt lat="59.997078948" lon="23.3628683613">
        <ele>28.4</ele>
        <time>2012-02-12T10:58:03Z</time>
      </trkpt>
      <trkpt lat="59.9969646189" lon="23.3628707082">
        <ele>28.4</ele>
        <time>2012-02-12T10:58:08Z</time>
      </trkpt>
      <trkpt lat="59.9968755193" lon="23.362890238">
        <ele>29</ele>
        <time>2012-02-12T10:58:12Z</time>
      </trkpt>
      <trkpt lat="59.9968192767" lon="23.3628947642">
        <ele>29.6</ele>
        <time>2012-02-12T10:58:16Z</time>
      </trkpt>
      <trkpt lat="59.9968031835" lon="23.3628960215">
        <ele>29.6</ele>
        <time>2012-02-12T10:58:17Z</time>
      </trkpt>
      <trkpt lat="59.9966886867" lon="23.3629243523">
        <ele>30</ele>
        <time>2012-02-12T10:58:23Z</time>
      </trkpt>
      <trkpt lat="59.9965578453" lon="23.3630072493">
        <ele>30.8</ele>
        <time>2012-02-12T10:58:28Z</time>
      </trkpt>
      <trkpt lat="59.9964520657" lon="23.3631212432">
        <ele>31.4</ele>
        <time>2012-02-12T10:58:32Z</time>
      </trkpt>
      <trkpt lat="59.9963346353" lon="23.3632422778">
        <ele>31.8</ele>
        <time>2012-02-12T10:58:36Z</time>
      </trkpt>
      <trkpt lat="59.9961839287" lon="23.3635027035">
        <ele>32.2</ele>
        <time>2012-02-12T10:58:41Z</time>
      </trkpt>
      <trkpt lat="59.9960374131" lon="23.363818282">
        <ele>32.2</ele>
        <time>2012-02-12T10:58:45Z</time>
      </trkpt>
      <trkpt lat="59.9959201503" lon="23.3640501253">
        <ele>32.4</ele>
        <time>2012-02-12T10:58:48Z</time>
      </trkpt>
      <trkpt lat="59.9956981138" lon="23.3643108024">
        <ele>32.4</ele>
        <time>2012-02-12T10:58:53Z</time>
      </trkpt>
      <trkpt lat="59.9956185695" lon="23.3643680508">
        <ele>32.4</ele>
        <time>2012-02-12T10:58:55Z</time>
      </trkpt>
      <trkpt lat="59.9954491713" lon="23.3644753391">
        <ele>32.6</ele>
        <time>2012-02-12T10:59:00Z</time>
      </trkpt>
      <trkpt lat="59.9954181583" lon="23.3644900913">
        <ele>32.6</ele>
        <time>2012-02-12T10:59:01Z</time>
      </trkpt>
      <trkpt lat="59.99531548" lon="23.3645301568">
        <ele>32.6</ele>
        <time>2012-02-12T10:59:05Z</time>
      </trkpt>
      <trkpt lat="59.9951962894" lon="23.3645807834">
        <ele>32.6</ele>
        <time>2012-02-12T10:59:10Z</time>
      </trkpt>
      <trkpt lat="59.9950694713" lon="23.364628225">
        <ele>32</ele>
        <time>2012-02-12T10:59:15Z</time>
      </trkpt>
      <trkpt lat="59.9949553936" lon="23.3647059252">
        <ele>31.4</ele>
        <time>2012-02-12T10:59:20Z</time>
      </trkpt>
      <trkpt lat="59.9948752626" lon="23.3648005568">
        <ele>31</ele>
        <time>2012-02-12T10:59:25Z</time>
      </trkpt>
      <trkpt lat="59.9948686409" lon="23.3648122077">
        <ele>31</ele>
        <time>2012-02-12T10:59:26Z</time>
      </trkpt>
      <trkpt lat="59.9948288269" lon="23.3648840406">
        <ele>30.8</ele>
        <time>2012-02-12T10:59:31Z</time>
      </trkpt>
      <trkpt lat="59.9948184334" lon="23.3649044086">
        <ele>30.8</ele>
        <time>2012-02-12T10:59:32Z</time>
      </trkpt>
      <trkpt lat="59.9947352849" lon="23.3650877207">
        <ele>30.6</ele>
        <time>2012-02-12T10:59:39Z</time>
      </trkpt>
      <trkpt lat="59.9946756058" lon="23.3652660876">
        <ele>30.6</ele>
        <time>2012-02-12T10:59:44Z</time>
      </trkpt>
      <trkpt lat="59.9946210396" lon="23.3654142796">
        <ele>30.6</ele>
        <time>2012-02-12T10:59:49Z</time>
      </trkpt>
      <trkpt lat="59.9945466922" lon="23.365592814">
        <ele>30.6</ele>
        <time>2012-02-12T10:59:54Z</time>
      </trkpt>
      <trkpt lat="59.9945150924" lon="23.365670179">
        <ele>30.6</ele>
        <time>2012-02-12T10:59:56Z</time>
      </trkpt>
      <trkpt lat="59.9944332851" lon="23.3659042016">
        <ele>30.6</ele>
        <time>2012-02-12T11:00:02Z</time>
      </trkpt>
      <trkpt lat="59.9943762043" lon="23.3660767849">
        <ele>30.6</ele>
        <time>2012-02-12T11:00:06Z</time>
      </trkpt>
      <trkpt lat="59.9942960734" lon="23.3663297507">
        <ele>30.6</ele>
        <time>2012-02-12T11:00:12Z</time>
      </trkpt>
      <trkpt lat="59.9942321195" lon="23.3665303295">
        <ele>30.6</ele>
        <time>2012-02-12T11:00:17Z</time>
      </trkpt>
      <trkpt lat="59.994217535" lon="23.3666959559">
        <ele>30.6</ele>
        <time>2012-02-12T11:00:21Z</time>
      </trkpt>
      <trkpt lat="59.9941722727" lon="23.3669188306">
        <ele>29.6</ele>
        <time>2012-02-12T11:00:26Z</time>
      </trkpt>
      <trkpt lat="59.9941275133" lon="23.3670915816">
        <ele>29.2</ele>
        <time>2012-02-12T11:00:30Z</time>
      </trkpt>
      <trkpt lat="59.9940710193" lon="23.3673313039">
        <ele>29</ele>
        <time>2012-02-12T11:00:34Z</time>
      </trkpt>
      <trkpt lat="59.9939995217" lon="23.3676314598">
        <ele>28.8</ele>
        <time>2012-02-12T11:00:38Z</time>
      </trkpt>
      <trkpt lat="59.9939305387" lon="23.3680228107">
        <ele>28.6</ele>
        <time>2012-02-12T11:00:42Z</time>
      </trkpt>
      <trkpt lat="59.9938570294" lon="23.3683835676">
        <ele>28.4</ele>
        <time>2012-02-12T11:00:46Z</time>
      </trkpt>
      <trkpt lat="59.9938444566" lon="23.3684754333">
        <ele>28.2</ele>
        <time>2012-02-12T11:00:47Z</time>
      </trkpt>
      <trkpt lat="59.9938431993" lon="23.368828898">
        <ele>27.6</ele>
        <time>2012-02-12T11:00:51Z</time>
      </trkpt>
      <trkpt lat="59.9938824266" lon="23.3690820314">
        <ele>27.2</ele>
        <time>2012-02-12T11:00:54Z</time>
      </trkpt>
      <trkpt lat="59.9939006991" lon="23.369247993">
        <ele>26.8</ele>
        <time>2012-02-12T11:00:56Z</time>
      </trkpt>
      <trkpt lat="59.9938821751" lon="23.3694303831">
        <ele>26.2</ele>
        <time>2012-02-12T11:00:59Z</time>
      </trkpt>
      <trkpt lat="59.9938699376" lon="23.3694733823">
        <ele>26</ele>
        <time>2012-02-12T11:01:00Z</time>
      </trkpt>
      <trkpt lat="59.9937830173" lon="23.3696879589">
        <ele>25</ele>
        <time>2012-02-12T11:01:06Z</time>
      </trkpt>
      <trkpt lat="59.9936395191" lon="23.3700612887">
        <ele>23.4</ele>
        <time>2012-02-12T11:01:15Z</time>
      </trkpt>
      <trkpt lat="59.9935083424" lon="23.3702322795">
        <ele>22.8</ele>
        <time>2012-02-12T11:01:21Z</time>
      </trkpt>
      <trkpt lat="59.9933912473" lon="23.370310315">
        <ele>22.6</ele>
        <time>2012-02-12T11:01:26Z</time>
      </trkpt>
      <trkpt lat="59.9932751579" lon="23.3703793818">
        <ele>22.4</ele>
        <time>2012-02-12T11:01:31Z</time>
      </trkpt>
      <trkpt lat="59.9931490942" lon="23.3704648772">
        <ele>22.4</ele>
        <time>2012-02-12T11:01:37Z</time>
      </trkpt>
      <trkpt lat="59.9930715616" lon="23.3705209521">
        <ele>22.4</ele>
        <time>2012-02-12T11:01:41Z</time>
      </trkpt>
      <trkpt lat="59.9929767623" lon="23.3705859957">
        <ele>22.4</ele>
        <time>2012-02-12T11:01:45Z</time>
      </trkpt>
      <trkpt lat="59.9928626008" lon="23.370695128">
        <ele>22.4</ele>
        <time>2012-02-12T11:01:50Z</time>
      </trkpt>
      <trkpt lat="59.9927584138" lon="23.3708459184">
        <ele>22.4</ele>
        <time>2012-02-12T11:01:54Z</time>
      </trkpt>
      <trkpt lat="59.9926486947" lon="23.3710437312">
        <ele>22.2</ele>
        <time>2012-02-12T11:01:59Z</time>
      </trkpt>
      <trkpt lat="59.9925616068" lon="23.3712099443">
        <ele>22.2</ele>
        <time>2012-02-12T11:02:04Z</time>
      </trkpt>
      <trkpt lat="59.9924999998" lon="23.3714071704">
        <ele>22.2</ele>
        <time>2012-02-12T11:02:09Z</time>
      </trkpt>
      <trkpt lat="59.9924477806" lon="23.3715721262">
        <ele>22.2</ele>
        <time>2012-02-12T11:02:13Z</time>
      </trkpt>
      <trkpt lat="59.9924025183" lon="23.3717707772">
        <ele>22.2</ele>
        <time>2012-02-12T11:02:18Z</time>
      </trkpt>
      <trkpt lat="59.9923555797" lon="23.3719875332">
        <ele>22.2</ele>
        <time>2012-02-12T11:02:24Z</time>
      </trkpt>
      <trkpt lat="59.9923416657" lon="23.3720475476">
        <ele>22.2</ele>
        <time>2012-02-12T11:02:26Z</time>
      </trkpt>
      <trkpt lat="59.9922913743" lon="23.3722053788">
        <ele>22.2</ele>
        <time>2012-02-12T11:02:31Z</time>
      </trkpt>
      <trkpt lat="59.992255416" lon="23.372286767">
        <ele>22.2</ele>
        <time>2012-02-12T11:02:34Z</time>
      </trkpt>
      <trkpt lat="59.9921635504" lon="23.3724790478">
        <ele>22.2</ele>
        <time>2012-02-12T11:02:39Z</time>
      </trkpt>
      <trkpt lat="59.9921397458" lon="23.3725268246">
        <ele>22.2</ele>
        <time>2012-02-12T11:02:40Z</time>
      </trkpt>
      <trkpt lat="59.9920271768" lon="23.3728575744">
        <ele>22.2</ele>
        <time>2012-02-12T11:02:45Z</time>
      </trkpt>
      <trkpt lat="59.9919318746" lon="23.3731362726">
        <ele>22.2</ele>
        <time>2012-02-12T11:02:48Z</time>
      </trkpt>
      <trkpt lat="59.9918172941" lon="23.3734430501">
        <ele>22.2</ele>
        <time>2012-02-12T11:02:53Z</time>
      </trkpt>
      <trkpt lat="59.9918024581" lon="23.373501472">
        <ele>22.2</ele>
        <time>2012-02-12T11:02:55Z</time>
      </trkpt>
      <trkpt lat="59.9917896338" lon="23.3735485782">
        <ele>22.2</ele>
        <time>2012-02-12T11:02:58Z</time>
      </trkpt>
      <trkpt lat="59.9917690981" lon="23.3736236801">
        <ele>22.2</ele>
        <time>2012-02-12T11:03:03Z</time>
      </trkpt>
      <trkpt lat="59.9917334751" lon="23.373726526">
        <ele>22.6</ele>
        <time>2012-02-12T11:03:09Z</time>
      </trkpt>
      <trkpt lat="59.9917108439" lon="23.3737720397">
        <ele>23</ele>
        <time>2012-02-12T11:03:12Z</time>
      </trkpt>
      <trkpt lat="59.9916540147" lon="23.3738596305">
        <ele>24.4</ele>
        <time>2012-02-12T11:03:18Z</time>
      </trkpt>
      <trkpt lat="59.9915649151" lon="23.3739859458">
        <ele>25.2</ele>
        <time>2012-02-12T11:03:23Z</time>
      </trkpt>
      <trkpt lat="59.9914359176" lon="23.3741843454">
        <ele>26</ele>
        <time>2012-02-12T11:03:29Z</time>
      </trkpt>
      <trkpt lat="59.991328294" lon="23.3743780511">
        <ele>26.2</ele>
        <time>2012-02-12T11:03:33Z</time>
      </trkpt>
      <trkpt lat="59.9911950218" lon="23.3746860859">
        <ele>26.4</ele>
        <time>2012-02-12T11:03:37Z</time>
      </trkpt>
      <trkpt lat="59.9911544534" lon="23.3747551527">
        <ele>26.4</ele>
        <time>2012-02-12T11:03:38Z</time>
      </trkpt>
      <trkpt lat="59.9910255398" lon="23.3749133192">
        <ele>26.4</ele>
        <time>2012-02-12T11:03:41Z</time>
      </trkpt>
      <trkpt lat="59.9909248732" lon="23.375009292">
        <ele>26.6</ele>
        <time>2012-02-12T11:03:44Z</time>
      </trkpt>
      <trkpt lat="59.9908408027" lon="23.3750584937">
        <ele>26.6</ele>
        <time>2012-02-12T11:03:47Z</time>
      </trkpt>
      <trkpt lat="59.9906995677" lon="23.3750955417">
        <ele>26.6</ele>
        <time>2012-02-12T11:03:52Z</time>
      </trkpt>
      <trkpt lat="59.9905778625" lon="23.3751063544">
        <ele>26.6</ele>
        <time>2012-02-12T11:03:56Z</time>
      </trkpt>
      <trkpt lat="59.990458169" lon="23.3751480962">
        <ele>26.6</ele>
        <time>2012-02-12T11:04:00Z</time>
      </trkpt>
      <trkpt lat="59.9903620286" lon="23.3752315799">
        <ele>26.6</ele>
        <time>2012-02-12T11:04:04Z</time>
      </trkpt>
      <trkpt lat="59.9902656367" lon="23.3753303187">
        <ele>26.6</ele>
        <time>2012-02-12T11:04:09Z</time>
      </trkpt>
      <trkpt lat="59.9901516429" lon="23.375427884">
        <ele>26.6</ele>
        <time>2012-02-12T11:04:15Z</time>
      </trkpt>
      <trkpt lat="59.9901009324" lon="23.375456131">
        <ele>26.6</ele>
        <time>2012-02-12T11:04:17Z</time>
      </trkpt>
      <trkpt lat="59.9900162752" lon="23.3755201688">
        <ele>26.6</ele>
        <time>2012-02-12T11:04:22Z</time>
      </trkpt>
      <trkpt lat="59.9899102442" lon="23.3756287982">
        <ele>26.6</ele>
        <time>2012-02-12T11:04:27Z</time>
      </trkpt>
      <trkpt lat="59.9898128465" lon="23.3757551134">
        <ele>26.6</ele>
        <time>2012-02-12T11:04:31Z</time>
      </trkpt>
      <trkpt lat="59.9896735393" lon="23.3759958416">
        <ele>26.6</ele>
        <time>2012-02-12T11:04:36Z</time>
      </trkpt>
      <trkpt lat="59.9895883792" lon="23.3761936544">
        <ele>26</ele>
        <time>2012-02-12T11:04:41Z</time>
      </trkpt>
      <trkpt lat="59.9895067395" lon="23.3763426846">
        <ele>25.6</ele>
        <time>2012-02-12T11:04:45Z</time>
      </trkpt>
      <trkpt lat="59.989435661" lon="23.3764555888">
        <ele>25.2</ele>
        <time>2012-02-12T11:04:48Z</time>
      </trkpt>
      <trkpt lat="59.9893700307" lon="23.3765790542">
        <ele>25</ele>
        <time>2012-02-12T11:04:53Z</time>
      </trkpt>
      <trkpt lat="59.9893064121" lon="23.3767094765">
        <ele>24.8</ele>
        <time>2012-02-12T11:04:58Z</time>
      </trkpt>
      <trkpt lat="59.9892614851" lon="23.3768305112">
        <ele>24.8</ele>
        <time>2012-02-12T11:05:02Z</time>
      </trkpt>
      <trkpt lat="59.9891977827" lon="23.3770502008">
        <ele>24.8</ele>
        <time>2012-02-12T11:05:09Z</time>
      </trkpt>
      <trkpt lat="59.989149" lon="23.3771620991">
        <ele>24.6</ele>
        <time>2012-02-12T11:05:13Z</time>
      </trkpt>
      <trkpt lat="59.9890762451" lon="23.3772511987">
        <ele>24.6</ele>
        <time>2012-02-12T11:05:17Z</time>
      </trkpt>
      <trkpt lat="59.9889997184" lon="23.3774238659">
        <ele>25.4</ele>
        <time>2012-02-12T11:05:23Z</time>
      </trkpt>
      <trkpt lat="59.9889945216" lon="23.377589157">
        <ele>25.8</ele>
        <time>2012-02-12T11:05:28Z</time>
      </trkpt>
      <trkpt lat="59.9890013109" lon="23.3777451441">
        <ele>26.2</ele>
        <time>2012-02-12T11:05:32Z</time>
      </trkpt>
      <trkpt lat="59.9890046637" lon="23.3778246045">
        <ele>26.2</ele>
        <time>2012-02-12T11:05:34Z</time>
      </trkpt>
      <trkpt lat="59.9890076812" lon="23.3779285401">
        <ele>26.4</ele>
        <time>2012-02-12T11:05:36Z</time>
      </trkpt>
      <trkpt lat="59.9890070106" lon="23.3780305478">
        <ele>26.4</ele>
        <time>2012-02-12T11:05:38Z</time>
      </trkpt>
      <trkpt lat="59.9890234392" lon="23.3782875369">
        <ele>26.6</ele>
        <time>2012-02-12T11:05:43Z</time>
      </trkpt>
      <trkpt lat="59.9890002213" lon="23.3785487169">
        <ele>26.6</ele>
        <time>2012-02-12T11:05:48Z</time>
      </trkpt>
      <trkpt lat="59.9889575574" lon="23.3787379802">
        <ele>26.6</ele>
        <time>2012-02-12T11:05:52Z</time>
      </trkpt>
      <trkpt lat="59.9889407098" lon="23.3787831586">
        <ele>26.6</ele>
        <time>2012-02-12T11:05:53Z</time>
      </trkpt>
      <trkpt lat="59.9889013149" lon="23.3788720906">
        <ele>26.6</ele>
        <time>2012-02-12T11:05:55Z</time>
      </trkpt>
      <trkpt lat="59.9888380315" lon="23.3789752718">
        <ele>26.6</ele>
        <time>2012-02-12T11:05:58Z</time>
      </trkpt>
      <trkpt lat="59.988804923" lon="23.3790250602">
        <ele>26.6</ele>
        <time>2012-02-12T11:05:59Z</time>
      </trkpt>
      <trkpt lat="59.988650277" lon="23.3792373738">
        <ele>26.6</ele>
        <time>2012-02-12T11:06:04Z</time>
      </trkpt>
      <trkpt lat="59.9885300805" lon="23.3795437322">
        <ele>26.4</ele>
        <time>2012-02-12T11:06:09Z</time>
      </trkpt>
      <trkpt lat="59.9885533822" lon="23.3797110349">
        <ele>26</ele>
        <time>2012-02-12T11:06:12Z</time>
      </trkpt>
      <trkpt lat="59.9885667094" lon="23.3797612425">
        <ele>25.8</ele>
        <time>2012-02-12T11:06:13Z</time>
      </trkpt>
      <trkpt lat="59.9885955432" lon="23.3798986219">
        <ele>25.6</ele>
        <time>2012-02-12T11:06:16Z</time>
      </trkpt>
      <trkpt lat="59.9886482653" lon="23.3801113545">
        <ele>25.2</ele>
        <time>2012-02-12T11:06:21Z</time>
      </trkpt>
      <trkpt lat="59.9886671246" lon="23.3801924913">
        <ele>25</ele>
        <time>2012-02-12T11:06:23Z</time>
      </trkpt>
      <trkpt lat="59.9887454115" lon="23.3804710218">
        <ele>24.8</ele>
        <time>2012-02-12T11:06:30Z</time>
      </trkpt>
      <trkpt lat="59.9887722336" lon="23.3805850157">
        <ele>24.8</ele>
        <time>2012-02-12T11:06:33Z</time>
      </trkpt>
      <trkpt lat="59.9888299849" lon="23.3807774641">
        <ele>24.8</ele>
        <time>2012-02-12T11:06:38Z</time>
      </trkpt>
      <trkpt lat="59.9888370257" lon="23.3808147635">
        <ele>24.6</ele>
        <time>2012-02-12T11:06:39Z</time>
      </trkpt>
      <trkpt lat="59.9888885744" lon="23.3810766141">
        <ele>24.6</ele>
        <time>2012-02-12T11:06:45Z</time>
      </trkpt>
      <trkpt lat="59.9889310706" lon="23.3812913584">
        <ele>24.2</ele>
        <time>2012-02-12T11:06:50Z</time>
      </trkpt>
      <trkpt lat="59.9889801047" lon="23.3815303263">
        <ele>23.6</ele>
        <time>2012-02-12T11:06:55Z</time>
      </trkpt>
      <trkpt lat="59.9890419632" lon="23.3817678694">
        <ele>23.2</ele>
        <time>2012-02-12T11:07:00Z</time>
      </trkpt>
      <trkpt lat="59.9891134608" lon="23.3820373475">
        <ele>22.8</ele>
        <time>2012-02-12T11:07:06Z</time>
      </trkpt>
      <trkpt lat="59.9891363434" lon="23.3821569572">
        <ele>22.8</ele>
        <time>2012-02-12T11:07:09Z</time>
      </trkpt>
      <trkpt lat="59.9891578848" lon="23.3823280318">
        <ele>22.8</ele>
        <time>2012-02-12T11:07:13Z</time>
      </trkpt>
      <trkpt lat="59.9892037338" lon="23.3825758007">
        <ele>22.6</ele>
        <time>2012-02-12T11:07:19Z</time>
      </trkpt>
      <trkpt lat="59.9892372614" lon="23.3827480488">
        <ele>22.6</ele>
        <time>2012-02-12T11:07:23Z</time>
      </trkpt>
      <trkpt lat="59.9892515945" lon="23.382841004">
        <ele>22.2</ele>
        <time>2012-02-12T11:07:25Z</time>
      </trkpt>
      <trkpt lat="59.9892961862" lon="23.383037392">
        <ele>21.6</ele>
        <time>2012-02-12T11:07:29Z</time>
      </trkpt>
      <trkpt lat="59.9893209128" lon="23.3831237255">
        <ele>21.4</ele>
        <time>2012-02-12T11:07:31Z</time>
      </trkpt>
      <trkpt lat="59.9893424543" lon="23.383224476">
        <ele>21.2</ele>
        <time>2012-02-12T11:07:33Z</time>
      </trkpt>
      <trkpt lat="59.9893950088" lon="23.3834193551">
        <ele>21</ele>
        <time>2012-02-12T11:07:37Z</time>
      </trkpt>
      <trkpt lat="59.9894262733" lon="23.3835207761">
        <ele>21</ele>
        <time>2012-02-12T11:07:39Z</time>
      </trkpt>
      <trkpt lat="59.9895116848" lon="23.3837510269">
        <ele>20.8</ele>
        <time>2012-02-12T11:07:44Z</time>
      </trkpt>
      <trkpt lat="59.989560216" lon="23.3838663619">
        <ele>20.8</ele>
        <time>2012-02-12T11:07:46Z</time>
      </trkpt>
      <trkpt lat="59.989652836" lon="23.3843578765">
        <ele>20.2</ele>
        <time>2012-02-12T11:07:52Z</time>
      </trkpt>
      <trkpt lat="59.9896729526" lon="23.3844494906">
        <ele>20</ele>
        <time>2012-02-12T11:07:53Z</time>
      </trkpt>
      <trkpt lat="59.9897374932" lon="23.3847535022">
        <ele>19.6</ele>
        <time>2012-02-12T11:07:57Z</time>
      </trkpt>
      <trkpt lat="59.9897489764" lon="23.3848076492">
        <ele>19.4</ele>
        <time>2012-02-12T11:07:58Z</time>
      </trkpt>
      <trkpt lat="59.9897744574" lon="23.3849215593">
        <ele>19.2</ele>
        <time>2012-02-12T11:08:00Z</time>
      </trkpt>
      <trkpt lat="59.9898043808" lon="23.3851123313">
        <ele>19</ele>
        <time>2012-02-12T11:08:04Z</time>
      </trkpt>
      <trkpt lat="59.9898300294" lon="23.3853048635">
        <ele>18.2</ele>
        <time>2012-02-12T11:08:08Z</time>
      </trkpt>
      <trkpt lat="59.9898639761" lon="23.3855384671">
        <ele>17.6</ele>
        <time>2012-02-12T11:08:13Z</time>
      </trkpt>
      <trkpt lat="59.9898718551" lon="23.385673751">
        <ele>17.2</ele>
        <time>2012-02-12T11:08:16Z</time>
      </trkpt>
      <trkpt lat="59.9898738667" lon="23.3859558857">
        <ele>16.8</ele>
        <time>2012-02-12T11:08:22Z</time>
      </trkpt>
      <trkpt lat="59.9898814943" lon="23.3861468254">
        <ele>16.6</ele>
        <time>2012-02-12T11:08:26Z</time>
      </trkpt>
      <trkpt lat="59.989877471" lon="23.3861918362">
        <ele>16.6</ele>
        <time>2012-02-12T11:08:27Z</time>
      </trkpt>
      <trkpt lat="59.9898530796" lon="23.3864153815">
        <ele>16.6</ele>
        <time>2012-02-12T11:08:32Z</time>
      </trkpt>
      <trkpt lat="59.9898342203" lon="23.3865881324">
        <ele>16.6</ele>
        <time>2012-02-12T11:08:36Z</time>
      </trkpt>
      <trkpt lat="59.9898187977" lon="23.3868953291">
        <ele>16.4</ele>
        <time>2012-02-12T11:08:42Z</time>
      </trkpt>
      <trkpt lat="59.9898281854" lon="23.3869761306">
        <ele>16.4</ele>
        <time>2012-02-12T11:08:44Z</time>
      </trkpt>
      <trkpt lat="59.9897820849" lon="23.3872606961">
        <ele>16.4</ele>
        <time>2012-02-12T11:08:50Z</time>
      </trkpt>
      <trkpt lat="59.9897768882" lon="23.3873416652">
        <ele>16.4</ele>
        <time>2012-02-12T11:08:52Z</time>
      </trkpt>
      <trkpt lat="59.9897607111" lon="23.3874340338">
        <ele>16.4</ele>
        <time>2012-02-12T11:08:54Z</time>
      </trkpt>
      <trkpt lat="59.9897416004" lon="23.387595553">
        <ele>16.4</ele>
        <time>2012-02-12T11:08:58Z</time>
      </trkpt>
      <trkpt lat="59.9897100844" lon="23.3878527935">
        <ele>16.4</ele>
        <time>2012-02-12T11:09:04Z</time>
      </trkpt>
      <trkpt lat="59.9897100844" lon="23.387937786">
        <ele>16.4</ele>
        <time>2012-02-12T11:09:06Z</time>
      </trkpt>
      <trkpt lat="59.9896752157" lon="23.3882397858">
        <ele>16.4</ele>
        <time>2012-02-12T11:09:14Z</time>
      </trkpt>
      <trkpt lat="59.9896290314" lon="23.3884222598">
        <ele>16.6</ele>
        <time>2012-02-12T11:09:21Z</time>
      </trkpt>
      <trkpt lat="59.9896217392" lon="23.3884516803">
        <ele>16.8</ele>
        <time>2012-02-12T11:09:22Z</time>
      </trkpt>
      <trkpt lat="59.989591732" lon="23.3885860421">
        <ele>17.4</ele>
        <time>2012-02-12T11:09:26Z</time>
      </trkpt>
      <trkpt lat="59.989582009" lon="23.3886220843">
        <ele>17.6</ele>
        <time>2012-02-12T11:09:27Z</time>
      </trkpt>
      <trkpt lat="59.9895657481" lon="23.388692157">
        <ele>17.6</ele>
        <time>2012-02-12T11:09:29Z</time>
      </trkpt>
      <trkpt lat="59.9895189771" lon="23.3888229984">
        <ele>18</ele>
        <time>2012-02-12T11:09:32Z</time>
      </trkpt>
      <trkpt lat="59.9894705297" lon="23.3889739564">
        <ele>18.2</ele>
        <time>2012-02-12T11:09:36Z</time>
      </trkpt>
      <trkpt lat="59.9894313862" lon="23.3891606214">
        <ele>18.2</ele>
        <time>2012-02-12T11:09:40Z</time>
      </trkpt>
      <trkpt lat="59.9893474834" lon="23.3893734378">
        <ele>18.4</ele>
        <time>2012-02-12T11:09:44Z</time>
      </trkpt>
      <trkpt lat="59.9892903189" lon="23.389622045">
        <ele>18.4</ele>
        <time>2012-02-12T11:09:48Z</time>
      </trkpt>
      <trkpt lat="59.989214295" lon="23.3899289063">
        <ele>18.4</ele>
        <time>2012-02-12T11:09:52Z</time>
      </trkpt>
      <trkpt lat="59.9891269556" lon="23.3902241168">
        <ele>18.4</ele>
        <time>2012-02-12T11:09:56Z</time>
      </trkpt>
      <trkpt lat="59.9891089345" lon="23.3903027391">
        <ele>18.4</ele>
        <time>2012-02-12T11:09:57Z</time>
      </trkpt>
      <trkpt lat="59.9890180747" lon="23.3906178985">
        <ele>18.4</ele>
        <time>2012-02-12T11:10:01Z</time>
      </trkpt>
      <trkpt lat="59.9888788514" lon="23.3910698505">
        <ele>18.4</ele>
        <time>2012-02-12T11:10:07Z</time>
      </trkpt>
      <trkpt lat="59.9888139755" lon="23.3913126742">
        <ele>18.4</ele>
        <time>2012-02-12T11:10:11Z</time>
      </trkpt>
      <trkpt lat="59.988787824" lon="23.3914997582">
        <ele>18.4</ele>
        <time>2012-02-12T11:10:15Z</time>
      </trkpt>
      <trkpt lat="59.9887602475" lon="23.3917398996">
        <ele>18.4</ele>
        <time>2012-02-12T11:10:20Z</time>
      </trkpt>
      <trkpt lat="59.9887641032" lon="23.3919759339">
        <ele>18.2</ele>
        <time>2012-02-12T11:10:25Z</time>
      </trkpt>
      <trkpt lat="59.9887692161" lon="23.3921335975">
        <ele>17.6</ele>
        <time>2012-02-12T11:10:28Z</time>
      </trkpt>
      <trkpt lat="59.988763265" lon="23.3924215157">
        <ele>17.2</ele>
        <time>2012-02-12T11:10:34Z</time>
      </trkpt>
      <trkpt lat="59.9887682941" lon="23.3924699631">
        <ele>17</ele>
        <time>2012-02-12T11:10:35Z</time>
      </trkpt>
      <trkpt lat="59.9887931046" lon="23.3926814385">
        <ele>16.8</ele>
        <time>2012-02-12T11:10:40Z</time>
      </trkpt>
      <trkpt lat="59.9888102036" lon="23.3928768205">
        <ele>16.6</ele>
        <time>2012-02-12T11:10:44Z</time>
      </trkpt>
      <trkpt lat="59.9888156519" lon="23.3929240945">
        <ele>16.6</ele>
        <time>2012-02-12T11:10:45Z</time>
      </trkpt>
      <trkpt lat="59.9888372772" lon="23.3931747133">
        <ele>16.6</ele>
        <time>2012-02-12T11:10:50Z</time>
      </trkpt>
      <trkpt lat="59.9888390374" lon="23.3933715203">
        <ele>16.6</ele>
        <time>2012-02-12T11:10:54Z</time>
      </trkpt>
      <trkpt lat="59.9888522808" lon="23.3935487136">
        <ele>16.6</ele>
        <time>2012-02-12T11:10:57Z</time>
      </trkpt>
      <trkpt lat="59.9888569746" lon="23.3935891982">
        <ele>16.6</ele>
        <time>2012-02-12T11:10:58Z</time>
      </trkpt>
      <trkpt lat="59.9888745766" lon="23.3937969855">
        <ele>16.8</ele>
        <time>2012-02-12T11:11:02Z</time>
      </trkpt>
      <trkpt lat="59.9888791028" lon="23.3939948822">
        <ele>17.4</ele>
        <time>2012-02-12T11:11:06Z</time>
      </trkpt>
      <trkpt lat="59.9889115408" lon="23.3940575788">
        <ele>17.6</ele>
        <time>2012-02-12T11:11:08Z</time>
      </trkpt>
      <trkpt lat="59.9889775064" lon="23.3941177608">
        <ele>18.2</ele>
        <time>2012-02-12T11:11:14Z</time>
      </trkpt>
      <trkpt lat="59.9889863912" lon="23.394134357">
        <ele>18.4</ele>
        <time>2012-02-12T11:11:15Z</time>
      </trkpt>
      <trkpt lat="59.9890115369" lon="23.3942431541">
        <ele>19.4</ele>
        <time>2012-02-12T11:11:20Z</time>
      </trkpt>
      <trkpt lat="59.9890668574" lon="23.3944158212">
        <ele>20.8</ele>
        <time>2012-02-12T11:11:28Z</time>
      </trkpt>
      <trkpt lat="59.9890824477" lon="23.3944346805">
        <ele>21.2</ele>
        <time>2012-02-12T11:11:30Z</time>
      </trkpt>
      <trkpt lat="59.9891212559" lon="23.3944636819">
        <ele>22.4</ele>
        <time>2012-02-12T11:11:36Z</time>
      </trkpt>
      <trkpt lat="59.9891695357" lon="23.3944920965">
        <ele>23.8</ele>
        <time>2012-02-12T11:11:45Z</time>
      </trkpt>
      <trkpt lat="59.9891940108" lon="23.3944884085">
        <ele>24.8</ele>
        <time>2012-02-12T11:11:49Z</time>
      </trkpt>
      <trkpt lat="59.9892435479" lon="23.3944921803">
        <ele>25.8</ele>
        <time>2012-02-12T11:11:55Z</time>
      </trkpt>
      <trkpt lat="59.9893701984" lon="23.3942321738">
        <ele>28</ele>
        <time>2012-02-12T11:12:08Z</time>
      </trkpt>
      <trkpt lat="59.9894624831" lon="23.3940862449">
        <ele>28.4</ele>
        <time>2012-02-12T11:12:14Z</time>
      </trkpt>
      <trkpt lat="59.9895333101" lon="23.3940693135">
        <ele>28.6</ele>
        <time>2012-02-12T11:12:18Z</time>
      </trkpt>
      <trkpt lat="59.9895566118" lon="23.3940610154">
        <ele>28.6</ele>
        <time>2012-02-12T11:12:19Z</time>
      </trkpt>
      <trkpt lat="59.9896677558" lon="23.3939721672">
        <ele>29.2</ele>
        <time>2012-02-12T11:12:25Z</time>
      </trkpt>
      <trkpt lat="59.9896855254" lon="23.39395423">
        <ele>29.4</ele>
        <time>2012-02-12T11:12:26Z</time>
      </trkpt>
      <trkpt lat="59.9897949931" lon="23.3938380568">
        <ele>30.2</ele>
        <time>2012-02-12T11:12:32Z</time>
      </trkpt>
      <trkpt lat="59.9898660716" lon="23.3936966542">
        <ele>30.4</ele>
        <time>2012-02-12T11:12:37Z</time>
      </trkpt>
      <trkpt lat="59.9899482142" lon="23.3935703389">
        <ele>30.6</ele>
        <time>2012-02-12T11:12:42Z</time>
      </trkpt>
      <trkpt lat="59.990038152" lon="23.3935296029">
        <ele>31</ele>
        <time>2012-02-12T11:12:47Z</time>
      </trkpt>
      <trkpt lat="59.9901271678" lon="23.3935833309">
        <ele>32</ele>
        <time>2012-02-12T11:12:53Z</time>
      </trkpt>
      <trkpt lat="59.9901402435" lon="23.3935972448">
        <ele>32</ele>
        <time>2012-02-12T11:12:54Z</time>
      </trkpt>
      <trkpt lat="59.9901902835" lon="23.39365969">
        <ele>32.4</ele>
        <time>2012-02-12T11:12:58Z</time>
      </trkpt>
      <trkpt lat="59.9902994996" lon="23.393765721">
        <ele>33</ele>
        <time>2012-02-12T11:13:06Z</time>
      </trkpt>
      <trkpt lat="59.990387761" lon="23.3938503782">
        <ele>34</ele>
        <time>2012-02-12T11:13:12Z</time>
      </trkpt>
      <trkpt lat="59.9904186064" lon="23.3939124881">
        <ele>34.4</ele>
        <time>2012-02-12T11:13:16Z</time>
      </trkpt>
      <trkpt lat="59.9904254796" lon="23.3940247217">
        <ele>35</ele>
        <time>2012-02-12T11:13:20Z</time>
      </trkpt>
      <trkpt lat="59.9904491165" lon="23.3942744185">
        <ele>35.8</ele>
        <time>2012-02-12T11:13:25Z</time>
      </trkpt>
      <trkpt lat="59.9904385553" lon="23.3943448265">
        <ele>36</ele>
        <time>2012-02-12T11:13:26Z</time>
      </trkpt>
      <trkpt lat="59.9903712487" lon="23.3946943517">
        <ele>36.4</ele>
        <time>2012-02-12T11:13:31Z</time>
      </trkpt>
      <trkpt lat="59.9903152576" lon="23.394941534">
        <ele>36.6</ele>
        <time>2012-02-12T11:13:34Z</time>
      </trkpt>
      <trkpt lat="59.9902430894" lon="23.3952803304">
        <ele>36.8</ele>
        <time>2012-02-12T11:13:38Z</time>
      </trkpt>
      <trkpt lat="59.9902373897" lon="23.3953554322">
        <ele>36.8</ele>
        <time>2012-02-12T11:13:39Z</time>
      </trkpt>
      <trkpt lat="59.9902171894" lon="23.3956603657">
        <ele>36.4</ele>
        <time>2012-02-12T11:13:43Z</time>
      </trkpt>
      <trkpt lat="59.9902574225" lon="23.3958870961">
        <ele>36</ele>
        <time>2012-02-12T11:13:47Z</time>
      </trkpt>
      <trkpt lat="59.9902685704" lon="23.3959321069">
        <ele>35.6</ele>
        <time>2012-02-12T11:13:48Z</time>
      </trkpt>
      <trkpt lat="59.9903222984" lon="23.3960735934">
        <ele>34.8</ele>
        <time>2012-02-12T11:13:52Z</time>
      </trkpt>
      <trkpt lat="59.9903472764" lon="23.3961447557">
        <ele>34.4</ele>
        <time>2012-02-12T11:13:54Z</time>
      </trkpt>
      <trkpt lat="59.9903758587" lon="23.3964263876">
        <ele>33.8</ele>
        <time>2012-02-12T11:14:00Z</time>
      </trkpt>
      <trkpt lat="59.99030302" lon="23.3967153116">
        <ele>33.4</ele>
        <time>2012-02-12T11:14:07Z</time>
      </trkpt>
      <trkpt lat="59.9901487092" lon="23.3971364183">
        <ele>33.2</ele>
        <time>2012-02-12T11:14:18Z</time>
      </trkpt>
      <trkpt lat="59.9900534909" lon="23.397364406">
        <ele>32.8</ele>
        <time>2012-02-12T11:14:22Z</time>
      </trkpt>
      <trkpt lat="59.9899955719" lon="23.3975419346">
        <ele>32.2</ele>
        <time>2012-02-12T11:14:26Z</time>
      </trkpt>
      <trkpt lat="59.989971935" lon="23.3976350575">
        <ele>31.8</ele>
        <time>2012-02-12T11:14:29Z</time>
      </trkpt>
      <trkpt lat="59.9899565961" lon="23.3977764602">
        <ele>31.6</ele>
        <time>2012-02-12T11:14:34Z</time>
      </trkpt>
      <trkpt lat="59.9899632178" lon="23.3979626222">
        <ele>31.4</ele>
        <time>2012-02-12T11:14:38Z</time>
      </trkpt>
      <trkpt lat="59.9899921353" lon="23.3980892727">
        <ele>31.2</ele>
        <time>2012-02-12T11:14:41Z</time>
      </trkpt>
      <trkpt lat="59.9900433488" lon="23.3982604311">
        <ele>31.2</ele>
        <time>2012-02-12T11:14:46Z</time>
      </trkpt>
      <trkpt lat="59.9900973282" lon="23.3983942062">
        <ele>31.2</ele>
        <time>2012-02-12T11:14:51Z</time>
      </trkpt>
      <trkpt lat="59.9901518105" lon="23.3986004848">
        <ele>31</ele>
        <time>2012-02-12T11:14:56Z</time>
      </trkpt>
      <trkpt lat="59.9901689096" lon="23.3987510237">
        <ele>31</ele>
        <time>2012-02-12T11:14:58Z</time>
      </trkpt>
      <trkpt lat="59.9900708414" lon="23.3990626627">
        <ele>31</ele>
        <time>2012-02-12T11:15:02Z</time>
      </trkpt>
      <trkpt lat="59.9900037024" lon="23.3992096813">
        <ele>31</ele>
        <time>2012-02-12T11:15:05Z</time>
      </trkpt>
      <trkpt lat="59.9899252478" lon="23.3993444622">
        <ele>31</ele>
        <time>2012-02-12T11:15:09Z</time>
      </trkpt>
      <trkpt lat="59.9899087354" lon="23.3993627348">
        <ele>31</ele>
        <time>2012-02-12T11:15:10Z</time>
      </trkpt>
      <trkpt lat="59.9898286883" lon="23.3994720347">
        <ele>31</ele>
        <time>2012-02-12T11:15:15Z</time>
      </trkpt>
      <trkpt lat="59.9897617169" lon="23.3995606314">
        <ele>31</ele>
        <time>2012-02-12T11:15:20Z</time>
      </trkpt>
      <trkpt lat="59.9896826756" lon="23.3996693447">
        <ele>31</ele>
        <time>2012-02-12T11:15:25Z</time>
      </trkpt>
      <trkpt lat="59.989601455" lon="23.3998040418">
        <ele>31</ele>
        <time>2012-02-12T11:15:29Z</time>
      </trkpt>
      <trkpt lat="59.989563485" lon="23.3998453646">
        <ele>31</ele>
        <time>2012-02-12T11:15:31Z</time>
      </trkpt>
      <trkpt lat="59.9894509999" lon="23.3999885274">
        <ele>31</ele>
        <time>2012-02-12T11:15:37Z</time>
      </trkpt>
      <trkpt lat="59.989397691" lon="23.4001090591">
        <ele>31</ele>
        <time>2012-02-12T11:15:42Z</time>
      </trkpt>
      <trkpt lat="59.9893483216" lon="23.4003810518">
        <ele>31</ele>
        <time>2012-02-12T11:15:50Z</time>
      </trkpt>
      <trkpt lat="59.9893461423" lon="23.4004045211">
        <ele>31</ele>
        <time>2012-02-12T11:15:51Z</time>
      </trkpt>
      <trkpt lat="59.9892942584" lon="23.4007040064">
        <ele>31</ele>
        <time>2012-02-12T11:15:56Z</time>
      </trkpt>
      <trkpt lat="59.9892991199" lon="23.4008636816">
        <ele>31</ele>
        <time>2012-02-12T11:15:58Z</time>
      </trkpt>
      <trkpt lat="59.9893999541" lon="23.4013298829">
        <ele>31</ele>
        <time>2012-02-12T11:16:02Z</time>
      </trkpt>
      <trkpt lat="59.989444462" lon="23.4014802542">
        <ele>31</ele>
        <time>2012-02-12T11:16:04Z</time>
      </trkpt>
      <trkpt lat="59.9894917359" lon="23.4016060665">
        <ele>31</ele>
        <time>2012-02-12T11:16:08Z</time>
      </trkpt>
      <trkpt lat="59.9895083321" lon="23.4016794081">
        <ele>31</ele>
        <time>2012-02-12T11:16:14Z</time>
      </trkpt>
      <trkpt lat="59.9895108466" lon="23.4017957489">
        <ele>31</ele>
        <time>2012-02-12T11:16:20Z</time>
      </trkpt>
      <trkpt lat="59.9894831026" lon="23.4019448629">
        <ele>31</ele>
        <time>2012-02-12T11:16:25Z</time>
      </trkpt>
      <trkpt lat="59.9893981101" lon="23.4021711742">
        <ele>31</ele>
        <time>2012-02-12T11:16:30Z</time>
      </trkpt>
      <trkpt lat="59.9892906541" lon="23.4024866689">
        <ele>31</ele>
        <time>2012-02-12T11:16:34Z</time>
      </trkpt>
      <trkpt lat="59.9891782529" lon="23.4028239565">
        <ele>31</ele>
        <time>2012-02-12T11:16:38Z</time>
      </trkpt>
      <trkpt lat="59.9890799332" lon="23.4031568856">
        <ele>30.6</ele>
        <time>2012-02-12T11:16:41Z</time>
      </trkpt>
      <trkpt lat="59.9889905821" lon="23.4034816842">
        <ele>30.2</ele>
        <time>2012-02-12T11:16:44Z</time>
      </trkpt>
      <trkpt lat="59.9889651011" lon="23.4035668443">
        <ele>30</ele>
        <time>2012-02-12T11:16:45Z</time>
      </trkpt>
      <trkpt lat="59.9889623351" lon="23.4037696025">
        <ele>29.2</ele>
        <time>2012-02-12T11:16:49Z</time>
      </trkpt>
      <trkpt lat="59.9890295579" lon="23.4037510785">
        <ele>28.6</ele>
        <time>2012-02-12T11:16:52Z</time>
      </trkpt>
      <trkpt lat="59.9890579726" lon="23.4037078279">
        <ele>28.4</ele>
        <time>2012-02-12T11:16:53Z</time>
      </trkpt>
      <trkpt lat="59.9892282928" lon="23.4034359191">
        <ele>27.2</ele>
        <time>2012-02-12T11:16:58Z</time>
      </trkpt>
      <trkpt lat="59.9893359164" lon="23.4032866374">
        <ele>26.4</ele>
        <time>2012-02-12T11:17:02Z</time>
      </trkpt>
      <trkpt lat="59.9894156283" lon="23.4032449794">
        <ele>25.8</ele>
        <time>2012-02-12T11:17:06Z</time>
      </trkpt>
      <trkpt lat="59.9895711963" lon="23.4033090171">
        <ele>24.6</ele>
        <time>2012-02-12T11:17:11Z</time>
      </trkpt>
      <trkpt lat="59.9896729526" lon="23.4034067501">
        <ele>24</ele>
        <time>2012-02-12T11:17:14Z</time>
      </trkpt>
      <trkpt lat="59.9896884591" lon="23.4034031458">
        <ele>23.8</ele>
        <time>2012-02-12T11:17:15Z</time>
      </trkpt>
      <trkpt lat="59.9897682548" lon="23.4034738891">
        <ele>23.4</ele>
        <time>2012-02-12T11:17:19Z</time>
      </trkpt>
      <trkpt lat="59.9897925623" lon="23.4034902338">
        <ele>23.2</ele>
        <time>2012-02-12T11:17:22Z</time>
      </trkpt>
      <trkpt lat="59.9898365673" lon="23.4035403575">
        <ele>22.8</ele>
        <time>2012-02-12T11:17:28Z</time>
      </trkpt>
      <trkpt lat="59.9898665745" lon="23.4035736337">
        <ele>22.8</ele>
        <time>2012-02-12T11:17:32Z</time>
      </trkpt>
      <trkpt lat="59.9898827516" lon="23.403597103">
        <ele>22.8</ele>
        <time>2012-02-12T11:17:35Z</time>
      </trkpt>
      <trkpt lat="59.9899447776" lon="23.4036577041">
        <ele>22.6</ele>
        <time>2012-02-12T11:17:43Z</time>
      </trkpt>
      <trkpt lat="59.9899670735" lon="23.4036793294">
        <ele>22.6</ele>
        <time>2012-02-12T11:17:46Z</time>
      </trkpt>
      <trkpt lat="59.9900130901" lon="23.4036999489">
        <ele>22.6</ele>
        <time>2012-02-12T11:17:52Z</time>
      </trkpt>
      <trkpt lat="59.9900199633" lon="23.4037017929">
        <ele>22.6</ele>
        <time>2012-02-12T11:17:53Z</time>
      </trkpt>
      <trkpt lat="59.990097412" lon="23.4037592928">
        <ele>23.2</ele>
        <time>2012-02-12T11:18:01Z</time>
      </trkpt>
      <trkpt lat="59.9901799737" lon="23.4038291978">
        <ele>24</ele>
        <time>2012-02-12T11:18:07Z</time>
      </trkpt>
      <trkpt lat="59.9901958155" lon="23.4038470513">
        <ele>24</ele>
        <time>2012-02-12T11:18:08Z</time>
      </trkpt>
      <trkpt lat="59.9902821491" lon="23.4039245">
        <ele>24.2</ele>
        <time>2012-02-12T11:18:12Z</time>
      </trkpt>
      <trkpt lat="59.990482225" lon="23.4040467081">
        <ele>24.4</ele>
        <time>2012-02-12T11:18:18Z</time>
      </trkpt>
      <trkpt lat="59.9906964664" lon="23.4040685849">
        <ele>24.6</ele>
        <time>2012-02-12T11:18:24Z</time>
      </trkpt>
      <trkpt lat="59.9908680439" lon="23.4041618754">
        <ele>24.6</ele>
        <time>2012-02-12T11:18:28Z</time>
      </trkpt>
      <trkpt lat="59.9908974644" lon="23.404248209">
        <ele>24.6</ele>
        <time>2012-02-12T11:18:29Z</time>
      </trkpt>
      <trkpt lat="59.9909293156" lon="23.4044361312">
        <ele>24.6</ele>
        <time>2012-02-12T11:18:31Z</time>
      </trkpt>
      <trkpt lat="59.9909475043" lon="23.4046336088">
        <ele>24.6</ele>
        <time>2012-02-12T11:18:33Z</time>
      </trkpt>
      <trkpt lat="59.9910005617" lon="23.4050094532">
        <ele>24.6</ele>
        <time>2012-02-12T11:18:37Z</time>
      </trkpt>
      <trkpt lat="59.9910083569" lon="23.4050894165">
        <ele>24.6</ele>
        <time>2012-02-12T11:18:38Z</time>
      </trkpt>
      <trkpt lat="59.991018499" lon="23.4051581481">
        <ele>24.6</ele>
        <time>2012-02-12T11:18:39Z</time>
      </trkpt>
      <trkpt lat="59.9910170741" lon="23.405389237">
        <ele>24</ele>
        <time>2012-02-12T11:18:43Z</time>
      </trkpt>
      <trkpt lat="59.9910082731" lon="23.4056099325">
        <ele>23.2</ele>
        <time>2012-02-12T11:18:47Z</time>
      </trkpt>
      <trkpt lat="59.9910335864" lon="23.4058445419">
        <ele>22.2</ele>
        <time>2012-02-12T11:18:51Z</time>
      </trkpt>
      <trkpt lat="59.9911502625" lon="23.4061264251">
        <ele>20.6</ele>
        <time>2012-02-12T11:18:56Z</time>
      </trkpt>
      <trkpt lat="59.9912139649" lon="23.4063751999">
        <ele>19.6</ele>
        <time>2012-02-12T11:19:00Z</time>
      </trkpt>
      <trkpt lat="59.991307004" lon="23.4067624437">
        <ele>18</ele>
        <time>2012-02-12T11:19:06Z</time>
      </trkpt>
      <trkpt lat="59.9913658449" lon="23.4071118013">
        <ele>17.2</ele>
        <time>2012-02-12T11:19:10Z</time>
      </trkpt>
      <trkpt lat="59.9914359176" lon="23.4074892383">
        <ele>16.4</ele>
        <time>2012-02-12T11:19:14Z</time>
      </trkpt>
      <trkpt lat="59.9915120253" lon="23.4079082495">
        <ele>15.4</ele>
        <time>2012-02-12T11:19:18Z</time>
      </trkpt>
      <trkpt lat="59.9915222512" lon="23.4080271886">
        <ele>15.2</ele>
        <time>2012-02-12T11:19:19Z</time>
      </trkpt>
      <trkpt lat="59.9915282023" lon="23.4082447827">
        <ele>14.6</ele>
        <time>2012-02-12T11:19:21Z</time>
      </trkpt>
      <trkpt lat="59.9914256079" lon="23.4086867603">
        <ele>13.2</ele>
        <time>2012-02-12T11:19:27Z</time>
      </trkpt>
      <trkpt lat="59.9914002107" lon="23.4087107326">
        <ele>13</ele>
        <time>2012-02-12T11:19:28Z</time>
      </trkpt>
      <trkpt lat="59.9913452255" lon="23.4087422485">
        <ele>12.6</ele>
        <time>2012-02-12T11:19:30Z</time>
      </trkpt>
      <trkpt lat="59.9912368475" lon="23.4087109002">
        <ele>12.2</ele>
        <time>2012-02-12T11:19:35Z</time>
      </trkpt>
      <trkpt lat="59.9911281343" lon="23.4085959843">
        <ele>11.2</ele>
        <time>2012-02-12T11:19:40Z</time>
      </trkpt>
      <trkpt lat="59.9910314071" lon="23.408461371">
        <ele>10.6</ele>
        <time>2012-02-12T11:19:45Z</time>
      </trkpt>
      <trkpt lat="59.9909222748" lon="23.4082776398">
        <ele>10</ele>
        <time>2012-02-12T11:19:51Z</time>
      </trkpt>
      <trkpt lat="59.9908196803" lon="23.4080783182">
        <ele>9.8</ele>
        <time>2012-02-12T11:19:57Z</time>
      </trkpt>
      <trkpt lat="59.9907333468" lon="23.4078933297">
        <ele>9.6</ele>
        <time>2012-02-12T11:20:03Z</time>
      </trkpt>
      <trkpt lat="59.9906782777" lon="23.4077650028">
        <ele>10.4</ele>
        <time>2012-02-12T11:20:08Z</time>
      </trkpt>
      <trkpt lat="59.9906617653" lon="23.4077124483">
        <ele>10.6</ele>
        <time>2012-02-12T11:20:10Z</time>
      </trkpt>
      <trkpt lat="59.9906227895" lon="23.4076441358">
        <ele>11</ele>
        <time>2012-02-12T11:20:15Z</time>
      </trkpt>
      <trkpt lat="59.9906020024" lon="23.4076268691">
        <ele>13</ele>
        <time>2012-02-12T11:20:31Z</time>
      </trkpt>
    </trkseg>
  </trk>
</gpx>